FR5173 / EI-DHR 7700 Squawk Report (11th of December, 2017)

Aircraft B738 Reg No. EI-DHR Age 12 years old
Model 737 Jet engines 2 First flight 15-10-05
Registered 24-10-05 Rollout 04-10-05 Delivered 24-10-05
Construction No. 33822 Line No. 1798 Series 8AS
ADSHEX 4CA27B Airline name Ryanair Owner N/A
Airfield based Dublin~Co Dublin~EI First tracked 2011-04-01 15:13:04

Flight history for EI-DHR

Route Flight No Date Playback
Alicante (ALC) - Prestwick (PIK) FR692 2018-01-12 13:09:00
Stansted (STN) - Alicante (ALC) FR8382 2018-01-12 09:45:00
Schonefeld (SXF) - Stansted (STN) FR8545 2018-01-12 06:36:00
Stansted (STN) - Schonefeld (SXF) FR8544 2018-01-11 21:54:00
Treviso (TSF) - Stansted (STN) FR795 2018-01-11 19:34:00
Stansted (STN) - Treviso (TSF) FR794 2018-01-11 15:17:00
Riga Intl (RIX) - Stansted (STN) FR2643 2018-01-11 13:18:00
Stansted (STN) - Riga Intl (RIX) FR2642 2018-01-11 09:35:00
Lech Walesa (GDN) - Stansted (STN) FR2373 2018-01-09 23:58:00
Stansted (STN) - Lech Walesa (GDN) FR2372 2018-01-09 20:51:00
Warsaw Modlin (WMI) - Stansted (STN) FR2282 2018-01-09 19:02:00
Stansted (STN) - Warsaw Modlin (WMI) FR2281 2018-01-09 14:39:00
Billund (BLL) - Stansted (STN) FR5173 2018-01-09 11:56:00
Stansted (STN) - Billund (BLL) FR5172 2018-01-09 09:04:00
Kastrup (CPH) - Stansted (STN) FR7385 2018-01-09 07:48:00
???? FR7386 2018-01-08 21:07:00
Alicante (ALC) - Stansted (STN) FR8975 2018-01-08 19:35:00
???? FR5564 2018-01-08 15:06:00
???? FR4029 2018-01-08 12:06:00
Eindhoven (EIN) - Alicante (ALC) FR7523 2018-01-08 09:17:00
Time Lat Lon Altitude Heading Speed Vertical Rate
2017-12-11 11:58:08 GMT 51.87831 0.22477 0 42 141 0
2017-12-11 11:58:04 GMT 51.87646 0.22202 1,250 43 140 -832
2017-12-11 11:57:55 GMT 51.87186 0.21505 1,375 43 138 -576
2017-12-11 11:57:49 GMT 51.86939 0.21126 1,425 43 133 -768
2017-12-11 11:57:46 GMT 51.86771 0.20882 1,500 42 133 -896
2017-12-11 11:57:36 GMT 51.86334 0.20213 1,625 43 131 -640
2017-12-11 11:57:34 GMT 51.86236 0.20065 1,650 42 130 -640
2017-12-11 11:57:29 GMT 51.86022 0.19752 1,700 42 130 -576
2017-12-11 11:57:26 GMT 51.85845 0.19486 1,725 42 129 -512
2017-12-11 11:57:23 GMT 51.85767 0.19367 1,750 43 128 -704
2017-12-11 11:57:18 GMT 51.85542 0.19033 1,800 42 125 -704
2017-12-11 11:57:13 GMT 51.85350 0.18751 1,875 42 125 -640
2017-12-11 11:57:11 GMT 51.85268 0.18625 1,875 42 125 -640
2017-12-11 11:57:05 GMT 51.84946 0.18150 1,975 42 125 -576
2017-12-11 11:57:02 GMT 51.84869 0.18038 2,000 42 125 -576
2017-12-11 11:56:58 GMT 51.84672 0.17746 2,050 42 123 -704
2017-12-11 11:56:54 GMT 51.84504 0.17494 2,075 42 123 -576
2017-12-11 11:56:52 GMT 51.84420 0.17372 2,100 42 123 -576
2017-12-11 11:56:49 GMT 51.84293 0.17185 2,125 42 123 -640
2017-12-11 11:56:47 GMT 51.84253 0.17120 2,150 42 122 -640
2017-12-11 11:56:45 GMT 51.84136 0.16945 2,175 42 122 -640
2017-12-11 11:56:43 GMT 51.84001 0.16746 2,225 42 121 -768
2017-12-11 11:56:36 GMT 51.83769 0.16403 2,275 42 120 -768
2017-12-11 11:56:33 GMT 51.83606 0.16159 2,350 42 119 -704
2017-12-11 11:56:28 GMT 51.83410 0.15869 2,400 43 120 -576
2017-12-11 11:56:25 GMT 51.83312 0.15724 2,425 43 121 -704
2017-12-11 11:56:23 GMT 51.83240 0.15611 2,450 43 121 -768
2017-12-11 11:56:18 GMT 51.83011 0.15255 2,500 43 121 -640
2017-12-11 11:56:16 GMT 51.82947 0.15158 2,525 43 121 -640
2017-12-11 11:56:13 GMT 51.82824 0.14969 2,575 43 120 -576
2017-12-11 11:56:11 GMT 51.82758 0.14870 2,575 43 120 -576
2017-12-11 11:56:07 GMT 51.82590 0.14616 2,625 43 119 -576
2017-12-11 11:56:04 GMT 51.82429 0.14371 2,650 43 119 -576
2017-12-11 11:56:01 GMT 51.82372 0.14282 2,675 43 119 -640
2017-12-11 11:55:57 GMT 51.82162 0.13962 2,725 43 119 -768
2017-12-11 11:55:55 GMT 51.82123 0.13904 2,750 43 119 -768
2017-12-11 11:55:51 GMT 51.81963 0.13659 2,800 42 118 -704
2017-12-11 11:55:49 GMT 51.81827 0.13458 2,850 42 117 -640
2017-12-11 11:55:44 GMT 51.81669 0.13214 2,900 43 116 -640
2017-12-11 11:55:42 GMT 51.81564 0.13065 2,925 41 117 -512
2017-12-11 11:55:38 GMT 51.81399 0.12827 2,950 41 118 -512
2017-12-11 11:55:35 GMT 51.81303 0.12686 2,975 41 118 -512
2017-12-11 11:55:33 GMT 51.81213 0.12558 3,000 42 118 -448
2017-12-11 11:55:30 GMT 51.81115 0.12413 3,000 42 118 -448
2017-12-11 11:55:28 GMT 51.80997 0.12233 3,025 42 117 -512
2017-12-11 11:55:24 GMT 51.80882 0.12070 3,050 41 116 -576
2017-12-11 11:55:22 GMT 51.80736 0.11862 3,100 41 115 -576
2017-12-11 11:55:20 GMT 51.80682 0.11787 3,100 41 115 -576
2017-12-11 11:55:18 GMT 51.80570 0.11627 3,150 41 114 -640
2017-12-11 11:55:16 GMT 51.80505 0.11536 3,150 41 114 -640
2017-12-11 11:55:14 GMT 51.80459 0.11467 3,175 41 114 -576
2017-12-11 11:55:12 GMT 51.80398 0.11375 3,175 41 114 -576
2017-12-11 11:55:10 GMT 51.80260 0.11187 3,225 41 114 -448
2017-12-11 11:55:10 GMT 51.80286 0.11223 3,200 40 113 -448
2017-12-11 11:55:07 GMT 51.80189 0.11086 3,225 40 113 -448
2017-12-11 11:55:05 GMT 51.80110 0.10979 3,250 41 114 -384
2017-12-11 11:55:02 GMT 51.79976 0.10786 3,275 40 114 -320
2017-12-11 11:55:00 GMT 51.79886 0.10658 3,275 40 114 -320
2017-12-11 11:54:58 GMT 51.79840 0.10597 3,275 41 114 -320
2017-12-11 11:54:56 GMT 51.79742 0.10460 3,300 41 114 -320
2017-12-11 11:54:54 GMT 51.79681 0.10368 3,300 41 113 -384
2017-12-11 11:54:52 GMT 51.79578 0.10229 3,325 41 113 -384
2017-12-11 11:54:50 GMT 51.79500 0.10118 3,350 41 113 -320
2017-12-11 11:54:48 GMT 51.79422 0.10006 3,350 41 112 -256
2017-12-11 11:54:46 GMT 51.79344 0.09895 3,350 42 119 256
2017-12-11 11:54:43 GMT 51.79234 0.09732 3,375 41 116 0
2017-12-11 11:54:41 GMT 51.79152 0.09620 3,375 41 116 0
2017-12-11 11:54:39 GMT 51.79088 0.09524 3,375 41 117 0
2017-12-11 11:54:37 GMT 51.78973 0.09361 3,375 42 120 320
2017-12-11 11:54:35 GMT 51.78885 0.09224 3,375 43 121 128
2017-12-11 11:54:32 GMT 51.78813 0.09116 3,350 43 122 64
2017-12-11 11:54:30 GMT 51.78699 0.08938 3,350 43 125 64
2017-12-11 11:54:27 GMT 51.78529 0.08685 3,350 43 126 -64
2017-12-11 11:54:24 GMT 51.78471 0.08591 3,350 43 127 -192
2017-12-11 11:54:22 GMT 51.78323 0.08366 3,375 44 129 -128
2017-12-11 11:54:20 GMT 51.78280 0.08301 3,375 44 130 -64
2017-12-11 11:54:18 GMT 51.78223 0.08210 3,375 44 132 64
2017-12-11 11:54:16 GMT 51.78049 0.07928 3,375 44 135 0
2017-12-11 11:54:13 GMT 51.77987 0.07835 3,375 44 136 64
2017-12-11 11:54:10 GMT 51.77842 0.07599 3,350 45 145 64
2017-12-11 11:54:08 GMT 51.77760 0.07468 3,350 45 145 64
2017-12-11 11:54:06 GMT 51.77609 0.07223 3,350 45 149 -64
2017-12-11 11:54:03 GMT 51.77513 0.07060 3,350 46 151 -64
2017-12-11 11:54:00 GMT 51.77358 0.06800 3,350 46 152 0
2017-12-11 11:53:57 GMT 51.77191 0.06523 3,375 46 152 128
2017-12-11 11:53:54 GMT 51.77074 0.06325 3,350 46 152 128
2017-12-11 11:53:51 GMT 51.76932 0.06080 3,350 46 152 -128
2017-12-11 11:53:49 GMT 51.76786 0.05829 3,375 46 152 128
2017-12-11 11:53:46 GMT 51.76688 0.05661 3,375 46 152 128
2017-12-11 11:53:44 GMT 51.76595 0.05501 3,375 47 152 128
2017-12-11 11:53:43 GMT 51.76566 0.05449 3,350 47 152 0
2017-12-11 11:53:43 GMT 51.76543 0.05419 3,350 47 152 128
2017-12-11 11:53:40 GMT 51.76373 0.05115 3,350 47 152 0
2017-12-11 11:53:38 GMT 51.76295 0.04981 3,350 47 152 0
2017-12-11 11:53:34 GMT 51.76067 0.04580 3,350 46 152 -64
2017-12-11 11:53:33 GMT 51.76018 0.04494 3,350 46 152 0
2017-12-11 11:53:31 GMT 51.75970 0.04417 3,350 46 152 64
2017-12-11 11:53:28 GMT 51.75827 0.04166 3,350 48 151 64
2017-12-11 11:53:26 GMT 51.75664 0.03860 3,350 51 150 0
2017-12-11 11:53:24 GMT 51.75618 0.03771 3,350 52 150 0
2017-12-11 11:53:21 GMT 51.75517 0.03556 3,350 55 149 0
2017-12-11 11:53:18 GMT 51.75380 0.03250 3,350 56 149 -64
2017-12-11 11:53:15 GMT 51.75265 0.02969 3,350 55 149 64
2017-12-11 11:53:13 GMT 51.75201 0.02828 3,350 55 149 64
2017-12-11 11:53:10 GMT 51.75040 0.02441 3,350 56 149 -64
2017-12-11 11:53:08 GMT 51.75000 0.02346 3,350 59 150 -64
2017-12-11 11:53:05 GMT 51.74886 0.02041 3,350 63 150 0
2017-12-11 11:53:03 GMT 51.74835 0.01854 3,375 73 153 0
2017-12-11 11:53:00 GMT 51.74775 0.01549 3,375 80 156 64
2017-12-11 11:52:57 GMT 51.74751 0.01274 3,350 84 157 0
2017-12-11 11:52:55 GMT 51.74733 0.00946 3,350 86 159 0
2017-12-11 11:52:53 GMT 51.74725 0.00683 3,350 86 159 0
2017-12-11 11:52:51 GMT 51.74716 0.00445 3,350 86 159 64
2017-12-11 11:52:48 GMT 51.74703 0.00119 3,350 86 159 64
2017-12-11 11:52:47 GMT 51.74700 0.00000 3,350 86 159 0
2017-12-11 11:52:45 GMT 51.74691 -0.00282 3,350 87 159 64
2017-12-11 11:52:42 GMT 51.74680 -0.00594 3,350 87 159 64
2017-12-11 11:52:40 GMT 51.74672 -0.00809 3,350 87 159 64
2017-12-11 11:52:38 GMT 51.74663 -0.01045 3,350 87 159 64
2017-12-11 11:52:36 GMT 51.74658 -0.01282 3,350 87 159 64
2017-12-11 11:52:34 GMT 51.74652 -0.01492 3,350 87 160 0
2017-12-11 11:52:32 GMT 51.74643 -0.01782 3,350 87 161 0
2017-12-11 11:52:29 GMT 51.74630 -0.02136 3,350 87 163 64
2017-12-11 11:52:27 GMT 51.74626 -0.02335 3,350 87 163 64
2017-12-11 11:52:25 GMT 51.74616 -0.02598 3,350 87 166 -64
2017-12-11 11:52:22 GMT 51.74602 -0.03059 3,350 87 165 0
2017-12-11 11:52:19 GMT 51.74593 -0.03304 3,350 87 166 -64
2017-12-11 11:52:17 GMT 51.74588 -0.03578 3,350 87 167 -192
2017-12-11 11:52:16 GMT 51.74584 -0.03700 3,350 87 167 -192
2017-12-11 11:52:15 GMT 51.74579 -0.03799 3,350 87 167 -192
2017-12-11 11:52:15 GMT 51.74579 -0.03799 3,350 87 167 -192
2017-12-11 11:52:13 GMT 51.74574 -0.04051 3,350 87 167 -128
2017-12-11 11:52:11 GMT 51.74565 -0.04276 3,350 87 168 -192
2017-12-11 11:52:09 GMT 51.74560 -0.04600 3,375 88 168 -192
2017-12-11 11:52:07 GMT 51.74556 -0.04852 3,375 90 170 -128
2017-12-11 11:52:03 GMT 51.74565 -0.05330 3,375 96 173 64
2017-12-11 11:52:01 GMT 51.74584 -0.05615 3,375 100 174 64
2017-12-11 11:51:59 GMT 51.74611 -0.05842 3,375 102 176 64
2017-12-11 11:51:57 GMT 51.74686 -0.06279 3,375 110 181 192
2017-12-11 11:51:53 GMT 51.74775 -0.06630 3,375 116 185 128
2017-12-11 11:51:49 GMT 51.74919 -0.07072 3,350 122 190 0
2017-12-11 11:51:47 GMT 51.75045 -0.07355 3,350 131 195 0
2017-12-11 11:51:46 GMT 51.75101 -0.07468 3,350 131 195 0
2017-12-11 11:51:45 GMT 51.75124 -0.07512 3,350 131 195 0
2017-12-11 11:51:42 GMT 51.75297 -0.07809 3,350 137 200 64
2017-12-11 11:51:40 GMT 51.75462 -0.08047 3,350 140 203 0
2017-12-11 11:51:38 GMT 51.75664 -0.08278 3,350 147 207 0
2017-12-11 11:51:36 GMT 51.75815 -0.08425 3,350 154 212 -64
2017-12-11 11:51:33 GMT 51.76099 -0.08641 3,350 158 215 -128
2017-12-11 11:51:31 GMT 51.76460 -0.08827 3,375 166 221 -128
2017-12-11 11:51:29 GMT 51.76460 -0.08827 3,375 166 221 -128
2017-12-11 11:51:26 GMT 51.76845 -0.08938 3,375 174 226 192
2017-12-11 11:51:24 GMT 51.76911 -0.08942 3,375 174 226 192
2017-12-11 11:51:22 GMT 51.77163 -0.08964 3,375 181 230 128
2017-12-11 11:51:18 GMT 51.77544 -0.08934 3,375 188 232 -256
2017-12-11 11:51:16 GMT 51.77824 -0.08863 3,375 195 234 -512
2017-12-11 11:51:14 GMT 51.77994 -0.08804 3,400 197 233 -512
2017-12-11 11:51:12 GMT 51.78220 -0.08690 3,400 201 233 -448
2017-12-11 11:51:09 GMT 51.78615 -0.08423 3,425 209 230 -320
2017-12-11 11:51:07 GMT 51.78713 -0.08344 3,450 211 230 -320
2017-12-11 11:51:04 GMT 51.79001 -0.08062 3,450 214 229 -256
2017-12-11 11:51:02 GMT 51.79138 -0.07906 3,450 218 229 -128
2017-12-11 11:51:00 GMT 51.79340 -0.07646 3,475 221 229 -64
2017-12-11 11:50:58 GMT 51.79542 -0.07347 3,475 225 229 -128
2017-12-11 11:50:55 GMT 51.79756 -0.07011 3,475 226 228 0
2017-12-11 11:50:52 GMT 51.79961 -0.06668 3,475 226 226 256
2017-12-11 11:50:50 GMT 51.80138 -0.06378 3,475 221 235 -576
2017-12-11 11:50:47 GMT 51.80314 -0.06088 3,450 226 227 704
2017-12-11 11:50:43 GMT 51.80621 -0.05575 3,375 226 230 1728
2017-12-11 11:50:41 GMT 51.80757 -0.05356 3,325 226 234 1344
2017-12-11 11:50:37 GMT 51.81047 -0.04884 3,250 224 236 448
2017-12-11 11:50:34 GMT 51.81325 -0.04478 3,250 220 233 -832
2017-12-11 11:50:32 GMT 51.81473 -0.04283 3,275 217 230 -960
2017-12-11 11:50:27 GMT 51.81948 -0.03769 3,350 208 228 -64
2017-12-11 11:50:24 GMT 51.82209 -0.03540 3,350 207 228 0
2017-12-11 11:50:22 GMT 51.82457 -0.03348 3,350 206 230 128
2017-12-11 11:50:17 GMT 51.82824 -0.03067 3,350 206 233 192
2017-12-11 11:50:13 GMT 51.83252 -0.02739 3,325 206 234 64
2017-12-11 11:50:10 GMT 51.83526 -0.02533 3,325 206 236 -192
2017-12-11 11:50:08 GMT 51.83743 -0.02368 3,325 206 239 -448
2017-12-11 11:50:03 GMT 51.84243 -0.01991 3,350 206 240 -640
2017-12-11 11:50:01 GMT 51.84384 -0.01886 3,375 205 241 -768
2017-12-11 11:49:58 GMT 51.84770 -0.01594 3,425 205 242 -704
2017-12-11 11:49:56 GMT 51.84911 -0.01485 3,450 195 240 -320
2017-12-11 11:49:54 GMT 51.85175 -0.01289 3,475 205 242 -768
2017-12-11 11:49:52 GMT 51.85359 -0.01158 3,500 204 241 -768
2017-12-11 11:49:49 GMT 51.85626 -0.00977 3,525 201 240 -512
2017-12-11 11:49:46 GMT 51.86064 -0.00713 3,575 199 240 -384
2017-12-11 11:49:44 GMT 51.86171 -0.00664 3,575 195 240 -320
2017-12-11 11:49:42 GMT 51.86385 -0.00572 3,575 192 239 -384
2017-12-11 11:49:40 GMT 51.86627 -0.00497 3,600 175 233 -832
2017-12-11 11:49:37 GMT 51.86975 -0.00430 3,625 183 237 -640
2017-12-11 11:49:34 GMT 51.87218 -0.00420 3,650 179 236 -704
2017-12-11 11:49:32 GMT 51.87497 -0.00430 3,675 174 232 -896
2017-12-11 11:49:30 GMT 51.87836 -0.00505 3,750 167 224 -1216
2017-12-11 11:49:28 GMT 51.87982 -0.00549 3,775 158 219 -320
2017-12-11 11:49:26 GMT 51.88182 -0.00633 3,800 157 219 -192
2017-12-11 11:49:26 GMT 51.88238 -0.00661 3,825 163 221 -960
2017-12-11 11:49:24 GMT 51.88316 -0.00698 3,825 160 219 -512
2017-12-11 11:49:21 GMT 51.88545 -0.00831 3,850 155 217 -128
2017-12-11 11:49:19 GMT 51.88787 -0.01007 3,850 151 217 -128
2017-12-11 11:49:17 GMT 51.88943 -0.01143 3,850 147 216 0
2017-12-11 11:49:13 GMT 51.89397 -0.01663 3,850 128 204 0
2017-12-11 11:49:11 GMT 51.89499 -0.01805 3,850 134 207 0
2017-12-11 11:49:08 GMT 51.89594 -0.01961 3,850 132 206 0
2017-12-11 11:49:05 GMT 51.89872 -0.02503 3,875 122 199 0
2017-12-11 11:49:02 GMT 51.90015 -0.02884 3,875 116 196 0
2017-12-11 11:49:00 GMT 51.90072 -0.03068 3,875 114 195 0
2017-12-11 11:49:00 GMT 51.90051 -0.02983 3,875 114 195 0
2017-12-11 11:48:58 GMT 51.90129 -0.03250 3,875 106 190 0
2017-12-11 11:48:56 GMT 51.90183 -0.03492 3,875 108 191 0
2017-12-11 11:48:54 GMT 51.90263 -0.03932 3,850 99 187 0
2017-12-11 11:48:51 GMT 51.90299 -0.04234 3,875 95 185 0
2017-12-11 11:48:49 GMT 51.90314 -0.04481 3,875 91 184 0
2017-12-11 11:48:46 GMT 51.90317 -0.04898 3,850 87 182 64
2017-12-11 11:48:43 GMT 51.90300 -0.05250 3,850 82 180 0
2017-12-11 11:48:41 GMT 51.90258 -0.05674 3,850 79 179 0
2017-12-11 11:48:39 GMT 51.90239 -0.05859 3,850 79 179 0
2017-12-11 11:48:37 GMT 51.90202 -0.06180 3,850 79 180 0
2017-12-11 11:48:33 GMT 51.90143 -0.06706 3,850 79 180 0
2017-12-11 11:48:31 GMT 51.90104 -0.07055 3,850 79 180 0
2017-12-11 11:48:29 GMT 51.90083 -0.07240 3,850 79 181 0
2017-12-11 11:48:27 GMT 51.90049 -0.07534 3,850 79 181 0
2017-12-11 11:48:24 GMT 51.89996 -0.07988 3,850 77 181 0
2017-12-11 11:48:22 GMT 51.89983 -0.08122 3,850 77 181 0
2017-12-11 11:48:20 GMT 51.89937 -0.08436 3,850 76 181 0
2017-12-11 11:48:18 GMT 51.89909 -0.08648 3,850 73 180 -64
2017-12-11 11:48:15 GMT 51.89806 -0.09158 3,850 66 178 0
2017-12-11 11:48:12 GMT 51.89690 -0.09567 3,850 59 177 0
2017-12-11 11:48:10 GMT 51.89616 -0.09770 3,850 57 176 0
2017-12-11 11:48:08 GMT 51.89566 -0.09880 3,850 52 176 0
2017-12-11 11:48:06 GMT 51.89470 -0.10094 3,850 47 176 0
2017-12-11 11:48:04 GMT 51.89369 -0.10272 3,850 43 176 0
2017-12-11 11:48:00 GMT 51.89127 -0.10612 3,850 34 176 0
2017-12-11 11:47:58 GMT 51.88964 -0.10788 3,850 27 177 -64
2017-12-11 11:47:56 GMT 51.88834 -0.10905 3,850 23 179 -192
2017-12-11 11:47:54 GMT 51.88655 -0.11038 3,850 22 179 -320
2017-12-11 11:47:52 GMT 51.88531 -0.11120 3,875 20 180 -768
2017-12-11 11:47:50 GMT 51.88331 -0.11246 3,900 19 180 -768
2017-12-11 11:47:48 GMT 51.88205 -0.11322 3,925 19 180 -768
2017-12-11 11:47:46 GMT 51.88047 -0.11406 3,950 19 180 -704
2017-12-11 11:47:44 GMT 51.87904 -0.11491 3,975 19 180 -512
2017-12-11 11:47:42 GMT 51.87763 -0.11574 4,000 19 181 -320
2017-12-11 11:47:39 GMT 51.87446 -0.11757 4,025 19 181 -448
2017-12-11 11:47:37 GMT 51.87369 -0.11803 4,025 19 182 -512
2017-12-11 11:47:35 GMT 51.87241 -0.11877 4,025 20 183 -512
2017-12-11 11:47:33 GMT 51.86939 -0.12054 4,075 20 183 -448
2017-12-11 11:47:31 GMT 51.86846 -0.12108 4,075 20 184 -192
2017-12-11 11:47:29 GMT 51.86622 -0.12238 4,100 20 184 -192
2017-12-11 11:47:27 GMT 51.86492 -0.12314 4,100 19 185 -384
2017-12-11 11:47:25 GMT 51.86427 -0.12352 4,100 19 185 -384
2017-12-11 11:47:23 GMT 51.86220 -0.12478 4,125 19 185 -448
2017-12-11 11:47:19 GMT 51.85931 -0.12649 4,150 19 185 -448
2017-12-11 11:47:17 GMT 51.85739 -0.12760 4,175 19 185 -448
2017-12-11 11:47:15 GMT 51.85606 -0.12835 4,175 19 184 -448
2017-12-11 11:47:13 GMT 51.85430 -0.12940 4,200 19 184 -512
2017-12-11 11:47:11 GMT 51.85318 -0.13005 4,200 19 184 -512
2017-12-11 11:47:09 GMT 51.85044 -0.13161 4,225 19 184 -448
2017-12-11 11:47:07 GMT 51.84881 -0.13245 4,250 19 184 -448
2017-12-11 11:47:05 GMT 51.84801 -0.13295 4,250 19 184 -384
2017-12-11 11:47:03 GMT 51.84672 -0.13362 4,275 18 185 -384
2017-12-11 11:47:00 GMT 51.84369 -0.13534 4,300 18 185 -384
2017-12-11 11:46:58 GMT 51.84187 -0.13636 4,300 18 185 -384
2017-12-11 11:46:58 GMT 51.84141 -0.13657 4,325 18 185 -384
2017-12-11 11:46:56 GMT 51.84091 -0.13688 4,325 18 185 -384
2017-12-11 11:46:54 GMT 51.83963 -0.13755 4,325 18 185 -448
2017-12-11 11:46:52 GMT 51.83787 -0.13855 4,350 18 185 -512
2017-12-11 11:46:50 GMT 51.83592 -0.13962 4,375 19 184 -512
2017-12-11 11:46:48 GMT 51.83368 -0.14084 4,400 18 184 -384
2017-12-11 11:46:48 GMT 51.83396 -0.14069 4,400 18 183 -448
2017-12-11 11:46:46 GMT 51.83189 -0.14186 4,400 18 184 -384
2017-12-11 11:46:44 GMT 51.83107 -0.14229 4,425 18 184 -384
2017-12-11 11:46:42 GMT 51.82945 -0.14313 4,425 17 184 -320
2017-12-11 11:46:38 GMT 51.82571 -0.14498 4,450 15 185 -320
2017-12-11 11:46:36 GMT 51.82488 -0.14534 4,450 14 186 -384
2017-12-11 11:46:34 GMT 51.82288 -0.14618 4,475 6 188 -576
2017-12-11 11:46:31 GMT 51.82083 -0.14679 4,500 6 188 -576
2017-12-11 11:46:29 GMT 51.81894 -0.14705 4,525 0 190 -640
2017-12-11 11:46:27 GMT 51.81595 -0.14702 4,550 355 191 -704
2017-12-11 11:46:25 GMT 51.81450 -0.14687 4,575 354 192 -640
2017-12-11 11:46:23 GMT 51.81258 -0.14638 4,600 350 194 -448
2017-12-11 11:46:21 GMT 51.81171 -0.14618 4,625 350 194 -448
2017-12-11 11:46:18 GMT 51.80850 -0.14526 4,650 350 194 -384
2017-12-11 11:46:16 GMT 51.80710 -0.14481 4,650 350 194 -320
2017-12-11 11:46:14 GMT 51.80553 -0.14438 4,675 350 194 -256
2017-12-11 11:46:11 GMT 51.80232 -0.14342 4,675 350 195 -256
2017-12-11 11:46:07 GMT 51.79858 -0.14236 4,700 350 196 -320
2017-12-11 11:46:04 GMT 51.79628 -0.14164 4,725 350 196 -320
2017-12-11 11:46:01 GMT 51.79308 -0.14074 4,725 351 195 -192
2017-12-11 11:45:57 GMT 51.78987 -0.13978 4,750 351 196 -192
2017-12-11 11:45:54 GMT 51.78718 -0.13908 4,750 351 196 -192
2017-12-11 11:45:52 GMT 51.78589 -0.13874 4,775 351 197 -256
2017-12-11 11:45:50 GMT 51.78210 -0.13771 4,775 351 198 -256
2017-12-11 11:45:47 GMT 51.78103 -0.13740 4,775 351 198 -256
2017-12-11 11:45:45 GMT 51.77884 -0.13680 4,800 351 198 -320
2017-12-11 11:45:43 GMT 51.77797 -0.13659 4,800 351 198 -320
2017-12-11 11:45:41 GMT 51.77614 -0.13607 4,825 351 199 -320
2017-12-11 11:45:39 GMT 51.77302 -0.13527 4,825 351 199 -256
2017-12-11 11:45:37 GMT 51.77121 -0.13481 4,850 351 199 -320
2017-12-11 11:45:35 GMT 51.77014 -0.13451 4,850 351 199 -576
2017-12-11 11:45:33 GMT 51.76776 -0.13391 4,875 351 200 -384
2017-12-11 11:45:31 GMT 51.76683 -0.13367 4,875 351 199 -512
2017-12-11 11:45:29 GMT 51.76410 -0.13295 4,900 351 199 -576
2017-12-11 11:45:26 GMT 51.76190 -0.13236 4,925 351 199 -576
2017-12-11 11:45:23 GMT 51.75957 -0.13176 4,950 351 198 -448
2017-12-11 11:45:21 GMT 51.75755 -0.13117 4,975 351 198 -448
2017-12-11 11:45:19 GMT 51.75572 -0.13065 4,975 351 198 -256
2017-12-11 11:45:17 GMT 51.75301 -0.12993 5,000 350 200 -64
2017-12-11 11:45:15 GMT 51.75174 -0.12954 5,000 350 200 -64
2017-12-11 11:45:13 GMT 51.75028 -0.12909 5,000 350 201 -64
2017-12-11 11:45:11 GMT 51.74844 -0.12857 5,000 350 201 -64
2017-12-11 11:45:09 GMT 51.74644 -0.12802 5,000 351 202 -128
2017-12-11 11:45:06 GMT 51.74332 -0.12716 5,025 351 203 -192
2017-12-11 11:45:04 GMT 51.74128 -0.12657 5,025 351 203 -128
2017-12-11 11:45:02 GMT 51.73998 -0.12619 5,025 351 203 -128
2017-12-11 11:45:00 GMT 51.73792 -0.12566 5,025 353 203 64
2017-12-11 11:44:58 GMT 51.73681 -0.12535 5,050 351 204 -64
2017-12-11 11:44:58 GMT 51.73681 -0.12535 5,050 351 204 -128
2017-12-11 11:44:56 GMT 51.73402 -0.12464 5,050 352 204 -64
2017-12-11 11:44:54 GMT 51.73271 -0.12436 5,050 352 204 0
2017-12-11 11:44:52 GMT 51.73141 -0.12404 5,050 353 203 64
2017-12-11 11:44:50 GMT 51.72819 -0.12337 5,050 356 203 64
2017-12-11 11:44:48 GMT 51.72708 -0.12314 5,050 356 203 64
2017-12-11 11:44:45 GMT 51.72373 -0.12276 5,050 1 202 -64
2017-12-11 11:44:43 GMT 51.72261 -0.12268 5,050 2 201 -128
2017-12-11 11:44:41 GMT 51.72112 -0.12283 5,050 4 200 -128
2017-12-11 11:44:39 GMT 51.71869 -0.12322 5,050 11 198 -192
2017-12-11 11:44:37 GMT 51.71605 -0.12413 5,050 17 197 -128
2017-12-11 11:44:37 GMT 51.71690 -0.12382 5,050 15 196 -192
2017-12-11 11:44:34 GMT 51.71343 -0.12553 5,075 23 195 -64
2017-12-11 11:44:32 GMT 51.71260 -0.12604 5,075 27 195 0
2017-12-11 11:44:30 GMT 51.71050 -0.12775 5,075 55 194 -512
2017-12-11 11:44:28 GMT 51.70911 -0.12909 5,075 33 195 -128
2017-12-11 11:44:26 GMT 51.70802 -0.13020 5,075 36 194 -192
2017-12-11 11:44:24 GMT 51.70688 -0.13161 5,075 42 193 -320
2017-12-11 11:44:22 GMT 51.70543 -0.13374 5,100 46 194 -384
2017-12-11 11:44:20 GMT 51.70312 -0.13777 5,125 51 194 -448
2017-12-11 11:44:20 GMT 51.70366 -0.13664 5,100 51 194 -448
2017-12-11 11:44:18 GMT 51.70248 -0.13911 5,125 57 195 -576
2017-12-11 11:44:16 GMT 51.70180 -0.14052 5,125 59 195 -576
2017-12-11 11:44:14 GMT 51.70050 -0.14435 5,175 65 196 -640
2017-12-11 11:44:11 GMT 51.69961 -0.14755 5,200 68 197 -640
2017-12-11 11:44:09 GMT 51.69900 -0.15002 5,200 71 197 -512
2017-12-11 11:44:07 GMT 51.69835 -0.15305 5,225 71 197 -512
2017-12-11 11:44:05 GMT 51.69763 -0.15670 5,250 71 197 -576
2017-12-11 11:44:03 GMT 51.69713 -0.15893 5,275 71 197 -576
2017-12-11 11:44:01 GMT 51.69663 -0.16144 5,300 71 197 -640
2017-12-11 11:43:59 GMT 51.69603 -0.16426 5,300 71 197 -704
2017-12-11 11:43:57 GMT 51.69538 -0.16754 5,350 71 197 -768
2017-12-11 11:43:55 GMT 51.69500 -0.16922 5,350 71 197 -768
2017-12-11 11:43:53 GMT 51.69407 -0.17364 5,400 71 196 -832
2017-12-11 11:43:51 GMT 51.69369 -0.17563 5,425 71 196 -832
2017-12-11 11:43:49 GMT 51.69295 -0.17921 5,450 71 195 -832
2017-12-11 11:43:46 GMT 51.69232 -0.18224 5,500 71 195 -832
2017-12-11 11:43:44 GMT 51.69147 -0.18639 5,525 71 196 -896
2017-12-11 11:43:44 GMT 51.69147 -0.18639 5,525 71 195 -896
2017-12-11 11:43:41 GMT 51.69077 -0.18967 5,575 71 195 -896
2017-12-11 11:43:39 GMT 51.69035 -0.19159 5,600 71 195 -896
2017-12-11 11:43:37 GMT 51.68980 -0.19434 5,625 71 194 -832
2017-12-11 11:43:35 GMT 51.68928 -0.19684 5,650 71 194 -832
2017-12-11 11:43:35 GMT 51.68928 -0.19684 5,650 71 194 -832
2017-12-11 11:43:33 GMT 51.68866 -0.19991 5,675 71 195 -768
2017-12-11 11:43:31 GMT 51.68811 -0.20265 5,700 71 195 -832
2017-12-11 11:43:29 GMT 51.68746 -0.20569 5,725 71 195 -896
2017-12-11 11:43:27 GMT 51.68681 -0.20904 5,775 71 195 -896
2017-12-11 11:43:25 GMT 51.68642 -0.21097 5,800 71 195 -896
2017-12-11 11:43:23 GMT 51.68579 -0.21400 5,825 71 195 -896
2017-12-11 11:43:21 GMT 51.68527 -0.21646 5,850 71 195 -896
2017-12-11 11:43:19 GMT 51.68467 -0.21950 5,900 71 195 -896
2017-12-11 11:43:17 GMT 51.68413 -0.22203 5,925 71 195 -896
2017-12-11 11:43:15 GMT 51.68344 -0.22537 5,950 71 195 -896
2017-12-11 11:43:13 GMT 51.68285 -0.22842 6,000 71 195 -960
2017-12-11 11:43:11 GMT 51.68239 -0.23064 6,025 71 195 -960
2017-12-11 11:43:09 GMT 51.68169 -0.23392 6,075 71 194 -960
2017-12-11 11:43:07 GMT 51.68127 -0.23613 6,100 71 194 -960
2017-12-11 11:43:05 GMT 51.68051 -0.23970 6,125 71 194 -960
2017-12-11 11:43:03 GMT 51.67996 -0.24244 6,175 71 194 -960
2017-12-11 11:43:01 GMT 51.67937 -0.24519 6,200 71 195 -960
2017-12-11 11:42:58 GMT 51.67868 -0.24853 6,250 71 196 -960
2017-12-11 11:42:56 GMT 51.67782 -0.25269 6,300 71 196 -960
2017-12-11 11:42:54 GMT 51.67741 -0.25490 6,325 71 196 -960
2017-12-11 11:42:52 GMT 51.67712 -0.25625 6,325 71 196 -960
2017-12-11 11:42:50 GMT 51.67648 -0.25932 6,375 71 196 -960
2017-12-11 11:42:48 GMT 51.67575 -0.26293 6,400 71 196 -960
2017-12-11 11:42:46 GMT 51.67536 -0.26482 6,425 71 196 -960
2017-12-11 11:42:44 GMT 51.67447 -0.26902 6,475 71 196 -1024
2017-12-11 11:42:42 GMT 51.67415 -0.27065 6,500 71 196 -1024
2017-12-11 11:42:40 GMT 51.67350 -0.27374 6,550 71 196 -1024
2017-12-11 11:42:38 GMT 51.67300 -0.27622 6,575 71 196 -1024
2017-12-11 11:42:36 GMT 51.67241 -0.27896 6,625 71 197 -896
2017-12-11 11:42:34 GMT 51.67191 -0.28145 6,650 71 197 -896
2017-12-11 11:42:32 GMT 51.67131 -0.28427 6,675 71 197 -896
2017-12-11 11:42:30 GMT 51.67042 -0.28870 6,725 71 197 -960
2017-12-11 11:42:28 GMT 51.67012 -0.29010 6,750 71 197 -960
2017-12-11 11:42:26 GMT 51.66943 -0.29344 6,775 72 197 -1024
2017-12-11 11:42:24 GMT 51.66903 -0.29541 6,800 72 197 -1024
2017-12-11 11:42:22 GMT 51.66843 -0.29849 6,850 72 197 -1024
2017-12-11 11:42:22 GMT 51.66843 -0.29849 6,850 72 197 -1024
2017-12-11 11:42:20 GMT 51.66758 -0.30266 6,900 72 197 -1088
2017-12-11 11:42:18 GMT 51.66712 -0.30487 6,925 72 197 -1152
2017-12-11 11:42:16 GMT 51.66664 -0.30739 6,975 72 197 -1152
2017-12-11 11:42:14 GMT 51.66618 -0.30970 7,000 72 197 -1088
2017-12-11 11:42:12 GMT 51.66550 -0.31304 7,050 72 197 -1024
2017-12-11 11:42:12 GMT 51.66550 -0.31304 7,050 72 197 -1024
2017-12-11 11:42:10 GMT 51.66508 -0.31526 7,075 72 197 -960
2017-12-11 11:42:08 GMT 51.66428 -0.31944 7,125 73 198 -832
2017-12-11 11:42:06 GMT 51.66419 -0.32005 7,125 73 198 -832
2017-12-11 11:42:04 GMT 51.66330 -0.32484 7,175 76 199 -768
2017-12-11 11:42:02 GMT 51.66307 -0.32631 7,175 77 200 -832
2017-12-11 11:42:00 GMT 51.66265 -0.32921 7,200 78 201 -832
2017-12-11 11:42:00 GMT 51.66280 -0.32833 7,200 78 201 -832
2017-12-11 11:41:58 GMT 51.66225 -0.33308 7,250 85 204 -1088
2017-12-11 11:41:58 GMT 51.66225 -0.33308 7,250 85 204 -1088
2017-12-11 11:41:55 GMT 51.66206 -0.33731 7,300 89 206 -1024
2017-12-11 11:41:53 GMT 51.66204 -0.34004 7,325 93 207 -960
2017-12-11 11:41:51 GMT 51.66218 -0.34439 7,375 93 208 -896
2017-12-11 11:41:51 GMT 51.66218 -0.34439 7,375 93 208 -896
2017-12-11 11:41:49 GMT 51.66223 -0.34622 7,400 94 208 -768
2017-12-11 11:41:46 GMT 51.66246 -0.35118 7,450 94 209 -704
2017-12-11 11:41:44 GMT 51.66260 -0.35370 7,450 94 209 -704
2017-12-11 11:41:42 GMT 51.66280 -0.35713 7,475 94 210 -832
2017-12-11 11:41:40 GMT 51.66298 -0.36084 7,525 95 211 -896
2017-12-11 11:41:38 GMT 51.66316 -0.36396 7,550 138 237 -1344
2017-12-11 11:41:36 GMT 51.66325 -0.36582 7,575 95 211 -896
2017-12-11 11:41:34 GMT 51.66348 -0.36960 7,600 95 212 -960
2017-12-11 11:41:32 GMT 51.66376 -0.37398 7,650 96 213 -960
2017-12-11 11:41:30 GMT 51.66385 -0.37524 7,675 99 214 -960
2017-12-11 11:41:28 GMT 51.66412 -0.37843 7,700 99 214 -960
2017-12-11 11:41:26 GMT 51.66472 -0.38408 7,750 103 217 -1024
2017-12-11 11:41:24 GMT 51.66490 -0.38534 7,775 105 217 -1088
2017-12-11 11:41:22 GMT 51.66540 -0.38818 7,800 108 219 -1152
2017-12-11 11:41:20 GMT 51.66627 -0.39217 7,850 114 223 -1152
2017-12-11 11:41:18 GMT 51.66684 -0.39429 7,900 116 224 -1152
2017-12-11 11:41:16 GMT 51.66847 -0.39937 7,950 122 227 -1216
2017-12-11 11:41:14 GMT 51.66921 -0.40138 7,975 123 228 -1216
2017-12-11 11:41:12 GMT 51.67007 -0.40330 8,025 131 233 -1280
2017-12-11 11:41:10 GMT 51.67168 -0.40657 8,075 134 235 -1280
2017-12-11 11:41:08 GMT 51.67310 -0.40917 8,100 134 235 -1280
2017-12-11 11:41:07 GMT 51.67354 -0.40993 8,125 136 236 -1344
2017-12-11 11:41:06 GMT 51.67387 -0.41038 8,125 136 236 -1344
2017-12-11 11:41:04 GMT 51.67635 -0.41392 8,200 143 240 -1344
2017-12-11 11:41:02 GMT 51.67862 -0.41672 8,250 148 243 -1344
2017-12-11 11:41:00 GMT 51.67955 -0.41778 8,275 150 244 -1280
2017-12-11 11:40:58 GMT 51.68127 -0.41946 8,325 152 245 -1280
2017-12-11 11:40:56 GMT 51.68369 -0.42152 8,375 160 250 -1280
2017-12-11 11:40:54 GMT 51.68579 -0.42297 8,425 166 254 -1216
2017-12-11 11:40:52 GMT 51.68839 -0.42458 8,475 171 256 -1152
2017-12-11 11:40:50 GMT 51.69063 -0.42564 8,525 171 256 -1152
2017-12-11 11:40:48 GMT 51.69241 -0.42639 8,550 168 255 -1216
2017-12-11 11:40:46 GMT 51.69475 -0.42713 8,600 171 256 -1152
2017-12-11 11:40:43 GMT 51.69900 -0.42795 8,650 179 261 -1088
2017-12-11 11:40:41 GMT 51.70068 -0.42801 8,675 179 261 -1088
2017-12-11 11:40:39 GMT 51.70335 -0.42802 8,725 185 263 -1152
2017-12-11 11:40:37 GMT 51.70628 -0.42772 8,775 188 265 -1152
2017-12-11 11:40:35 GMT 51.70871 -0.42721 8,825 190 265 -1216
2017-12-11 11:40:33 GMT 51.71088 -0.42656 8,850 193 266 -1280
2017-12-11 11:40:33 GMT 51.71088 -0.42656 8,850 193 266 -1280
2017-12-11 11:40:31 GMT 51.71279 -0.42580 8,875 194 266 -1280
2017-12-11 11:40:29 GMT 51.71609 -0.42427 8,950 200 267 -1280
2017-12-11 11:40:27 GMT 51.71800 -0.42320 8,975 201 268 -1216
2017-12-11 11:40:25 GMT 51.72075 -0.42152 9,025 202 267 -1152
2017-12-11 11:40:23 GMT 51.72214 -0.42061 9,050 202 267 -1088
2017-12-11 11:40:21 GMT 51.72442 -0.41916 9,100 202 267 -1088
2017-12-11 11:40:19 GMT 51.72722 -0.41740 9,150 202 267 -1088
2017-12-11 11:40:17 GMT 51.72926 -0.41607 9,175 202 267 -1088
2017-12-11 11:40:14 GMT 51.73160 -0.41458 9,225 202 267 -1088
2017-12-11 11:40:14 GMT 51.73160 -0.41458 9,225 202 267 -1088
2017-12-11 11:40:12 GMT 51.73504 -0.41237 9,275 202 267 -1088
2017-12-11 11:40:10 GMT 51.73755 -0.41072 9,325 202 267 -1152
2017-12-11 11:40:08 GMT 51.73938 -0.40954 9,350 202 267 -1152
2017-12-11 11:40:06 GMT 51.74193 -0.40794 9,400 202 267 -1152
2017-12-11 11:40:04 GMT 51.74514 -0.40588 9,450 202 267 -1088
2017-12-11 11:40:02 GMT 51.74675 -0.40486 9,475 202 267 -1024
2017-12-11 11:40:00 GMT 51.74858 -0.40367 9,500 202 267 -1024
2017-12-11 11:39:58 GMT 51.75092 -0.40226 9,550 202 267 -1024
2017-12-11 11:39:56 GMT 51.75436 -0.40001 9,600 202 267 -960
2017-12-11 11:39:54 GMT 51.75549 -0.39929 9,600 202 267 -960
2017-12-11 11:39:52 GMT 51.75850 -0.39742 9,650 202 267 -960
2017-12-11 11:39:50 GMT 51.76103 -0.39573 9,700 202 267 -960
2017-12-11 11:39:48 GMT 51.76286 -0.39462 9,725 202 267 -896
2017-12-11 11:39:46 GMT 51.76446 -0.39352 9,750 202 267 -896
2017-12-11 11:39:44 GMT 51.76679 -0.39207 9,775 202 268 -896
2017-12-11 11:39:42 GMT 51.76932 -0.39046 9,800 202 268 -832
2017-12-11 11:39:40 GMT 51.77206 -0.38868 9,825 202 270 -768
2017-12-11 11:39:38 GMT 51.77486 -0.38690 9,875 202 271 -640
2017-12-11 11:39:36 GMT 51.77600 -0.38612 9,875 202 271 -640
2017-12-11 11:39:34 GMT 51.77833 -0.38467 9,900 202 271 -640
2017-12-11 11:39:31 GMT 51.78232 -0.38215 9,950 202 272 -704
2017-12-11 11:39:29 GMT 51.78465 -0.38066 9,975 202 273 -704
2017-12-11 11:39:27 GMT 51.78699 -0.37910 10,000 202 273 -640
2017-12-11 11:39:25 GMT 51.78886 -0.37792 10,000 202 274 -640
2017-12-11 11:39:23 GMT 51.79074 -0.37673 10,025 202 274 -576
2017-12-11 11:39:21 GMT 51.79404 -0.37457 10,050 202 276 -512
2017-12-11 11:39:19 GMT 51.79616 -0.37323 10,075 202 276 -512
2017-12-11 11:39:17 GMT 51.79807 -0.37201 10,075 202 278 -512
2017-12-11 11:39:15 GMT 51.80142 -0.36980 10,100 203 279 -384
2017-12-11 11:39:12 GMT 51.80622 -0.36667 10,150 203 282 -384
2017-12-11 11:39:10 GMT 51.80668 -0.36636 10,150 203 284 -576
2017-12-11 11:39:08 GMT 51.81029 -0.36396 10,150 203 283 -512
2017-12-11 11:39:06 GMT 51.81175 -0.36299 10,175 203 284 -576
2017-12-11 11:39:06 GMT 51.81125 -0.36329 10,175 203 284 -576
2017-12-11 11:39:04 GMT 51.81492 -0.36087 10,200 203 285 -704
2017-12-11 11:39:02 GMT 51.81807 -0.35876 10,225 203 286 -768
2017-12-11 11:38:59 GMT 51.82054 -0.35720 10,250 203 286 -768
2017-12-11 11:38:57 GMT 51.82321 -0.35538 10,275 203 287 -896
2017-12-11 11:38:55 GMT 51.82443 -0.35453 10,300 203 287 -1024
2017-12-11 11:38:53 GMT 51.82861 -0.35179 10,350 203 288 -1024
2017-12-11 11:38:50 GMT 51.83231 -0.34934 10,400 203 288 -1152
2017-12-11 11:38:48 GMT 51.83354 -0.34851 10,425 203 288 -1152
2017-12-11 11:38:46 GMT 51.83750 -0.34592 10,500 203 288 -1216
2017-12-11 11:38:44 GMT 51.83848 -0.34523 10,500 203 288 -1216
2017-12-11 11:38:44 GMT 51.83848 -0.34523 10,500 203 288 -1216
2017-12-11 11:38:42 GMT 51.84169 -0.34310 10,550 203 288 -1216
2017-12-11 11:38:40 GMT 51.84366 -0.34176 10,600 203 288 -1216
2017-12-11 11:38:38 GMT 51.84663 -0.33983 10,650 203 289 -1216
2017-12-11 11:38:35 GMT 51.84984 -0.33768 10,700 203 288 -1152
2017-12-11 11:38:33 GMT 51.85208 -0.33620 10,750 203 289 -1088
2017-12-11 11:38:31 GMT 51.85405 -0.33494 10,775 203 289 -1088
2017-12-11 11:38:29 GMT 51.85677 -0.33310 10,800 203 289 -1152
2017-12-11 11:38:27 GMT 51.86000 -0.33100 10,850 203 289 -1216
2017-12-11 11:38:25 GMT 51.86247 -0.32929 10,900 203 289 -1216
2017-12-11 11:38:23 GMT 51.86566 -0.32722 10,950 203 289 -1216
2017-12-11 11:38:21 GMT 51.86691 -0.32640 10,975 203 289 -1216
2017-12-11 11:38:19 GMT 51.86915 -0.32486 11,025 203 289 -1216
2017-12-11 11:38:17 GMT 51.87162 -0.32326 11,050 203 289 -1216
2017-12-11 11:38:15 GMT 51.87584 -0.32046 11,125 203 289 -1216
2017-12-11 11:38:13 GMT 51.87680 -0.31979 11,150 203 289 -1152
2017-12-11 11:38:11 GMT 51.87927 -0.31816 11,175 203 289 -1088
2017-12-11 11:38:08 GMT 51.88426 -0.31489 11,275 203 290 -1152
2017-12-11 11:38:06 GMT 51.88549 -0.31410 11,275 203 290 -1216
2017-12-11 11:38:04 GMT 51.88870 -0.31200 11,350 203 290 -1280
2017-12-11 11:38:01 GMT 51.89168 -0.30999 11,400 203 290 -1216
2017-12-11 11:38:01 GMT 51.89168 -0.30999 11,400 203 290 -1216
2017-12-11 11:37:59 GMT 51.89346 -0.30887 11,425 202 289 -1152
2017-12-11 11:37:57 GMT 51.89667 -0.30678 11,475 202 290 -1152
2017-12-11 11:37:55 GMT 51.89993 -0.30464 11,525 202 290 -1216
2017-12-11 11:37:53 GMT 51.90188 -0.30338 11,550 202 290 -1152
2017-12-11 11:37:51 GMT 51.90440 -0.30181 11,600 202 290 -1216
2017-12-11 11:37:51 GMT 51.90440 -0.30181 11,600 202 290 -1216
2017-12-11 11:37:49 GMT 51.90765 -0.29968 11,650 202 290 -1216
2017-12-11 11:37:47 GMT 51.91013 -0.29808 11,700 202 290 -1152
2017-12-11 11:37:45 GMT 51.91264 -0.29656 11,725 202 290 -1024
2017-12-11 11:37:45 GMT 51.91315 -0.29625 11,750 202 290 -1024
2017-12-11 11:37:43 GMT 51.91440 -0.29545 11,750 202 290 -960
2017-12-11 11:37:41 GMT 51.91738 -0.29357 11,800 202 292 -832
2017-12-11 11:37:41 GMT 51.91738 -0.29357 11,800 202 291 -896
2017-12-11 11:37:40 GMT 51.91965 -0.29213 11,825 202 292 -832
2017-12-11 11:37:38 GMT 51.92015 -0.29182 11,825 202 292 -896
2017-12-11 11:37:36 GMT 51.92395 -0.28949 11,875 201 293 -1024
2017-12-11 11:37:34 GMT 51.92674 -0.28778 11,925 201 293 -1088
2017-12-11 11:37:32 GMT 51.92851 -0.28666 11,950 201 293 -1280
2017-12-11 11:37:30 GMT 51.93077 -0.28526 11,975 201 293 -1536
2017-12-11 11:37:28 GMT 51.93307 -0.28384 12,025 201 293 -1600
2017-12-11 11:37:26 GMT 51.93636 -0.28183 12,100 201 292 -1664
2017-12-11 11:37:24 GMT 51.93912 -0.28015 12,175 201 292 -1408
2017-12-11 11:37:22 GMT 51.94038 -0.27939 12,200 201 292 -1280
2017-12-11 11:37:20 GMT 51.94240 -0.27809 12,225 201 292 -1024
2017-12-11 11:37:18 GMT 51.94569 -0.27607 12,275 202 292 -320
2017-12-11 11:37:16 GMT 51.94894 -0.27405 12,300 201 293 -64
2017-12-11 11:37:14 GMT 51.95225 -0.27199 12,300 202 293 -64
2017-12-11 11:37:12 GMT 51.95403 -0.27092 12,300 202 293 -64
2017-12-11 11:37:09 GMT 51.95779 -0.26854 12,300 202 293 0
2017-12-11 11:37:07 GMT 51.96057 -0.26680 12,300 202 293 0
2017-12-11 11:37:05 GMT 51.96235 -0.26563 12,300 202 293 0
2017-12-11 11:37:03 GMT 51.96538 -0.26375 12,300 202 293 -64
2017-12-11 11:37:01 GMT 51.96743 -0.26249 12,300 202 293 -64
2017-12-11 11:36:59 GMT 51.96968 -0.26100 12,300 202 293 -64
2017-12-11 11:36:57 GMT 51.97375 -0.25848 12,300 201 293 -64
2017-12-11 11:36:55 GMT 51.97501 -0.25771 12,300 201 293 -64
2017-12-11 11:36:53 GMT 51.97728 -0.25627 12,325 201 293 -64
2017-12-11 11:36:51 GMT 51.98107 -0.25394 12,325 201 293 0
2017-12-11 11:36:49 GMT 51.98260 -0.25300 12,325 201 293 0
2017-12-11 11:36:47 GMT 51.98619 -0.25088 12,325 201 294 64
2017-12-11 11:36:45 GMT 51.98870 -0.24931 12,325 201 294 64
2017-12-11 11:36:43 GMT 51.99075 -0.24813 12,325 201 294 64
2017-12-11 11:36:41 GMT 51.99177 -0.24751 12,300 201 293 64
2017-12-11 11:36:39 GMT 51.99609 -0.24498 12,300 200 294 64
2017-12-11 11:36:37 GMT 51.99866 -0.24345 12,300 201 295 0
2017-12-11 11:36:35 GMT 52.00048 -0.24240 12,300 200 294 64
2017-12-11 11:36:33 GMT 52.00253 -0.24123 12,300 200 294 0
2017-12-11 11:36:31 GMT 52.00635 -0.23895 12,300 201 295 0
2017-12-11 11:36:29 GMT 52.00891 -0.23743 12,300 201 295 0
2017-12-11 11:36:27 GMT 52.01021 -0.23668 12,300 201 295 0
2017-12-11 11:36:25 GMT 52.01353 -0.23468 12,300 201 295 -64
2017-12-11 11:36:23 GMT 52.01605 -0.23315 12,300 201 295 -64
2017-12-11 11:36:21 GMT 52.01784 -0.23205 12,300 201 295 -64
2017-12-11 11:36:21 GMT 52.01784 -0.23205 12,300 201 295 -64
2017-12-11 11:36:19 GMT 52.02143 -0.22985 12,300 201 295 -128
2017-12-11 11:36:17 GMT 52.02324 -0.22881 12,300 201 295 -192
2017-12-11 11:36:15 GMT 52.02782 -0.22598 12,325 201 295 -192
2017-12-11 11:36:13 GMT 52.02911 -0.22522 12,325 201 294 -128
2017-12-11 11:36:11 GMT 52.03088 -0.22415 12,325 201 294 -128
2017-12-11 11:36:08 GMT 52.03601 -0.22102 12,350 201 295 -128
2017-12-11 11:36:06 GMT 52.03853 -0.21942 12,350 202 294 -192
2017-12-11 11:36:04 GMT 52.03982 -0.21863 12,350 202 294 -192
2017-12-11 11:36:02 GMT 52.04311 -0.21660 12,350 201 295 -128
2017-12-11 11:36:00 GMT 52.04517 -0.21530 12,350 201 294 -128
2017-12-11 11:35:58 GMT 52.04768 -0.21378 12,375 201 294 -128
2017-12-11 11:35:56 GMT 52.05025 -0.21217 12,375 201 294 -64
2017-12-11 11:35:54 GMT 52.05382 -0.20996 12,375 201 294 -64
2017-12-11 11:35:51 GMT 52.05662 -0.20827 12,375 202 295 -64
2017-12-11 11:35:50 GMT 52.05913 -0.20662 12,375 202 295 -64
2017-12-11 11:35:49 GMT 52.05965 -0.20631 12,375 202 295 -64
2017-12-11 11:35:47 GMT 52.06170 -0.20497 12,375 204 295 0
2017-12-11 11:35:45 GMT 52.06468 -0.20286 12,375 205 295 0
2017-12-11 11:35:43 GMT 52.06691 -0.20119 12,375 208 295 128
2017-12-11 11:35:41 GMT 52.07008 -0.19854 12,375 209 296 64
2017-12-11 11:35:39 GMT 52.07105 -0.19775 12,375 210 296 -64
2017-12-11 11:35:37 GMT 52.07460 -0.19440 12,375 211 296 -128
2017-12-11 11:35:35 GMT 52.07720 -0.19187 12,375 213 297 -64
2017-12-11 11:35:33 GMT 52.07927 -0.18974 12,375 214 296 -128
2017-12-11 11:35:31 GMT 52.08110 -0.18776 12,375 215 297 -64
2017-12-11 11:35:29 GMT 52.08293 -0.18578 12,375 217 296 128
2017-12-11 11:35:27 GMT 52.08650 -0.18166 12,375 217 296 128
2017-12-11 11:35:25 GMT 52.08824 -0.17952 12,375 218 296 128
2017-12-11 11:35:25 GMT 52.08824 -0.17952 12,375 218 296 128
2017-12-11 11:35:25 GMT 52.08824 -0.17952 12,375 218 296 128
2017-12-11 11:35:25 GMT 52.08824 -0.17952 12,375 219 296 192
2017-12-11 11:35:23 GMT 52.08935 -0.17821 12,375 219 296 192
2017-12-11 11:35:21 GMT 52.09237 -0.17437 12,375 221 296 256
2017-12-11 11:35:19 GMT 52.09383 -0.17235 12,375 221 296 128
2017-12-11 11:35:16 GMT 52.09731 -0.16731 12,350 225 296 0
2017-12-11 11:35:14 GMT 52.09968 -0.16362 12,350 227 296 0
2017-12-11 11:35:12 GMT 52.10159 -0.16040 12,350 229 296 64
2017-12-11 11:35:10 GMT 52.10284 -0.15808 12,350 230 296 128
2017-12-11 11:35:10 GMT 52.10284 -0.15808 12,350 232 297 128
2017-12-11 11:35:08 GMT 52.10431 -0.15541 12,350 269 331 576
2017-12-11 11:35:06 GMT 52.10718 -0.14941 12,350 234 297 128
2017-12-11 11:35:04 GMT 52.10797 -0.14763 12,350 236 297 320
2017-12-11 11:35:02 GMT 52.11017 -0.14252 12,325 237 297 384
2017-12-11 11:35:00 GMT 52.11123 -0.13992 12,325 238 298 448
2017-12-11 11:34:57 GMT 52.11328 -0.13458 12,300 240 299 576
2017-12-11 11:34:55 GMT 52.11511 -0.12955 12,275 244 300 320
2017-12-11 11:34:53 GMT 52.11617 -0.12642 12,275 243 300 384
2017-12-11 11:34:51 GMT 52.11768 -0.12154 12,250 245 301 320
2017-12-11 11:34:49 GMT 52.11836 -0.11910 12,250 247 300 448
2017-12-11 11:34:47 GMT 52.11928 -0.11581 12,225 249 301 576
2017-12-11 11:34:45 GMT 52.12100 -0.10861 12,200 252 302 512
2017-12-11 11:34:42 GMT 52.12207 -0.10351 12,175 252 302 512
2017-12-11 11:34:40 GMT 52.12277 -0.10005 12,175 253 302 448
2017-12-11 11:34:40 GMT 52.12322 -0.09788 12,150 254 303 384
2017-12-11 11:34:38 GMT 52.12394 -0.09401 12,150 254 303 320
2017-12-11 11:34:36 GMT 52.12436 -0.09178 12,150 255 303 384
2017-12-11 11:34:34 GMT 52.12515 -0.08695 12,125 257 301 448
2017-12-11 11:34:32 GMT 52.12598 -0.08169 12,125 257 302 448
2017-12-11 11:34:29 GMT 52.12687 -0.07549 12,100 258 301 384
2017-12-11 11:34:25 GMT 52.12780 -0.06835 12,075 260 302 448
2017-12-11 11:34:23 GMT 52.12871 -0.05989 12,050 262 302 384
2017-12-11 11:34:21 GMT 52.12894 -0.05722 12,025 263 301 384
2017-12-11 11:34:19 GMT 52.12934 -0.05226 12,025 264 302 448
2017-12-11 11:34:17 GMT 52.12966 -0.04779 12,000 265 302 512
2017-12-11 11:34:15 GMT 52.12985 -0.04463 12,000 266 302 512
2017-12-11 11:34:13 GMT 52.13013 -0.03914 11,975 267 301 512
2017-12-11 11:34:13 GMT 52.13013 -0.03914 11,975 267 301 512
2017-12-11 11:34:11 GMT 52.13031 -0.03372 11,950 268 302 512
2017-12-11 11:34:09 GMT 52.13041 -0.02966 11,925 269 302 448
2017-12-11 11:34:07 GMT 52.13045 -0.02739 11,925 270 302 384
2017-12-11 11:34:05 GMT 52.13045 -0.02150 11,900 271 303 192
2017-12-11 11:34:03 GMT 52.13045 -0.01695 11,900 271 304 256
2017-12-11 11:34:01 GMT 52.13045 -0.01282 11,900 271 304 320
2017-12-11 11:33:59 GMT 52.13045 -0.00596 11,875 270 305 384
2017-12-11 11:33:57 GMT 52.13045 -0.00374 11,875 270 306 384
2017-12-11 11:33:54 GMT 52.13045 0.00275 11,850 270 307 512
2017-12-11 11:33:52 GMT 52.13045 0.00871 11,825 270 309 384
2017-12-11 11:33:50 GMT 52.13045 0.01289 11,800 270 309 320
2017-12-11 11:33:48 GMT 52.13050 0.01891 11,800 270 311 320
2017-12-11 11:33:46 GMT 52.13049 0.02403 11,775 270 312 512
2017-12-11 11:33:44 GMT 52.13055 0.02637 11,775 270 311 448
2017-12-11 11:33:42 GMT 52.13055 0.03296 11,750 270 313 640
2017-12-11 11:33:40 GMT 52.13059 0.03578 11,750 270 314 768
2017-12-11 11:33:38 GMT 52.13063 0.04280 11,700 269 320 832
2017-12-11 11:33:36 GMT 52.13069 0.04708 11,675 270 316 704
2017-12-11 11:33:33 GMT 52.13073 0.05187 11,650 270 318 832
2017-12-11 11:33:31 GMT 52.13077 0.05806 11,625 269 319 832
2017-12-11 11:33:29 GMT 52.13083 0.06239 11,600 269 322 896
2017-12-11 11:33:27 GMT 52.13086 0.06668 11,575 269 322 960
2017-12-11 11:33:25 GMT 52.13095 0.07256 11,525 269 327 832
2017-12-11 11:33:23 GMT 52.13100 0.07645 11,500 269 326 896
2017-12-11 11:33:21 GMT 52.13110 0.08381 11,450 269 328 768
2017-12-11 11:33:21 GMT 52.13110 0.08381 11,450 269 331 384
2017-12-11 11:33:19 GMT 52.13120 0.08773 11,425 269 330 384
2017-12-11 11:33:17 GMT 52.13124 0.09268 11,425 269 330 384
2017-12-11 11:33:15 GMT 52.13129 0.09660 11,425 269 331 192
2017-12-11 11:33:13 GMT 52.13136 0.10109 11,400 269 331 256
2017-12-11 11:33:11 GMT 52.13145 0.10704 11,400 269 331 512
2017-12-11 11:33:09 GMT 52.13155 0.11208 11,375 269 331 512
2017-12-11 11:33:08 GMT 52.13162 0.11449 11,375 269 331 576
2017-12-11 11:33:07 GMT 52.13162 0.11449 11,375 269 331 512
2017-12-11 11:33:05 GMT 52.13171 0.11952 11,350 269 331 576
2017-12-11 11:33:03 GMT 52.13185 0.12650 11,325 269 331 512
2017-12-11 11:33:01 GMT 52.13196 0.13191 11,300 268 332 576
2017-12-11 11:32:59 GMT 52.13205 0.13596 11,300 268 332 640
2017-12-11 11:32:57 GMT 52.13222 0.14243 11,275 268 332 704
2017-12-11 11:32:55 GMT 52.13231 0.14737 11,225 268 333 896
2017-12-11 11:32:53 GMT 52.13241 0.15138 11,225 268 333 896
2017-12-11 11:32:51 GMT 52.13259 0.15836 11,175 268 333 896
2017-12-11 11:32:49 GMT 52.13269 0.16338 11,150 268 334 896
2017-12-11 11:32:47 GMT 52.13278 0.16738 11,125 268 334 896
2017-12-11 11:32:47 GMT 52.13278 0.16738 11,125 268 335 896
2017-12-11 11:32:45 GMT 52.13287 0.17139 11,100 268 335 896
2017-12-11 11:32:43 GMT 52.13301 0.17593 11,075 268 335 832
2017-12-11 11:32:40 GMT 52.13319 0.18402 11,025 268 336 832
2017-12-11 11:32:37 GMT 52.13342 0.19310 11,325 268 338 768
2017-12-11 11:32:35 GMT 52.13348 0.19587 11,325 268 339 704
2017-12-11 11:32:33 GMT 52.13361 0.20042 11,300 268 338 704
2017-12-11 11:32:30 GMT 52.13385 0.20905 11,250 268 339 704
2017-12-11 11:32:28 GMT 52.13406 0.21668 11,225 268 341 1024
2017-12-11 11:32:26 GMT 52.13413 0.21926 11,200 268 339 768
2017-12-11 11:32:24 GMT 52.13422 0.22334 11,175 268 340 768
2017-12-11 11:32:22 GMT 52.13434 0.22789 11,150 268 341 1024
2017-12-11 11:32:20 GMT 52.13461 0.23613 11,100 268 341 1088
2017-12-11 11:32:18 GMT 52.13475 0.24124 11,075 267 342 1152
2017-12-11 11:32:15 GMT 52.13502 0.24948 11,025 268 344 960
2017-12-11 11:32:13 GMT 52.13511 0.25206 11,000 267 344 960
2017-12-11 11:32:11 GMT 52.13530 0.25772 10,975 267 345 832
2017-12-11 11:32:09 GMT 52.13553 0.26390 10,925 267 346 640
2017-12-11 11:32:07 GMT 52.13580 0.27222 10,900 267 345 640
2017-12-11 11:32:05 GMT 52.13580 0.27222 10,900 267 344 832
2017-12-11 11:32:03 GMT 52.13603 0.27847 10,875 267 343 960
2017-12-11 11:31:59 GMT 52.13644 0.28870 10,800 267 340 1536
2017-12-11 11:31:57 GMT 52.13663 0.29381 10,750 267 340 1664
2017-12-11 11:31:55 GMT 52.13686 0.29892 10,675 267 341 1600
2017-12-11 11:31:53 GMT 52.13706 0.30354 10,625 267 342 1344
2017-12-11 11:31:51 GMT 52.13730 0.30974 10,575 267 347 1536
2017-12-11 11:31:48 GMT 52.13767 0.31915 10,500 267 350 1664
2017-12-11 11:31:46 GMT 52.13776 0.32119 10,475 267 352 1792
2017-12-11 11:31:44 GMT 52.13804 0.32755 10,425 267 355 1792
2017-12-11 11:31:42 GMT 52.13818 0.33179 10,375 267 357 1792
2017-12-11 11:31:42 GMT 52.13828 0.33340 10,350 267 361 1600
2017-12-11 11:31:38 GMT 52.13864 0.34203 10,275 267 363 1344
2017-12-11 11:31:36 GMT 52.13901 0.35187 10,200 267 366 1216
2017-12-11 11:31:34 GMT 52.13916 0.35454 10,175 267 367 1216
2017-12-11 11:31:32 GMT 52.13939 0.36122 10,150 267 368 1152
2017-12-11 11:31:29 GMT 52.13967 0.36781 10,100 267 369 384
2017-12-11 11:31:27 GMT 52.14004 0.37667 10,075 267 369 256
2017-12-11 11:31:24 GMT 52.14028 0.38225 10,075 267 368 128
2017-12-11 11:31:22 GMT 52.14047 0.38719 10,050 267 368 64
2017-12-11 11:31:19 GMT 52.14088 0.39719 10,050 267 368 384
2017-12-11 11:31:18 GMT 52.14093 0.39932 10,050 267 368 512
2017-12-11 11:31:17 GMT 52.14093 0.39932 10,050 267 368 512
2017-12-11 11:31:15 GMT 52.14130 0.40987 10,025 267 368 512
2017-12-11 11:31:13 GMT 52.14139 0.41260 10,000 267 368 640
2017-12-11 11:31:11 GMT 52.14162 0.41924 9,975 267 368 704
2017-12-11 11:31:09 GMT 52.14172 0.42203 9,975 267 368 768
2017-12-11 11:31:07 GMT 52.14198 0.42915 9,925 267 368 1024
2017-12-11 11:31:04 GMT 52.14223 0.43639 9,875 267 369 832
2017-12-11 11:31:04 GMT 52.14223 0.43639 9,875 267 369 832
2017-12-11 11:31:02 GMT 52.14249 0.44357 9,850 267 369 1024
2017-12-11 11:30:59 GMT 52.14276 0.45021 9,800 267 369 1024
2017-12-11 11:30:57 GMT 52.14302 0.45742 9,775 267 368 64
2017-12-11 11:30:55 GMT 52.14331 0.46463 9,725 267 369 256
2017-12-11 11:30:53 GMT 52.14339 0.46629 9,725 267 369 128
2017-12-11 11:30:51 GMT 52.14377 0.47516 9,725 267 368 64
2017-12-11 11:30:49 GMT 52.14391 0.47905 9,725 267 368 64
2017-12-11 11:30:47 GMT 52.14419 0.48622 9,700 267 367 0
2017-12-11 11:30:44 GMT 52.14446 0.49282 9,700 267 364 128
2017-12-11 11:30:44 GMT 52.14446 0.49282 9,700 267 364 128
2017-12-11 11:30:42 GMT 52.14478 0.49995 9,675 267 364 128
2017-12-11 11:30:40 GMT 52.14498 0.50490 9,675 267 364 128
2017-12-11 11:30:38 GMT 52.14519 0.51094 9,650 267 364 64
2017-12-11 11:30:36 GMT 52.14530 0.51361 9,650 267 363 64
2017-12-11 11:30:32 GMT 52.14578 0.52513 9,650 267 363 128
2017-12-11 11:30:30 GMT 52.14609 0.53331 9,625 267 362 -192
2017-12-11 11:30:28 GMT 52.14624 0.53604 9,625 267 362 -256
2017-12-11 11:30:26 GMT 52.14642 0.54092 9,650 267 361 -192
2017-12-11 11:30:24 GMT 52.14674 0.54901 9,650 267 361 0
2017-12-11 11:30:22 GMT 52.14702 0.55497 9,650 267 360 192
2017-12-11 11:30:22 GMT 52.14702 0.55497 9,650 267 360 192
2017-12-11 11:30:20 GMT 52.14712 0.55826 9,625 267 360 320
2017-12-11 11:30:19 GMT 52.14735 0.56360 9,600 267 360 128
2017-12-11 11:30:18 GMT 52.14748 0.56633 9,600 267 360 128
2017-12-11 11:30:16 GMT 52.14752 0.56740 9,600 267 360 64
2017-12-11 11:30:12 GMT 52.14816 0.58258 9,575 266 359 128
2017-12-11 11:30:12 GMT 52.14816 0.58258 9,575 266 359 128
2017-12-11 11:30:10 GMT 52.14824 0.58416 9,600 266 359 128
2017-12-11 11:30:08 GMT 52.14852 0.59067 9,600 267 359 64
2017-12-11 11:30:06 GMT 52.14871 0.59547 9,600 267 358 -64
2017-12-11 11:30:01 GMT 52.14940 0.61108 9,600 266 356 -640
2017-12-11 11:29:58 GMT 52.14972 0.61806 9,600 266 356 -1408
2017-12-11 11:29:56 GMT 52.14999 0.62447 9,625 266 356 -1408
2017-12-11 11:29:54 GMT 52.15022 0.62981 9,675 266 355 -1792
2017-12-11 11:29:52 GMT 52.15042 0.63352 9,700 266 354 -2944
2017-12-11 11:29:50 GMT 52.15061 0.63776 9,775 266 353 -3264
2017-12-11 11:29:50 GMT 52.15061 0.63776 9,775 266 352 -3328
2017-12-11 11:29:48 GMT 52.15091 0.64354 9,850 266 352 -2624
2017-12-11 11:29:46 GMT 52.15107 0.64725 9,900 266 352 -2304
2017-12-11 11:29:44 GMT 52.15136 0.65251 9,925 266 352 -2048
2017-12-11 11:29:42 GMT 52.15177 0.66091 9,950 266 351 -2176
2017-12-11 11:29:40 GMT 52.15205 0.66726 10,050 266 351 -2240
2017-12-11 11:29:38 GMT 52.15215 0.66828 10,050 266 351 -2240
2017-12-11 11:29:38 GMT 52.15215 0.66828 10,050 266 351 -2240
2017-12-11 11:29:36 GMT 52.15238 0.67354 10,125 266 350 -2048
2017-12-11 11:29:34 GMT 52.15279 0.68146 10,250 266 350 -1984
2017-12-11 11:29:32 GMT 52.15303 0.68618 10,300 266 350 -1984
2017-12-11 11:29:30 GMT 52.15331 0.69143 10,375 266 350 -1984
2017-12-11 11:29:28 GMT 52.15364 0.69771 10,450 266 350 -1984
2017-12-11 11:29:26 GMT 52.15382 0.70187 10,500 266 350 -1984
2017-12-11 11:29:24 GMT 52.15420 0.70976 10,600 266 350 -1920
2017-12-11 11:29:22 GMT 52.15439 0.71289 10,650 266 350 -1920
2017-12-11 11:29:20 GMT 52.15462 0.71816 10,725 266 350 -1792
2017-12-11 11:29:17 GMT 52.15499 0.72502 10,800 266 351 -1792
2017-12-11 11:29:15 GMT 52.15526 0.73074 10,875 266 351 -1856
2017-12-11 11:29:13 GMT 52.15562 0.73814 10,950 266 351 -1920
2017-12-11 11:29:11 GMT 52.15576 0.74020 10,975 266 351 -2048
2017-12-11 11:29:09 GMT 52.15604 0.74547 11,050 266 351 -2048
2017-12-11 11:29:07 GMT 52.15638 0.75233 11,150 266 350 -2176
2017-12-11 11:29:04 GMT 52.15668 0.75806 11,225 266 350 -2176
2017-12-11 11:29:02 GMT 52.15722 0.76802 11,375 266 349 -2112
2017-12-11 11:28:59 GMT 52.15741 0.77226 11,425 265 349 -2048
2017-12-11 11:28:57 GMT 52.15773 0.77744 11,500 265 349 -1984
2017-12-11 11:28:55 GMT 52.15801 0.78323 11,575 265 349 -1920
2017-12-11 11:28:53 GMT 52.15832 0.78842 11,650 265 349 -1920
2017-12-11 11:28:51 GMT 52.15869 0.79575 11,750 265 349 -1792
2017-12-11 11:28:49 GMT 52.15874 0.79681 11,750 265 349 -1792
2017-12-11 11:28:49 GMT 52.15883 0.79781 11,775 265 349 -1792
2017-12-11 11:28:47 GMT 52.15918 0.80459 11,850 265 349 -1792
2017-12-11 11:28:45 GMT 52.15955 0.81087 11,925 265 349 -1792
2017-12-11 11:28:43 GMT 52.15961 0.81245 11,950 265 349 -1792
2017-12-11 11:28:41 GMT 52.16015 0.82240 12,050 265 349 -1728
2017-12-11 11:28:39 GMT 52.16029 0.82504 12,100 265 350 -1664
2017-12-11 11:28:37 GMT 52.16067 0.83182 12,175 265 350 -1600
2017-12-11 11:28:35 GMT 52.16094 0.83708 12,225 265 350 -1472
2017-12-11 11:28:33 GMT 52.16113 0.84022 12,250 266 353 -2432
2017-12-11 11:28:30 GMT 52.16167 0.85022 12,350 265 352 -1280
2017-12-11 11:28:28 GMT 52.16180 0.85236 12,375 265 352 -1280
2017-12-11 11:28:26 GMT 52.16225 0.86023 12,425 265 353 -1344
2017-12-11 11:28:24 GMT 52.16257 0.86659 12,500 265 354 -1600
2017-12-11 11:28:22 GMT 52.16281 0.87028 12,525 265 354 -1664
2017-12-11 11:28:19 GMT 52.16323 0.87718 12,600 265 354 -1856
2017-12-11 11:28:17 GMT 52.16369 0.88573 12,700 265 354 -1984
2017-12-11 11:28:15 GMT 52.16402 0.89099 12,775 265 354 -2112
2017-12-11 11:28:13 GMT 52.16420 0.89421 12,825 265 354 -2112
2017-12-11 11:28:11 GMT 52.16444 0.89845 12,875 265 354 -2240
2017-12-11 11:28:09 GMT 52.16478 0.90431 12,975 265 353 -2368
2017-12-11 11:28:07 GMT 52.16515 0.91171 13,075 266 353 -2432
2017-12-11 11:28:05 GMT 52.16537 0.91591 13,150 266 353 -2496
2017-12-11 11:28:03 GMT 52.16556 0.91911 13,200 266 352 -2560
2017-12-11 11:28:01 GMT 52.16579 0.92438 13,300 266 351 -2496
2017-12-11 11:27:59 GMT 52.16625 0.93329 13,450 266 350 -2432
2017-12-11 11:27:57 GMT 52.16634 0.93541 13,475 266 349 -2304
2017-12-11 11:27:55 GMT 52.16670 0.94330 13,600 266 349 -2240
2017-12-11 11:27:52 GMT 52.16695 0.94906 13,675 266 349 -1984
2017-12-11 11:27:50 GMT 52.16711 0.95276 13,725 266 350 -1728
2017-12-11 11:27:47 GMT 52.16746 0.96060 13,825 266 350 -1728
2017-12-11 11:27:45 GMT 52.16789 0.96947 13,925 266 350 -1536
2017-12-11 11:27:43 GMT 52.16811 0.97370 13,975 266 351 -1472
2017-12-11 11:27:41 GMT 52.16844 0.98000 14,025 265 352 -1408
2017-12-11 11:27:39 GMT 52.16862 0.98320 14,050 265 352 -1408
2017-12-11 11:27:37 GMT 52.16890 0.98846 14,100 265 353 -1472
2017-12-11 11:27:36 GMT 52.16917 0.99320 14,150 265 354 -1472
2017-12-11 11:27:34 GMT 52.16942 0.99740 14,200 265 354 -1472
2017-12-11 11:27:32 GMT 52.16963 1.00113 14,225 265 354 -1472
2017-12-11 11:27:29 GMT 52.17012 1.00909 14,300 265 355 -1472
2017-12-11 11:27:27 GMT 52.17058 1.01765 14,400 265 356 -1536
2017-12-11 11:27:26 GMT 52.17053 1.01655 14,375 265 356 -1536
2017-12-11 11:27:24 GMT 52.17101 1.02562 14,475 266 357 -1536
2017-12-11 11:27:22 GMT 52.17119 1.02832 14,500 266 357 -1536
2017-12-11 11:27:20 GMT 52.17146 1.03421 14,550 266 357 -1536
2017-12-11 11:27:18 GMT 52.17184 1.04119 14,625 266 358 -1600
2017-12-11 11:27:16 GMT 52.17212 1.04653 14,675 266 359 -1600
2017-12-11 11:27:14 GMT 52.17226 1.04974 14,725 266 359 -1600
2017-12-11 11:27:12 GMT 52.17265 1.05782 14,800 266 360 -1472
2017-12-11 11:27:10 GMT 52.17279 1.06003 14,825 266 360 -1472
2017-12-11 11:27:07 GMT 52.17311 1.06758 14,900 267 361 -1536
2017-12-11 11:27:05 GMT 52.17351 1.07674 14,975 267 361 -1536
2017-12-11 11:27:02 GMT 52.17366 1.08162 15,025 267 362 -1536
2017-12-11 11:27:00 GMT 52.17389 1.08711 15,075 267 363 -1536
2017-12-11 11:26:58 GMT 52.17403 1.09086 15,125 267 363 -1536
2017-12-11 11:26:56 GMT 52.17421 1.09741 15,175 268 363 -1664
2017-12-11 11:26:54 GMT 52.17444 1.10452 15,250 268 364 -1792
2017-12-11 11:26:51 GMT 52.17476 1.11710 15,400 268 364 -1856
2017-12-11 11:26:49 GMT 52.17486 1.11982 15,425 268 364 -1856
2017-12-11 11:26:46 GMT 52.17503 1.12587 15,500 268 365 -1856
2017-12-11 11:26:46 GMT 52.17503 1.12694 15,500 268 365 -1856
2017-12-11 11:26:44 GMT 52.17522 1.13358 15,575 268 365 -1856
2017-12-11 11:26:41 GMT 52.17540 1.14235 15,675 268 366 -1984
2017-12-11 11:26:39 GMT 52.17551 1.14729 15,750 268 366 -1984
2017-12-11 11:26:36 GMT 52.17563 1.15227 15,825 269 366 -1984
2017-12-11 11:26:33 GMT 52.17581 1.16211 15,925 269 366 -1920
2017-12-11 11:26:31 GMT 52.17595 1.16875 16,025 269 366 -1920
2017-12-11 11:26:29 GMT 52.17604 1.17424 16,075 269 367 -1920
2017-12-11 11:26:27 GMT 52.17607 1.17703 16,100 269 367 -1920
2017-12-11 11:26:27 GMT 52.17607 1.17703 16,100 269 367 -1920
2017-12-11 11:26:24 GMT 52.17627 1.18744 16,250 269 367 -2048
2017-12-11 11:26:22 GMT 52.17640 1.19570 16,350 269 368 -2112
2017-12-11 11:26:20 GMT 52.17640 1.19798 16,375 269 367 -2048
2017-12-11 11:26:18 GMT 52.17650 1.20399 16,450 269 367 -2112
2017-12-11 11:26:16 GMT 52.17659 1.20842 16,500 269 368 -2112
2017-12-11 11:26:14 GMT 52.17663 1.21344 16,575 269 368 -2112
2017-12-11 11:26:12 GMT 52.17677 1.22223 16,675 269 368 -2112
2017-12-11 11:26:10 GMT 52.17682 1.22498 16,725 269 368 -2176
2017-12-11 11:26:08 GMT 52.17696 1.23276 16,825 269 368 -2112
2017-12-11 11:26:06 GMT 52.17705 1.23718 16,875 269 368 -2112
2017-12-11 11:26:04 GMT 52.17714 1.24489 16,975 269 368 -2112
2017-12-11 11:26:02 GMT 52.17719 1.24765 17,025 269 368 -2112
2017-12-11 11:26:00 GMT 52.17728 1.25323 17,100 269 368 -2112
2017-12-11 11:25:58 GMT 52.17738 1.26092 17,200 269 368 -2048
2017-12-11 11:25:56 GMT 52.17742 1.26421 17,225 269 368 -2048
2017-12-11 11:25:54 GMT 52.17752 1.27088 17,325 269 368 -2048
2017-12-11 11:25:52 GMT 52.17756 1.27418 17,350 269 368 -1984
2017-12-11 11:25:50 GMT 52.17764 1.28250 17,475 269 368 -2176
2017-12-11 11:25:49 GMT 52.17770 1.28524 17,500 269 368 -2176
2017-12-11 11:25:48 GMT 52.17770 1.28524 17,500 269 368 -2240
2017-12-11 11:25:48 GMT 52.17770 1.28524 17,500 269 368 -2240
2017-12-11 11:25:46 GMT 52.17780 1.29191 17,600 269 368 -2240
2017-12-11 11:25:44 GMT 52.17784 1.29631 17,650 269 368 -2176
2017-12-11 11:25:42 GMT 52.17794 1.30188 17,750 269 368 -2176
2017-12-11 11:25:40 GMT 52.17806 1.31020 17,850 269 368 -2176
2017-12-11 11:25:38 GMT 52.17808 1.31404 17,900 269 368 -2176
2017-12-11 11:25:36 GMT 52.17819 1.32233 18,000 269 368 -2176
2017-12-11 11:25:36 GMT 52.17819 1.32118 18,000 269 368 -2176
2017-12-11 11:25:36 GMT 52.17819 1.32233 18,000 269 368 -2176
2017-12-11 11:25:34 GMT 52.17826 1.32511 18,050 269 367 -2240
2017-12-11 11:25:32 GMT 52.17833 1.33339 18,150 270 367 -2240
2017-12-11 11:25:30 GMT 52.17836 1.33609 18,200 270 367 -2240
2017-12-11 11:25:28 GMT 52.17842 1.34003 18,250 270 367 -2304
2017-12-11 11:25:26 GMT 52.17845 1.34496 18,325 270 367 -2304
2017-12-11 11:25:24 GMT 52.17851 1.35429 18,450 270 366 -2304
2017-12-11 11:25:21 GMT 52.17856 1.35986 18,550 269 366 -2304
2017-12-11 11:25:18 GMT 52.17863 1.36811 18,650 269 366 -2368
2017-12-11 11:25:16 GMT 52.17874 1.37634 18,775 269 365 -2304
2017-12-11 11:25:14 GMT 52.17883 1.38184 18,875 270 365 -2240
2017-12-11 11:25:12 GMT 52.17888 1.38725 18,950 270 365 -2112
2017-12-11 11:25:10 GMT 52.17892 1.39275 19,025 270 365 -2112
2017-12-11 11:25:08 GMT 52.17892 1.39717 19,075 270 365 -2112
2017-12-11 11:25:06 GMT 52.17896 1.40209 19,150 270 365 -2112
2017-12-11 11:25:04 GMT 52.17896 1.40868 19,225 270 365 -2048
2017-12-11 11:25:02 GMT 52.17897 1.41251 19,275 270 365 -2048
2017-12-11 11:25:00 GMT 52.17901 1.41967 19,375 270 365 -1984
2017-12-11 11:24:58 GMT 52.17905 1.42399 19,425 270 365 -1920
2017-12-11 11:24:56 GMT 52.17905 1.42948 19,475 270 366 -1920
2017-12-11 11:24:54 GMT 52.17911 1.43662 19,575 270 366 -1984
2017-12-11 11:24:52 GMT 52.17910 1.43937 19,600 270 366 -1984
2017-12-11 11:24:50 GMT 52.17915 1.44714 19,700 270 366 -1984
2017-12-11 11:24:48 GMT 52.17920 1.45424 19,775 270 367 -2048
2017-12-11 11:24:46 GMT 52.17919 1.45812 19,850 270 367 -2048
2017-12-11 11:24:44 GMT 52.17924 1.46471 19,925 270 367 -2112
2017-12-11 11:24:42 GMT 52.17925 1.46965 19,975 270 367 -2176
2017-12-11 11:24:39 GMT 52.17929 1.47522 20,050 270 367 -2240
2017-12-11 11:24:37 GMT 52.17929 1.48127 20,150 270 367 -2304
2017-12-11 11:24:35 GMT 52.17933 1.48786 20,250 270 367 -2304
2017-12-11 11:24:33 GMT 52.17933 1.49446 20,350 270 366 -2368
2017-12-11 11:24:31 GMT 52.17934 1.49719 20,375 270 366 -2368
2017-12-11 11:24:29 GMT 52.17938 1.50276 20,450 270 366 -2368
2017-12-11 11:24:27 GMT 52.17938 1.51321 20,600 270 366 -2304
2017-12-11 11:24:25 GMT 52.17938 1.51760 20,675 270 366 -2304
2017-12-11 11:24:23 GMT 52.17938 1.52252 20,750 270 366 -2240
2017-12-11 11:24:23 GMT 52.17938 1.52090 20,725 270 366 -2240
2017-12-11 11:24:21 GMT 52.17938 1.52530 20,775 271 366 -2304
2017-12-11 11:24:19 GMT 52.17938 1.53079 20,875 270 365 -2432
2017-12-11 11:24:17 GMT 52.17938 1.53628 20,950 270 365 -2432
2017-12-11 11:24:15 GMT 52.17938 1.54121 21,025 270 365 -2432
2017-12-11 11:24:13 GMT 52.17943 1.54884 21,125 270 364 -2368
2017-12-11 11:24:11 GMT 52.17943 1.55158 21,175 269 364 -2432
2017-12-11 11:24:09 GMT 52.17952 1.55927 21,300 269 363 -2432
2017-12-11 11:24:07 GMT 52.17970 1.56746 21,425 268 362 -2560
2017-12-11 11:24:05 GMT 52.17970 1.56853 21,450 268 362 -2560
2017-12-11 11:24:03 GMT 52.17989 1.57669 21,575 268 361 -2496
2017-12-11 11:24:03 GMT 52.17989 1.57669 21,575 268 361 -2496
2017-12-11 11:24:01 GMT 52.18002 1.58157 21,650 267 361 -2304
2017-12-11 11:24:01 GMT 52.18002 1.58157 21,650 267 361 -2304
2017-12-11 11:23:58 GMT 52.18022 1.58752 21,725 267 360 -2304
2017-12-11 11:23:56 GMT 52.18050 1.59404 21,825 265 359 -2176
2017-12-11 11:23:54 GMT 52.18089 1.60210 21,925 265 359 -2112
2017-12-11 11:23:54 GMT 52.18089 1.60210 21,925 265 359 -2176
2017-12-11 11:23:52 GMT 52.18121 1.60751 22,000 264 359 -2048
2017-12-11 11:23:50 GMT 52.18147 1.61122 22,050 262 359 -1408
2017-12-11 11:23:47 GMT 52.18208 1.61820 22,125 261 360 -1024
2017-12-11 11:23:44 GMT 52.18278 1.62511 22,175 260 360 -832
2017-12-11 11:23:42 GMT 52.18373 1.63315 22,200 257 363 -704
2017-12-11 11:23:40 GMT 52.18401 1.63528 22,225 257 364 -704
2017-12-11 11:23:38 GMT 52.18543 1.64482 22,250 254 366 -832
2017-12-11 11:23:36 GMT 52.18608 1.64858 22,275 255 365 -832
2017-12-11 11:23:34 GMT 52.18652 1.65123 22,300 254 366 -832
2017-12-11 11:23:33 GMT 52.18715 1.65493 22,325 254 367 -896
2017-12-11 11:23:31 GMT 52.18872 1.66283 22,375 252 368 -1280
2017-12-11 11:23:29 GMT 52.18913 1.66489 22,375 251 369 -1216
2017-12-11 11:23:27 GMT 52.19051 1.67114 22,425 248 370 -1216
2017-12-11 11:23:25 GMT 52.19174 1.67633 22,475 248 370 -1216
2017-12-11 11:23:23 GMT 52.19269 1.67997 22,500 241 369 -1088
2017-12-11 11:23:21 GMT 52.19421 1.68556 22,550 245 370 -1088
2017-12-11 11:23:19 GMT 52.19719 1.69556 22,650 243 370 -1088
2017-12-11 11:23:16 GMT 52.19800 1.69802 22,650 242 370 -1088
2017-12-11 11:23:14 GMT 52.20037 1.70476 22,725 239 368 -1088
2017-12-11 11:23:12 GMT 52.20219 1.70947 22,750 237 366 -1024
2017-12-11 11:23:10 GMT 52.20405 1.71410 22,775 236 365 -1024
2017-12-11 11:23:10 GMT 52.20480 1.71591 22,800 235 364 -1088
2017-12-11 11:23:08 GMT 52.20517 1.71677 22,800 235 364 -1088
2017-12-11 11:23:06 GMT 52.20818 1.72340 22,875 233 363 -1024
2017-12-11 11:23:04 GMT 52.21024 1.72775 22,900 231 361 -960
2017-12-11 11:23:02 GMT 52.21085 1.72901 22,900 231 361 -960
2017-12-11 11:23:00 GMT 52.21383 1.73482 22,950 229 359 -320
2017-12-11 11:22:58 GMT 52.21695 1.74047 22,975 227 358 -320
2017-12-11 11:22:55 GMT 52.21923 1.74439 22,975 226 358 -320
2017-12-11 11:22:53 GMT 52.22228 1.74927 23,000 224 357 64
2017-12-11 11:22:50 GMT 52.22584 1.75483 22,975 223 358 128
2017-12-11 11:22:48 GMT 52.22877 1.75930 22,975 223 358 128
2017-12-11 11:22:46 GMT 52.22996 1.76109 22,975 224 357 128
2017-12-11 11:22:44 GMT 52.23285 1.76552 22,975 224 357 64
2017-12-11 11:22:42 GMT 52.23477 1.76849 22,975 224 357 64
2017-12-11 11:22:40 GMT 52.23720 1.77216 22,975 224 358 64
2017-12-11 11:22:38 GMT 52.23912 1.77513 22,975 224 358 64
2017-12-11 11:22:36 GMT 52.24393 1.78253 22,975 224 358 0
2017-12-11 11:22:36 GMT 52.24150 1.77887 22,975 224 357 0
2017-12-11 11:22:36 GMT 52.24150 1.77887 22,975 224 358 0
2017-12-11 11:22:34 GMT 52.24535 1.78482 22,975 224 358 0
2017-12-11 11:22:32 GMT 52.24748 1.78818 22,975 224 358 0
2017-12-11 11:22:30 GMT 52.24939 1.79116 22,975 224 357 0
2017-12-11 11:22:28 GMT 52.25182 1.79485 22,975 224 357 0
2017-12-11 11:22:26 GMT 52.25517 1.80003 22,975 224 357 0
2017-12-11 11:22:24 GMT 52.25684 1.80267 22,975 224 357 64
2017-12-11 11:22:22 GMT 52.25898 1.80592 22,975 223 356 64
2017-12-11 11:22:19 GMT 52.26238 1.81110 22,975 223 356 0
2017-12-11 11:22:17 GMT 52.26457 1.81435 22,975 223 356 64
2017-12-11 11:22:15 GMT 52.26867 1.82051 22,950 222 355 128
2017-12-11 11:22:13 GMT 52.26993 1.82228 22,950 222 355 128
2017-12-11 11:22:11 GMT 52.27185 1.82510 22,950 222 355 192
2017-12-11 11:22:09 GMT 52.27528 1.83014 22,950 222 354 256
2017-12-11 11:22:07 GMT 52.27771 1.83365 22,950 223 355 320
2017-12-11 11:22:05 GMT 52.28018 1.83723 22,925 223 355 384
2017-12-11 11:22:03 GMT 52.28261 1.84082 22,925 223 354 384
2017-12-11 11:22:01 GMT 52.28357 1.84227 22,925 223 354 384
2017-12-11 11:21:58 GMT 52.28868 1.84986 22,875 223 355 384
2017-12-11 11:21:55 GMT 52.29185 1.85455 22,875 223 356 320
2017-12-11 11:21:53 GMT 52.29404 1.85779 22,850 223 356 256
2017-12-11 11:21:51 GMT 52.29595 1.86069 22,850 223 356 64
2017-12-11 11:21:49 GMT 52.29959 1.86615 22,850 223 356 -192
2017-12-11 11:21:47 GMT 52.30326 1.87160 22,850 223 356 -320
2017-12-11 11:21:45 GMT 52.30399 1.87264 22,875 223 356 -320
2017-12-11 11:21:43 GMT 52.30614 1.87592 22,875 223 355 -384
2017-12-11 11:21:41 GMT 52.30954 1.88102 22,900 223 355 -320
2017-12-11 11:21:38 GMT 52.31243 1.88541 22,900 223 355 -192
2017-12-11 11:21:36 GMT 52.31438 1.88831 22,925 223 355 -128
2017-12-11 11:21:34 GMT 52.31676 1.89200 22,925 223 355 0
2017-12-11 11:21:32 GMT 52.32037 1.89743 22,925 223 355 0
2017-12-11 11:21:30 GMT 52.32304 1.90142 22,925 223 355 128
2017-12-11 11:21:28 GMT 52.32472 1.90399 22,925 224 355 128
2017-12-11 11:21:26 GMT 52.32664 1.90697 22,925 224 355 192
2017-12-11 11:21:24 GMT 52.32948 1.91132 22,900 223 356 384
2017-12-11 11:21:22 GMT 52.33191 1.91498 22,900 223 356 384
2017-12-11 11:21:20 GMT 52.33383 1.91788 22,900 223 356 384
2017-12-11 11:21:18 GMT 52.33672 1.92230 22,875 223 356 384
2017-12-11 11:21:16 GMT 52.33938 1.92637 22,850 224 357 384
2017-12-11 11:21:16 GMT 52.34010 1.92749 22,850 224 357 256
2017-12-11 11:21:16 GMT 52.33938 1.92637 22,850 224 357 384
2017-12-11 11:21:13 GMT 52.34299 1.93184 22,850 224 357 256
2017-12-11 11:21:10 GMT 52.34613 1.93665 22,825 224 357 64
2017-12-11 11:21:08 GMT 52.34902 1.94113 22,825 224 357 64
2017-12-11 11:21:08 GMT 52.34902 1.94113 22,825 224 357 128
2017-12-11 11:21:06 GMT 52.35139 1.94482 22,825 224 357 64
2017-12-11 11:21:04 GMT 52.35381 1.94850 22,825 224 357 0
2017-12-11 11:21:02 GMT 52.35645 1.95259 22,825 224 357 64
2017-12-11 11:21:00 GMT 52.35912 1.95667 22,825 224 357 192
2017-12-11 11:20:58 GMT 52.36079 1.95923 22,825 224 357 256
2017-12-11 11:20:56 GMT 52.36272 1.96220 22,800 224 359 320
2017-12-11 11:20:55 GMT 52.36317 1.96297 22,800 224 359 320
2017-12-11 11:20:53 GMT 52.36633 1.96781 22,800 224 359 384
2017-12-11 11:20:51 GMT 52.36922 1.97228 22,775 224 360 448
2017-12-11 11:20:49 GMT 52.37210 1.97675 22,775 224 360 448
2017-12-11 11:20:47 GMT 52.37329 1.97861 22,750 224 360 448
2017-12-11 11:20:45 GMT 52.37741 1.98499 22,725 224 361 512
2017-12-11 11:20:43 GMT 52.37911 1.98761 22,725 224 361 576
2017-12-11 11:20:41 GMT 52.38203 1.99211 22,700 224 362 576
2017-12-11 11:20:41 GMT 52.38203 1.99211 22,700 224 361 576
2017-12-11 11:20:39 GMT 52.38300 1.99364 22,675 224 362 576
2017-12-11 11:20:37 GMT 52.38588 1.99814 22,650 224 362 512
2017-12-11 11:20:34 GMT 52.38998 2.00461 22,625 224 363 384
2017-12-11 11:20:32 GMT 52.39316 2.00958 22,625 224 364 320
2017-12-11 11:20:29 GMT 52.39534 2.01301 22,600 224 364 320
2017-12-11 11:20:27 GMT 52.39822 2.01756 22,600 224 364 128
2017-12-11 11:20:24 GMT 52.40185 2.02332 22,600 225 365 128
2017-12-11 11:20:22 GMT 52.40428 2.02713 22,575 225 365 0
2017-12-11 11:20:20 GMT 52.40772 2.03255 22,575 225 366 128
2017-12-11 11:20:18 GMT 52.40991 2.03600 22,575 225 366 192
2017-12-11 11:20:15 GMT 52.41233 2.03985 22,575 225 366 192
2017-12-11 11:20:13 GMT 52.41595 2.04567 22,575 225 367 320
2017-12-11 11:20:13 GMT 52.41545 2.04491 22,575 225 367 320
2017-12-11 11:20:11 GMT 52.41833 2.04956 22,550 225 367 320
2017-12-11 11:20:09 GMT 52.42103 2.05382 22,550 225 368 384
2017-12-11 11:20:06 GMT 52.42443 2.05931 22,525 225 369 256
2017-12-11 11:20:04 GMT 52.42732 2.06394 22,500 225 370 384
2017-12-11 11:20:02 GMT 52.42905 2.06673 22,500 225 369 192
2017-12-11 11:20:00 GMT 52.43071 2.06943 22,500 225 370 384
2017-12-11 11:19:58 GMT 52.43318 2.07336 22,500 225 370 384
2017-12-11 11:19:56 GMT 52.43582 2.07771 22,475 225 370 384
2017-12-11 11:19:54 GMT 52.43756 2.08042 22,475 225 370 576
2017-12-11 11:19:52 GMT 52.44122 2.08633 22,450 225 372 640
2017-12-11 11:19:50 GMT 52.44365 2.09030 22,425 225 374 576
2017-12-11 11:19:50 GMT 52.44415 2.09106 22,425 225 374 704
2017-12-11 11:19:47 GMT 52.44658 2.09503 22,400 225 374 576
2017-12-11 11:19:45 GMT 52.44831 2.09784 22,375 225 376 384
2017-12-11 11:19:43 GMT 52.45203 2.10388 22,375 225 376 192
2017-12-11 11:19:41 GMT 52.45371 2.10671 22,350 225 377 -128
2017-12-11 11:19:39 GMT 52.45767 2.11314 22,375 225 377 -640
2017-12-11 11:19:37 GMT 52.45916 2.11557 22,375 225 377 -832
2017-12-11 11:19:35 GMT 52.46091 2.11838 22,400 225 377 -1216
2017-12-11 11:19:33 GMT 52.46384 2.12318 22,450 225 376 -1344
2017-12-11 11:19:31 GMT 52.46631 2.12723 22,475 225 376 -1536
2017-12-11 11:19:29 GMT 52.46805 2.13009 22,500 226 376 -1600
2017-12-11 11:19:27 GMT 52.47098 2.13488 22,575 226 376 -1600
2017-12-11 11:19:25 GMT 52.47368 2.13936 22,625 226 378 -1536
2017-12-11 11:19:23 GMT 52.47615 2.14340 22,675 226 379 -1472
2017-12-11 11:19:21 GMT 52.47936 2.14869 22,750 226 379 -1536
2017-12-11 11:19:18 GMT 52.48183 2.15277 22,800 226 381 -1536
2017-12-11 11:19:16 GMT 52.48476 2.15772 22,875 226 382 -1664
2017-12-11 11:19:14 GMT 52.48750 2.16225 22,925 226 383 -1728
2017-12-11 11:19:12 GMT 52.49021 2.16682 23,000 226 383 -1728
2017-12-11 11:19:09 GMT 52.49468 2.17435 23,100 226 386 -1728
2017-12-11 11:19:07 GMT 52.49593 2.17644 23,125 226 386 -1728
2017-12-11 11:19:04 GMT 52.49915 2.18188 23,200 226 387 -1728
2017-12-11 11:19:02 GMT 52.50264 2.18777 23,300 226 388 -1728
2017-12-11 11:19:00 GMT 52.50389 2.18987 23,325 226 388 -1728
2017-12-11 11:18:58 GMT 52.50818 2.19695 23,425 226 389 -1728
2017-12-11 11:18:56 GMT 52.51018 2.20033 23,450 226 390 -1792
2017-12-11 11:18:54 GMT 52.51195 2.20329 23,500 226 390 -1792
2017-12-11 11:18:52 GMT 52.51423 2.20708 23,575 226 390 -1920
2017-12-11 11:18:52 GMT 52.51423 2.20708 23,575 226 391 -2112
2017-12-11 11:18:50 GMT 52.51749 2.21260 23,650 226 391 -2112
2017-12-11 11:18:48 GMT 52.52079 2.21806 23,750 226 391 -2432
2017-12-11 11:18:46 GMT 52.52206 2.22015 23,800 226 390 -2432
2017-12-11 11:18:44 GMT 52.52559 2.22610 23,925 226 390 -2240
2017-12-11 11:18:42 GMT 52.52685 2.22818 23,950 226 389 -2112
2017-12-11 11:18:40 GMT 52.52987 2.23328 24,050 226 390 -2112
2017-12-11 11:18:38 GMT 52.53187 2.23666 24,075 226 390 -2176
2017-12-11 11:18:38 GMT 52.53187 2.23666 24,075 226 390 -2176
2017-12-11 11:18:35 GMT 52.53667 2.24464 24,225 226 390 -2496
2017-12-11 11:18:33 GMT 52.53997 2.25016 24,350 226 390 -2560
2017-12-11 11:18:31 GMT 52.54074 2.25136 24,375 226 390 -2624
2017-12-11 11:18:29 GMT 52.54300 2.25518 24,475 226 388 -2624
2017-12-11 11:18:27 GMT 52.54705 2.26193 24,600 226 388 -2560
2017-12-11 11:18:26 GMT 52.54705 2.26193 24,600 226 388 -2560
2017-12-11 11:18:24 GMT 52.55059 2.26774 24,725 226 383 -3136
2017-12-11 11:18:22 GMT 52.55310 2.27197 24,800 226 387 -2880
2017-12-11 11:18:20 GMT 52.55635 2.27737 24,925 226 386 -2880
2017-12-11 11:18:17 GMT 52.55859 2.28115 25,025 226 385 -2880
2017-12-11 11:18:17 GMT 52.55859 2.28115 25,025 226 386 -2816
2017-12-11 11:18:15 GMT 52.56134 2.28569 25,125 226 384 -2944
2017-12-11 11:18:13 GMT 52.56381 2.28989 25,225 226 383 -3136
2017-12-11 11:18:11 GMT 52.56633 2.29401 25,325 226 383 -3136
2017-12-11 11:18:09 GMT 52.56930 2.29904 25,475 226 382 -3008
2017-12-11 11:18:07 GMT 52.57223 2.30400 25,575 226 381 -2944
2017-12-11 11:18:07 GMT 52.57173 2.30316 25,575 226 381 -2944
2017-12-11 11:18:05 GMT 52.57370 2.30652 25,625 226 381 -2816
2017-12-11 11:18:03 GMT 52.57591 2.31019 25,725 226 381 -2304
2017-12-11 11:18:01 GMT 52.57889 2.31521 25,825 227 381 -1856
2017-12-11 11:17:59 GMT 52.58085 2.31851 25,875 227 381 -1600
2017-12-11 11:17:59 GMT 52.58085 2.31851 25,875 227 383 -960
2017-12-11 11:17:57 GMT 52.58378 2.32353 25,925 227 382 -1088
2017-12-11 11:17:55 GMT 52.58671 2.32855 25,975 227 383 -640
2017-12-11 11:17:53 GMT 52.58918 2.33271 26,000 226 384 -512
2017-12-11 11:17:51 GMT 52.59211 2.33781 26,025 227 384 -128
2017-12-11 11:17:51 GMT 52.59113 2.33609 26,000 227 384 -320
2017-12-11 11:17:48 GMT 52.59535 2.34322 26,025 227 385 -64
2017-12-11 11:17:46 GMT 52.59732 2.34665 26,025 227 385 64
2017-12-11 11:17:44 GMT 52.59951 2.35045 26,025 227 385 64
2017-12-11 11:17:42 GMT 52.60126 2.35336 26,025 227 385 64
2017-12-11 11:17:42 GMT 52.60198 2.35468 26,050 227 385 64
2017-12-11 11:17:40 GMT 52.60445 2.35884 26,025 227 385 0
2017-12-11 11:17:38 GMT 52.60640 2.36230 26,025 227 385 0
2017-12-11 11:17:38 GMT 52.60762 2.36443 26,025 227 385 64
2017-12-11 11:17:36 GMT 52.60882 2.36653 26,025 227 385 0
2017-12-11 11:17:34 GMT 52.61180 2.37163 26,025 227 385 64
2017-12-11 11:17:32 GMT 52.61469 2.37674 26,025 227 385 0
2017-12-11 11:17:29 GMT 52.61787 2.38228 26,025 227 385 0
2017-12-11 11:17:27 GMT 52.62126 2.38823 26,025 228 385 0
2017-12-11 11:17:25 GMT 52.62297 2.39125 26,025 228 385 0
2017-12-11 11:17:23 GMT 52.62488 2.39471 26,025 228 385 0
2017-12-11 11:17:21 GMT 52.62753 2.39937 26,025 228 385 0
2017-12-11 11:17:19 GMT 52.63046 2.40456 26,025 228 385 128
2017-12-11 11:17:17 GMT 52.63335 2.40974 26,025 228 384 64
2017-12-11 11:17:15 GMT 52.63405 2.41103 26,025 228 384 64
2017-12-11 11:17:13 GMT 52.63719 2.41661 26,025 227 384 -64
2017-12-11 11:17:11 GMT 52.63916 2.41997 26,025 226 384 -128
2017-12-11 11:17:09 GMT 52.64264 2.42577 26,025 225 383 -320
2017-12-11 11:17:07 GMT 52.64392 2.42782 26,025 224 382 -448
2017-12-11 11:17:05 GMT 52.64827 2.43462 26,075 223 382 -896
2017-12-11 11:17:03 GMT 52.64983 2.43690 26,075 222 381 -960
2017-12-11 11:17:00 GMT 52.65384 2.44258 26,125 220 379 -1024
2017-12-11 11:16:58 GMT 52.65654 2.44626 26,150 219 379 -1024
2017-12-11 11:16:56 GMT 52.65958 2.45018 26,200 217 377 -960
2017-12-11 11:16:53 GMT 52.66406 2.45560 26,225 215 377 -960
2017-12-11 11:16:51 GMT 52.66635 2.45827 26,275 213 376 -896
2017-12-11 11:16:49 GMT 52.66836 2.46047 26,300 213 376 -832
2017-12-11 11:16:47 GMT 52.67281 2.46490 26,325 209 374 -960
2017-12-11 11:16:45 GMT 52.67432 2.46627 26,350 209 374 -896
2017-12-11 11:16:43 GMT 52.67982 2.47114 26,425 208 373 -960
2017-12-11 11:16:43 GMT 52.67982 2.47114 26,425 208 373 -960
2017-12-11 11:16:43 GMT 52.67921 2.47067 26,400 208 372 -960
2017-12-11 11:16:41 GMT 52.68196 2.47299 26,450 208 372 -960
2017-12-11 11:16:39 GMT 52.68315 2.47406 26,450 208 372 -896
2017-12-11 11:16:37 GMT 52.68652 2.47687 26,475 208 372 -896
2017-12-11 11:16:35 GMT 52.68988 2.47971 26,500 208 371 -960
2017-12-11 11:16:33 GMT 52.69327 2.48252 26,550 208 371 -1024
2017-12-11 11:16:31 GMT 52.69690 2.48566 26,575 208 371 -896
2017-12-11 11:16:29 GMT 52.69937 2.48770 26,600 208 371 -896
2017-12-11 11:16:27 GMT 52.70300 2.49084 26,625 208 373 -896
2017-12-11 11:16:27 GMT 52.70300 2.49084 26,625 208 372 -896
2017-12-11 11:16:25 GMT 52.70636 2.49374 26,675 208 373 -960
2017-12-11 11:16:22 GMT 52.71096 2.49766 26,725 208 374 -896
2017-12-11 11:16:22 GMT 52.71096 2.49766 26,725 208 374 -896
2017-12-11 11:16:20 GMT 52.71309 2.49947 26,750 208 374 -896
2017-12-11 11:16:18 GMT 52.71556 2.50160 26,775 208 374 -896
2017-12-11 11:16:15 GMT 52.72105 2.50633 26,825 208 374 -960
2017-12-11 11:16:13 GMT 52.72446 2.50920 26,850 208 375 -960
2017-12-11 11:16:11 GMT 52.72783 2.51205 26,900 208 375 -896
2017-12-11 11:16:09 GMT 52.73060 2.51446 26,925 208 375 -896
2017-12-11 11:16:06 GMT 52.73465 2.51785 26,975 208 374 -960
2017-12-11 11:16:04 GMT 52.73831 2.52098 27,000 208 373 -896
2017-12-11 11:16:01 GMT 52.74321 2.52518 27,050 208 373 -960
2017-12-11 11:16:01 GMT 52.74415 2.52591 27,050 208 373 -960
2017-12-11 11:15:59 GMT 52.74536 2.52701 27,075 208 373 -896
2017-12-11 11:15:57 GMT 52.74843 2.52960 27,100 208 373 -896
2017-12-11 11:15:55 GMT 52.75151 2.53219 27,150 208 373 -960
2017-12-11 11:15:53 GMT 52.75458 2.53486 27,175 208 371 -960
2017-12-11 11:15:50 GMT 52.76063 2.54012 27,225 208 371 -896
2017-12-11 11:15:48 GMT 52.76216 2.54143 27,250 208 371 -960
2017-12-11 11:15:46 GMT 52.76523 2.54402 27,300 208 371 -960
2017-12-11 11:15:43 GMT 52.76976 2.54796 27,325 208 371 -960
2017-12-11 11:15:41 GMT 52.77404 2.55165 27,375 208 370 -896
2017-12-11 11:15:39 GMT 52.77706 2.55424 27,400 208 370 -960
2017-12-11 11:15:37 GMT 52.77888 2.55589 27,425 208 370 -960
2017-12-11 11:15:35 GMT 52.78191 2.55848 27,450 208 370 -896
2017-12-11 11:15:33 GMT 52.78523 2.56134 27,500 208 370 -896
2017-12-11 11:15:31 GMT 52.78856 2.56429 27,525 208 370 -896
2017-12-11 11:15:29 GMT 52.79098 2.56633 27,550 208 370 -896
2017-12-11 11:15:27 GMT 52.79613 2.57080 27,600 208 370 -960
2017-12-11 11:15:25 GMT 52.79703 2.57159 27,600 208 370 -960
2017-12-11 11:15:23 GMT 52.80038 2.57454 27,650 208 371 -960
2017-12-11 11:15:21 GMT 52.80309 2.57684 27,675 208 372 -896
2017-12-11 11:15:19 GMT 52.80885 2.58186 27,725 208 371 -896
2017-12-11 11:15:19 GMT 52.80737 2.58053 27,725 208 371 -896
2017-12-11 11:15:17 GMT 52.80949 2.58240 27,750 208 372 -896
2017-12-11 11:15:14 GMT 52.81403 2.58634 27,775 208 372 -896
2017-12-11 11:15:12 GMT 52.81649 2.58846 27,800 208 372 -960
2017-12-11 11:15:09 GMT 52.82227 2.59346 27,875 208 373 -960
2017-12-11 11:15:07 GMT 52.82380 2.59474 27,900 208 373 -960
2017-12-11 11:15:05 GMT 52.82959 2.59979 27,950 208 374 -896
2017-12-11 11:15:02 GMT 52.83330 2.60292 27,975 208 374 -896
2017-12-11 11:15:01 GMT 52.83266 2.60239 27,975 208 374 -896
2017-12-11 11:14:59 GMT 52.83632 2.60559 28,025 208 374 -896
2017-12-11 11:14:57 GMT 52.84003 2.60880 28,050 208 374 -896
2017-12-11 11:14:56 GMT 52.84245 2.61085 28,075 208 374 -832
2017-12-11 11:14:55 GMT 52.84340 2.61169 28,100 208 374 -896
2017-12-11 11:14:53 GMT 52.84676 2.61459 28,125 208 374 -832
2017-12-11 11:14:51 GMT 52.84889 2.61647 28,150 208 374 -896
2017-12-11 11:14:49 GMT 52.85165 2.61887 28,175 208 374 -896
2017-12-11 11:14:47 GMT 52.85625 2.62283 28,225 208 374 -896
2017-12-11 11:14:45 GMT 52.85779 2.62421 28,225 208 374 -896
2017-12-11 11:14:43 GMT 52.86300 2.62871 28,275 208 375 -896
2017-12-11 11:14:41 GMT 52.86456 2.63001 28,300 208 375 -896
2017-12-11 11:14:39 GMT 52.86733 2.63240 28,325 208 375 -896
2017-12-11 11:14:39 GMT 52.86733 2.63240 28,325 208 375 -896
2017-12-11 11:14:37 GMT 52.87006 2.63481 28,350 208 375 -896
2017-12-11 11:14:35 GMT 52.87436 2.63847 28,400 208 375 -896
2017-12-11 11:14:31 GMT 52.88022 2.64355 28,450 208 375 -832
2017-12-11 11:14:28 GMT 52.88420 2.64694 28,500 208 375 -832
2017-12-11 11:14:26 GMT 52.88884 2.65092 28,525 208 375 -832
2017-12-11 11:14:26 GMT 52.89034 2.65228 28,550 208 369 -704
2017-12-11 11:14:24 GMT 52.89034 2.65228 28,550 208 375 -832
2017-12-11 11:14:22 GMT 52.89312 2.65469 28,575 208 375 -768
2017-12-11 11:14:20 GMT 52.89680 2.65783 28,600 208 375 -768
2017-12-11 11:14:18 GMT 52.90047 2.66105 28,650 208 375 -768
2017-12-11 11:14:14 GMT 52.90631 2.66602 28,700 208 374 -768
2017-12-11 11:14:12 GMT 52.90848 2.66787 28,725 208 374 -768
2017-12-11 11:14:12 GMT 52.90848 2.66787 28,725 208 373 -768
2017-12-11 11:14:10 GMT 52.91244 2.67128 28,750 208 374 -768
2017-12-11 11:14:08 GMT 52.91463 2.67313 28,775 208 373 -768
2017-12-11 11:14:06 GMT 52.91858 2.67654 28,800 208 373 -768
2017-12-11 11:14:04 GMT 52.92284 2.68028 28,850 208 371 -768
2017-12-11 11:14:02 GMT 52.92440 2.68153 28,850 208 371 -768
2017-12-11 11:14:00 GMT 52.92803 2.68467 28,900 208 370 -704
2017-12-11 11:13:58 GMT 52.93045 2.68678 28,900 208 369 -704
2017-12-11 11:13:56 GMT 52.93469 2.69040 28,950 208 367 -704
2017-12-11 11:13:54 GMT 52.93620 2.69173 28,950 208 367 -704
2017-12-11 11:13:51 GMT 52.94130 2.69612 29,000 208 363 -704
2017-12-11 11:13:49 GMT 52.94458 2.69890 29,025 208 363 -704
2017-12-11 11:13:47 GMT 52.94670 2.70075 29,050 208 361 -704
2017-12-11 11:13:44 GMT 52.95201 2.70538 29,100 208 360 -768
2017-12-11 11:13:42 GMT 52.95433 2.70742 29,100 208 358 -704
2017-12-11 11:13:40 GMT 52.95671 2.70946 29,125 209 355 -704
2017-12-11 11:13:38 GMT 52.96046 2.71278 29,175 209 355 -704
2017-12-11 11:13:36 GMT 52.96220 2.71431 29,175 209 355 -704
2017-12-11 11:13:34 GMT 52.96658 2.71818 29,225 209 352 -768
2017-12-11 11:13:32 GMT 52.96857 2.71996 29,250 209 350 -704
2017-12-11 11:13:30 GMT 52.97200 2.72301 29,275 209 349 -704
2017-12-11 11:13:28 GMT 52.97398 2.72477 29,275 209 347 -704
2017-12-11 11:13:26 GMT 52.97708 2.72751 29,300 209 346 -704
2017-12-11 11:13:24 GMT 52.97992 2.73003 29,325 209 344 -832
2017-12-11 11:13:22 GMT 52.98271 2.73254 29,350 209 343 -832
2017-12-11 11:13:20 GMT 52.98605 2.73552 29,400 209 341 -832
2017-12-11 11:13:17 GMT 52.99104 2.74002 29,450 209 340 -768
2017-12-11 11:13:15 GMT 52.99159 2.74048 29,450 209 339 -768
2017-12-11 11:13:13 GMT 52.99572 2.74423 29,475 209 337 -960
2017-12-11 11:13:11 GMT 52.99818 2.74643 29,500 209 338 -896
2017-12-11 11:13:09 GMT 53.00014 2.74815 29,525 209 337 -1024
2017-12-11 11:13:07 GMT 53.00396 2.75160 29,575 209 336 -1088
2017-12-11 11:13:05 GMT 53.00671 2.75404 29,625 209 336 -1152
2017-12-11 11:13:03 GMT 53.00912 2.75627 29,650 209 334 -1408
2017-12-11 11:13:01 GMT 53.01266 2.75945 29,725 209 333 -1472
2017-12-11 11:12:59 GMT 53.01402 2.76062 29,750 209 332 -1472
2017-12-11 11:12:57 GMT 53.01699 2.76337 29,800 209 332 -1472
2017-12-11 11:12:57 GMT 53.01699 2.76337 29,800 209 332 -1472
2017-12-11 11:12:55 GMT 53.02076 2.76683 29,875 209 332 -1536
2017-12-11 11:12:52 GMT 53.02428 2.77000 29,925 210 332 -1472
2017-12-11 11:12:50 GMT 53.02748 2.77298 30,000 210 332 -1344
2017-12-11 11:12:47 GMT 53.03068 2.77596 30,050 210 332 -1344
2017-12-11 11:12:47 GMT 53.03068 2.77596 30,050 210 332 -1344
2017-12-11 11:12:47 GMT 53.03068 2.77596 30,050 210 332 -1344
2017-12-11 11:12:47 GMT 53.03068 2.77596 30,050 210 332 -1344
2017-12-11 11:12:45 GMT 53.03254 2.77774 30,075 210 332 -1344
2017-12-11 11:12:43 GMT 53.03549 2.78046 30,125 210 333 -1408
2017-12-11 11:12:41 GMT 53.03897 2.78370 30,200 210 332 -1408
2017-12-11 11:12:39 GMT 53.04245 2.78687 30,250 210 333 -1408
2017-12-11 11:12:36 GMT 53.04620 2.79038 30,325 210 334 -1472
2017-12-11 11:12:34 GMT 53.04702 2.79115 30,325 210 334 -1472
2017-12-11 11:12:32 GMT 53.05079 2.79469 30,400 210 335 -1536
2017-12-11 11:12:30 GMT 53.05321 2.79694 30,450 210 335 -1536
2017-12-11 11:12:28 GMT 53.05726 2.80065 30,525 210 336 -1664
2017-12-11 11:12:26 GMT 53.05833 2.80167 30,550 210 336 -1600
2017-12-11 11:12:24 GMT 53.06052 2.80371 30,600 210 337 -1600
2017-12-11 11:12:22 GMT 53.06461 2.80747 30,675 210 339 -1280
2017-12-11 11:12:20 GMT 53.06731 2.80998 30,725 209 338 -1344
2017-12-11 11:12:18 GMT 53.06950 2.81197 30,775 210 339 -1280
2017-12-11 11:12:15 GMT 53.07416 2.81627 30,850 210 339 -1216
2017-12-11 11:12:13 GMT 53.07691 2.81878 30,875 210 341 -1280
2017-12-11 11:12:11 GMT 53.08133 2.82286 30,950 210 341 -1216
2017-12-11 11:12:09 GMT 53.08324 2.82463 30,975 210 343 -1216
2017-12-11 11:12:07 GMT 53.08575 2.82694 31,025 210 344 -1216
2017-12-11 11:12:05 GMT 53.08794 2.82898 31,050 209 345 -1216
2017-12-11 11:12:03 GMT 53.08937 2.83028 31,075 209 346 -1216
2017-12-11 11:12:00 GMT 53.09551 2.83589 31,175 209 346 -1216
2017-12-11 11:11:58 GMT 53.09748 2.83770 31,200 209 350 -1216
2017-12-11 11:11:56 GMT 53.10083 2.84077 31,250 209 350 -1216
2017-12-11 11:11:54 GMT 53.10283 2.84263 31,275 209 350 -1216
2017-12-11 11:11:50 GMT 53.10880 2.84804 31,375 209 352 -1216
2017-12-11 11:11:48 GMT 53.11163 2.85063 31,400 209 353 -1216
2017-12-11 11:11:46 GMT 53.11508 2.85378 31,450 209 354 -1152
2017-12-11 11:11:44 GMT 53.11706 2.85558 31,475 209 355 -1152
2017-12-11 11:11:39 GMT 53.12457 2.86241 31,575 209 358 -1152
2017-12-11 11:11:37 GMT 53.12779 2.86533 31,625 209 359 -1216
2017-12-11 11:11:35 GMT 53.12979 2.86712 31,650 209 359 -1216
2017-12-11 11:11:33 GMT 53.13213 2.86924 31,675 209 361 -1216
2017-12-11 11:11:28 GMT 53.14068 2.87696 31,800 209 365 -1088
2017-12-11 11:11:26 GMT 53.14394 2.87991 31,850 209 367 -832
2017-12-11 11:11:24 GMT 53.14627 2.88203 31,875 209 367 -832
2017-12-11 11:11:22 GMT 53.15074 2.88609 31,925 209 369 -832
2017-12-11 11:11:19 GMT 53.15465 2.88956 31,975 209 369 -832
2017-12-11 11:11:17 GMT 53.15791 2.89256 32,000 209 368 -832
2017-12-11 11:11:15 GMT 53.16119 2.89553 32,050 209 368 -896
2017-12-11 11:11:13 GMT 53.16270 2.89692 32,050 209 368 -896
2017-12-11 11:11:10 GMT 53.16629 2.90015 32,100 209 368 -896
2017-12-11 11:11:08 GMT 53.17136 2.90478 32,150 209 367 -768
2017-12-11 11:11:06 GMT 53.17401 2.90726 32,175 209 367 -768
2017-12-11 11:11:04 GMT 53.17790 2.91075 32,200 209 366 -768
2017-12-11 11:11:02 GMT 53.17969 2.91232 32,225 209 365 -896
2017-12-11 11:10:59 GMT 53.18326 2.91561 32,275 209 365 -896
2017-12-11 11:10:57 GMT 53.18649 2.91857 32,300 210 363 -896
2017-12-11 11:10:55 GMT 53.19145 2.92315 32,350 211 361 -960
2017-12-11 11:10:53 GMT 53.19236 2.92398 32,375 213 362 -1088
2017-12-11 11:10:53 GMT 53.19236 2.92398 32,375 211 361 -960
2017-12-11 11:10:51 GMT 53.19524 2.92681 32,400 212 362 -1024
2017-12-11 11:10:49 GMT 53.19896 2.93052 32,425 213 362 -1152
2017-12-11 11:10:46 GMT 53.20260 2.93448 32,475 214 363 -1344
2017-12-11 11:10:44 GMT 53.20702 2.93949 32,550 216 363 -1344
2017-12-11 11:10:42 GMT 53.20870 2.94143 32,575 217 363 -1344
2017-12-11 11:10:37 GMT 53.21590 2.95053 32,700 219 364 -1344
2017-12-11 11:10:35 GMT 53.21666 2.95161 32,725 220 363 -1344
2017-12-11 11:10:33 GMT 53.21951 2.95556 32,775 221 364 -1344
2017-12-11 11:10:31 GMT 53.22308 2.96074 32,850 223 364 -1344
2017-12-11 11:10:29 GMT 53.22459 2.96293 32,875 223 364 -1344
2017-12-11 11:10:27 GMT 53.22848 2.96913 32,950 226 363 -1344
2017-12-11 11:10:25 GMT 53.23113 2.97342 33,000 225 364 -1408
2017-12-11 11:10:23 GMT 53.23233 2.97541 33,025 226 363 -1344
2017-12-11 11:10:21 GMT 53.23466 2.97941 33,075 226 363 -1344
2017-12-11 11:10:19 GMT 53.23750 2.98420 33,125 226 363 -1344
2017-12-11 11:10:15 GMT 53.24147 2.99103 33,200 226 362 -1408
2017-12-11 11:10:15 GMT 53.24147 2.99103 33,200 226 362 -1408
2017-12-11 11:10:13 GMT 53.24431 2.99579 33,250 226 362 -1728
2017-12-11 11:10:11 GMT 53.24757 3.00137 33,325 226 362 -1792
2017-12-11 11:10:08 GMT 53.25064 3.00657 33,400 226 363 -1792
2017-12-11 11:10:06 GMT 53.25134 3.00775 33,400 226 364 -1856
2017-12-11 11:10:04 GMT 53.25418 3.01252 33,475 225 364 -1856
2017-12-11 11:10:04 GMT 53.25418 3.01252 33,475 225 364 -1600
2017-12-11 11:10:02 GMT 53.25723 3.01763 33,575 225 364 -1856
2017-12-11 11:10:00 GMT 53.25966 3.02163 33,625 225 366 -1472
2017-12-11 11:09:58 GMT 53.26228 3.02593 33,700 225 366 -1472
2017-12-11 11:09:55 GMT 53.26568 3.03150 33,775 224 367 -1472
2017-12-11 11:09:53 GMT 53.26836 3.03576 33,825 224 367 -1600
2017-12-11 11:09:51 GMT 53.26959 3.03772 33,850 224 367 -1664
2017-12-11 11:09:49 GMT 53.27359 3.04394 33,950 223 369 -2048
2017-12-11 11:09:47 GMT 53.27531 3.04659 33,975 222 369 -2048
2017-12-11 11:09:45 GMT 53.27908 3.05234 34,075 222 370 -1984
2017-12-11 11:09:43 GMT 53.28011 3.05388 34,125 221 371 -2048
2017-12-11 11:09:41 GMT 53.28267 3.05767 34,175 222 371 -1920
2017-12-11 11:09:39 GMT 53.28548 3.06181 34,250 222 371 -1920
2017-12-11 11:09:37 GMT 53.28909 3.06707 34,350 221 371 -2048
2017-12-11 11:09:35 GMT 53.29039 3.06898 34,375 221 372 -2112
2017-12-11 11:09:33 GMT 53.29271 3.07233 34,450 221 373 -2048
2017-12-11 11:09:33 GMT 53.29271 3.07233 34,450 221 372 -2176
2017-12-11 11:09:31 GMT 53.29587 3.07680 34,525 221 372 -2048
2017-12-11 11:09:29 GMT 53.29924 3.08167 34,625 221 374 -1856
2017-12-11 11:09:25 GMT 53.30479 3.08943 34,750 220 374 -1728
2017-12-11 11:09:23 GMT 53.30695 3.09242 34,800 220 375 -1856
2017-12-11 11:09:21 GMT 53.31015 3.09681 34,875 220 376 -2048
2017-12-11 11:09:21 GMT 53.30934 3.09572 34,850 220 376 -2048
2017-12-11 11:09:19 GMT 53.31307 3.10089 34,950 220 377 -2176
2017-12-11 11:09:17 GMT 53.31445 3.10270 35,000 220 376 -2176
2017-12-11 11:09:15 GMT 53.31795 3.10751 35,075 219 378 -2176
2017-12-11 11:09:13 GMT 53.32036 3.11078 35,150 219 378 -2176
2017-12-11 11:09:11 GMT 53.32256 3.11376 35,200 219 379 -2176
2017-12-11 11:09:09 GMT 53.32526 3.11737 35,275 219 378 -2176
2017-12-11 11:09:09 GMT 53.32526 3.11737 35,275 219 378 -2176
2017-12-11 11:09:07 GMT 53.32796 3.12106 35,350 219 378 -2176
2017-12-11 11:09:05 GMT 53.33206 3.12650 35,450 219 379 -1984
2017-12-11 11:09:03 GMT 53.33400 3.12906 35,525 219 379 -2176
2017-12-11 11:09:01 GMT 53.33536 3.13086 35,550 219 379 -1984
2017-12-11 11:08:59 GMT 53.33949 3.13636 35,650 219 380 -1728
2017-12-11 11:08:56 GMT 53.34416 3.14249 35,750 219 380 -1600
2017-12-11 11:08:53 GMT 53.34747 3.14686 35,825 219 379 -1088
2017-12-11 11:08:51 GMT 53.35021 3.15041 35,875 218 380 -384
2017-12-11 11:08:49 GMT 53.35352 3.15477 35,925 219 379 -896
2017-12-11 11:08:47 GMT 53.35631 3.15841 35,975 218 380 -512
2017-12-11 11:08:44 GMT 53.35906 3.16196 35,975 218 380 128
2017-12-11 11:08:42 GMT 53.36266 3.16665 36,000 218 380 64
2017-12-11 11:08:40 GMT 53.36655 3.17175 36,000 218 380 0
2017-12-11 11:08:38 GMT 53.36765 3.17316 35,975 218 380 0
2017-12-11 11:08:36 GMT 53.37154 3.17819 36,000 218 380 -128
2017-12-11 11:08:34 GMT 53.37378 3.18101 36,000 218 380 -128
2017-12-11 11:08:31 GMT 53.37822 3.18682 36,000 218 379 0
2017-12-11 11:08:29 GMT 53.38152 3.19114 36,000 218 380 64
2017-12-11 11:08:27 GMT 53.38289 3.19290 36,000 218 380 64
2017-12-11 11:08:25 GMT 53.38596 3.19686 36,000 218 380 -64
2017-12-11 11:08:23 GMT 53.38815 3.19977 36,000 219 379 -64
2017-12-11 11:08:21 GMT 53.39149 3.20408 36,000 219 379 0
2017-12-11 11:08:19 GMT 53.39534 3.20919 36,000 219 379 64
2017-12-11 11:08:16 GMT 53.39728 3.21172 36,000 219 379 128
2017-12-11 11:08:13 GMT 53.40362 3.22001 36,000 218 380 128
2017-12-11 11:08:13 GMT 53.40362 3.22001 36,000 218 380 0
2017-12-11 11:08:11 GMT 53.40668 3.22392 35,975 218 380 -64
2017-12-11 11:08:09 GMT 53.40780 3.22538 35,975 218 380 -64
2017-12-11 11:08:07 GMT 53.41031 3.22857 35,975 218 380 -128
2017-12-11 11:08:05 GMT 53.41446 3.23402 36,000 218 380 -64
2017-12-11 11:08:03 GMT 53.41669 3.23685 36,000 218 380 -64
2017-12-11 11:08:01 GMT 53.41944 3.24048 36,000 218 380 0
2017-12-11 11:08:00 GMT 53.42000 3.24113 36,000 218 380 0
2017-12-11 11:07:58 GMT 53.42308 3.24513 36,000 218 380 0
2017-12-11 11:07:56 GMT 53.42583 3.24874 36,000 218 379 64
2017-12-11 11:07:54 GMT 53.43052 3.25478 36,000 218 379 0
2017-12-11 11:07:52 GMT 53.43275 3.25769 36,000 218 379 64
2017-12-11 11:07:50 GMT 53.43411 3.25949 36,000 218 379 0
2017-12-11 11:07:48 GMT 53.43662 3.26278 36,000 218 379 0
2017-12-11 11:07:46 GMT 53.44080 3.26812 36,000 218 380 0
2017-12-11 11:07:44 GMT 53.44271 3.27061 36,000 218 380 64
2017-12-11 11:07:41 GMT 53.44688 3.27604 36,000 218 380 0
2017-12-11 11:07:38 GMT 53.45216 3.28281 36,000 218 380 64
2017-12-11 11:07:36 GMT 53.45435 3.28564 36,000 218 380 64
2017-12-11 11:07:34 GMT 53.45603 3.28782 36,000 218 379 128
2017-12-11 11:07:32 GMT 53.45882 3.29137 36,000 218 379 128
2017-12-11 11:07:30 GMT 53.46300 3.29676 36,000 218 379 128
2017-12-11 11:07:28 GMT 53.46520 3.29959 36,000 218 379 0
2017-12-11 11:07:26 GMT 53.46854 3.30390 36,000 218 379 192
2017-12-11 11:07:24 GMT 53.47051 3.30632 36,000 218 379 -64
2017-12-11 11:07:22 GMT 53.47274 3.30923 36,000 218 379 0
2017-12-11 11:07:20 GMT 53.47916 3.31740 36,000 218 379 0
2017-12-11 11:07:18 GMT 53.47916 3.31740 36,000 218 378 -128
2017-12-11 11:07:15 GMT 53.48387 3.32344 36,000 218 378 -64
2017-12-11 11:07:13 GMT 53.48524 3.32517 36,000 218 378 -64
2017-12-11 11:07:11 GMT 53.48859 3.32948 36,000 218 377 64
2017-12-11 11:07:11 GMT 53.48996 3.33120 36,000 218 377 64
2017-12-11 11:07:09 GMT 53.49188 3.33372 36,000 218 376 64
2017-12-11 11:07:07 GMT 53.49439 3.33694 36,000 218 376 0
2017-12-11 11:07:05 GMT 53.49769 3.34114 36,000 218 376 0
2017-12-11 11:07:03 GMT 53.49962 3.34361 36,000 218 376 -64
2017-12-11 11:07:03 GMT 53.49852 3.34220 36,000 218 376 0
2017-12-11 11:07:01 GMT 53.50379 3.34889 36,000 218 376 -64
2017-12-11 11:06:59 GMT 53.50516 3.35067 36,000 218 375 -64
2017-12-11 11:06:57 GMT 53.50735 3.35350 36,000 218 376 -128
2017-12-11 11:06:54 GMT 53.51264 3.36020 36,000 218 377 128
2017-12-11 11:06:52 GMT 53.51482 3.36295 36,000 218 377 64
2017-12-11 11:06:50 GMT 53.51762 3.36650 35,975 218 377 0
2017-12-11 11:06:50 GMT 53.51762 3.36650 35,975 217 377 -64
2017-12-11 11:06:50 GMT 53.51762 3.36650 35,975 218 377 0
2017-12-11 11:06:48 GMT 53.51985 3.36933 36,000 217 377 -128
2017-12-11 11:06:46 GMT 53.52457 3.37524 35,975 217 380 -832
2017-12-11 11:06:44 GMT 53.52600 3.37700 36,000 217 379 -256
2017-12-11 11:06:42 GMT 53.52935 3.38120 36,000 217 380 -384
2017-12-11 11:06:42 GMT 53.52935 3.38120 36,000 217 380 -256
2017-12-11 11:06:40 GMT 53.53075 3.38300 36,000 217 380 -512
2017-12-11 11:06:38 GMT 53.53413 3.38724 36,000 217 380 -832
2017-12-11 11:06:36 GMT 53.53777 3.39179 36,050 217 383 -1024
2017-12-11 11:06:33 GMT 53.54229 3.39744 36,100 217 383 -1024
2017-12-11 11:06:31 GMT 53.54370 3.39925 36,125 217 383 -1024
2017-12-11 11:06:29 GMT 53.54654 3.40278 36,150 217 383 -1024
2017-12-11 11:06:27 GMT 53.54883 3.40560 36,175 217 384 -1024
2017-12-11 11:06:25 GMT 53.55281 3.41063 36,225 217 385 -1024
2017-12-11 11:06:23 GMT 53.55505 3.41345 36,250 217 385 -1024
2017-12-11 11:06:21 GMT 53.56018 3.41989 36,325 217 385 -1024
2017-12-11 11:06:19 GMT 53.56217 3.42240 36,350 217 385 -1088
2017-12-11 11:06:16 GMT 53.56561 3.42668 36,375 217 385 -1088
2017-12-11 11:06:13 GMT 53.56957 3.43169 36,425 217 385 -1152
2017-12-11 11:06:11 GMT 53.57213 3.43495 36,475 217 385 -1152
2017-12-11 11:06:09 GMT 53.57501 3.43848 36,500 218 386 -1152
2017-12-11 11:06:09 GMT 53.57501 3.43848 36,500 218 386 -1152
2017-12-11 11:06:06 GMT 53.58042 3.44535 36,575 218 388 -1152
2017-12-11 11:06:04 GMT 53.58381 3.44971 36,625 218 388 -1152
2017-12-11 11:06:03 GMT 53.58326 3.44898 36,625 218 388 -1152
2017-12-11 11:06:01 GMT 53.58726 3.45407 36,675 218 388 -1088
2017-12-11 11:05:59 GMT 53.58954 3.45706 36,700 218 388 -1088
2017-12-11 11:05:59 GMT 53.58954 3.45706 36,700 218 388 -1088
2017-12-11 11:05:57 GMT 53.59209 3.46030 36,725 218 390 -1088
2017-12-11 11:05:55 GMT 53.59552 3.46470 36,775 218 390 -1088
2017-12-11 11:05:53 GMT 53.59750 3.46732 36,800 218 390 -1088
2017-12-11 11:05:53 GMT 53.59750 3.46732 36,800 218 390 -1088
2017-12-11 11:05:51 GMT 53.60095 3.47176 36,850 218 391 -1088
2017-12-11 11:05:49 GMT 53.60379 3.47548 36,875 218 392 -1088
2017-12-11 11:05:48 GMT 53.60468 3.47655 36,875 218 392 -1088
2017-12-11 11:05:46 GMT 53.60784 3.48065 36,925 218 394 -1024
2017-12-11 11:05:44 GMT 53.61040 3.48408 36,950 218 398 -1024
2017-12-11 11:05:42 GMT 53.61472 3.48969 37,000 218 396 -1024
2017-12-11 11:05:40 GMT 53.61736 3.49310 37,025 218 398 -1024
2017-12-11 11:05:38 GMT 53.61938 3.49575 37,050 218 399 -1024
2017-12-11 11:05:36 GMT 53.62287 3.50028 37,100 218 401 -1024
2017-12-11 11:05:34 GMT 53.62580 3.50407 37,125 218 404 -960
2017-12-11 11:05:32 GMT 53.62784 3.50676 37,150 218 402 -960
2017-12-11 11:05:30 GMT 53.63255 3.51288 37,225 218 405 -1024
2017-12-11 11:05:28 GMT 53.63493 3.51594 37,250 218 404 -1024
2017-12-11 11:05:26 GMT 53.63814 3.52023 37,300 218 405 -1024
2017-12-11 11:05:24 GMT 53.63991 3.52249 37,300 218 406 -1024
2017-12-11 11:05:22 GMT 53.64436 3.52834 37,375 218 406 -1024
2017-12-11 11:05:20 GMT 53.64703 3.53178 37,400 218 409 -1024
2017-12-11 11:05:18 GMT 53.64941 3.53493 37,425 218 406 -1024
2017-12-11 11:05:16 GMT 53.65355 3.54034 37,475 218 408 -1088
2017-12-11 11:05:16 GMT 53.65205 3.53838 37,450 218 408 -1024
2017-12-11 11:05:15 GMT 53.65355 3.54034 37,475 218 409 -1024
2017-12-11 11:05:14 GMT 53.65443 3.54152 37,475 218 408 -1088
2017-12-11 11:05:11 GMT 53.66007 3.54891 37,550 218 408 -1024
2017-12-11 11:05:09 GMT 53.66277 3.55243 37,575 218 410 -1088
2017-12-11 11:05:07 GMT 53.66515 3.55557 37,625 218 409 -1024
2017-12-11 11:05:04 GMT 53.67174 3.56420 37,700 218 411 -1024
2017-12-11 11:05:01 GMT 53.67566 3.56926 37,750 218 412 -1024
2017-12-11 11:04:59 GMT 53.67778 3.57197 37,775 217 412 -1024
2017-12-11 11:04:57 GMT 53.67990 3.57460 37,800 217 412 -1024
2017-12-11 11:04:53 GMT 53.68730 3.58364 37,875 215 413 -1024
2017-12-11 11:04:51 GMT 53.69112 3.58792 37,925 213 413 -832
2017-12-11 11:04:49 GMT 53.69206 3.58900 37,925 212 413 -512
2017-12-11 11:04:47 GMT 53.69591 3.59316 37,975 212 413 -256
2017-12-11 11:04:45 GMT 53.70049 3.59787 38,000 211 412 -128
2017-12-11 11:04:43 GMT 53.70276 3.60020 38,000 210 413 0
2017-12-11 11:04:41 GMT 53.70741 3.60465 38,000 210 414 64
2017-12-11 11:04:39 GMT 53.71042 3.60744 38,000 209 414 64
2017-12-11 11:04:37 GMT 53.71243 3.60932 38,000 208 414 0
2017-12-11 11:04:37 GMT 53.71341 3.61022 38,000 208 414 0
2017-12-11 11:04:34 GMT 53.71886 3.61499 38,000 208 414 -64
2017-12-11 11:04:32 GMT 53.72021 3.61620 38,000 208 414 0
2017-12-11 11:04:30 GMT 53.72361 3.61911 38,000 208 415 0
2017-12-11 11:04:28 GMT 53.72771 3.62266 38,000 208 414 0
2017-12-11 11:04:26 GMT 53.73176 3.62622 38,000 208 414 0
2017-12-11 11:04:24 GMT 53.73515 3.62920 38,000 208 414 -64
2017-12-11 11:04:23 GMT 53.73855 3.63219 38,000 208 414 -64
2017-12-11 11:04:22 GMT 53.73855 3.63219 38,000 208 414 0
2017-12-11 11:04:20 GMT 53.74195 3.63510 38,000 208 414 64
2017-12-11 11:04:18 GMT 53.74670 3.63930 38,000 208 414 64
2017-12-11 11:04:16 GMT 53.74841 3.64079 38,000 208 414 64
2017-12-11 11:04:14 GMT 53.75249 3.64432 38,000 208 414 0
2017-12-11 11:04:11 GMT 53.75690 3.64819 38,000 208 414 0
2017-12-11 11:04:09 GMT 53.76029 3.65118 38,000 208 414 -64
2017-12-11 11:04:07 GMT 53.76369 3.65408 38,000 208 415 -64
2017-12-11 11:04:06 GMT 53.76540 3.65562 38,000 208 415 -64
2017-12-11 11:04:05 GMT 53.76644 3.65651 38,000 208 415 -64
2017-12-11 11:04:02 GMT 53.77359 3.66269 38,000 208 415 0
2017-12-11 11:04:02 GMT 53.77359 3.66269 38,000 208 415 0
2017-12-11 11:03:59 GMT 53.77835 3.66684 38,000 208 415 64
2017-12-11 11:03:57 GMT 53.78003 3.66830 38,000 208 415 64
2017-12-11 11:03:55 GMT 53.78513 3.67273 38,000 208 415 64
2017-12-11 11:03:55 GMT 53.78343 3.67129 38,000 208 415 64
2017-12-11 11:03:54 GMT 53.78513 3.67273 38,000 208 415 64
2017-12-11 11:03:54 GMT 53.78683 3.67420 38,000 208 415 64
2017-12-11 11:03:52 GMT 53.78920 3.67634 38,000 208 415 0
2017-12-11 11:03:50 GMT 53.79362 3.68018 38,000 208 415 0
2017-12-11 11:03:48 GMT 53.79671 3.68285 38,000 208 415 0
2017-12-11 11:03:46 GMT 53.80042 3.68608 38,000 208 415 0
2017-12-11 11:03:44 GMT 53.80215 3.68756 38,000 208 415 0
2017-12-11 11:03:42 GMT 53.80657 3.69141 38,000 208 415 64
2017-12-11 11:03:39 GMT 53.81236 3.69651 38,000 208 415 0
2017-12-11 11:03:36 GMT 53.81676 3.70037 38,000 208 415 0
2017-12-11 11:03:34 GMT 53.82016 3.70336 38,000 208 415 0
2017-12-11 11:03:32 GMT 53.82356 3.70627 38,000 208 415 0
2017-12-11 11:03:30 GMT 53.82696 3.70926 38,000 208 415 0
2017-12-11 11:03:28 GMT 53.83035 3.71225 38,000 208 415 0
2017-12-11 11:03:26 GMT 53.83411 3.71558 38,000 208 415 0
2017-12-11 11:03:24 GMT 53.83681 3.71793 38,000 208 415 0
2017-12-11 11:03:21 GMT 53.84055 3.72122 38,000 208 415 -64
2017-12-11 11:03:19 GMT 53.84633 3.72625 38,000 208 414 128
2017-12-11 11:03:16 GMT 53.84976 3.72923 38,000 208 414 128
2017-12-11 11:03:14 GMT 53.85484 3.73374 38,000 208 415 0
2017-12-11 11:03:12 GMT 53.85791 3.73645 38,000 208 415 64
2017-12-11 11:03:10 GMT 53.86130 3.73943 38,000 208 415 0
2017-12-11 11:03:06 GMT 53.86913 3.74626 38,000 208 415 -64
2017-12-11 11:03:04 GMT 53.87288 3.74956 38,000 208 415 0
2017-12-11 11:03:02 GMT 53.87458 3.75102 38,000 208 415 0
2017-12-11 11:02:59 GMT 53.87965 3.75544 38,000 208 415 0
2017-12-11 11:02:57 GMT 53.88240 3.75787 38,000 208 414 0
2017-12-11 11:02:55 GMT 53.88716 3.76203 38,000 208 414 64
2017-12-11 11:02:53 GMT 53.88952 3.76411 38,000 208 414 0
2017-12-11 11:02:51 GMT 53.89256 3.76682 38,000 208 414 0
2017-12-11 11:02:49 GMT 53.89664 3.77035 38,000 208 414 0
2017-12-11 11:02:47 GMT 53.90007 3.77333 38,000 208 414 0
2017-12-11 11:02:45 GMT 53.90516 3.77784 38,000 208 414 0
2017-12-11 11:02:43 GMT 53.90852 3.78083 38,000 208 414 64
2017-12-11 11:02:40 GMT 53.91092 3.78291 38,000 208 414 64
2017-12-11 11:02:37 GMT 53.91701 3.78824 38,000 208 414 64
2017-12-11 11:02:34 GMT 53.92416 3.79456 38,000 208 413 0
2017-12-11 11:02:32 GMT 53.92786 3.79782 38,000 208 413 0
2017-12-11 11:02:29 GMT 53.93026 3.79990 38,000 208 413 64
2017-12-11 11:02:26 GMT 53.93463 3.80386 38,000 208 413 64
2017-12-11 11:02:24 GMT 53.93939 3.80802 38,000 208 413 64
2017-12-11 11:02:21 GMT 53.94415 3.81218 38,000 208 413 0
2017-12-11 11:02:19 GMT 53.94720 3.81484 38,000 208 413 0
2017-12-11 11:02:19 GMT 53.94720 3.81484 38,000 208 413 64
2017-12-11 11:02:17 GMT 53.95088 3.81814 38,000 208 413 0
2017-12-11 11:02:15 GMT 53.95465 3.82146 38,000 208 413 64
2017-12-11 11:02:13 GMT 53.95735 3.82389 38,000 208 413 64
2017-12-11 11:02:11 GMT 53.96005 3.82623 38,000 208 413 64
2017-12-11 11:02:09 GMT 53.96545 3.83100 38,000 208 413 0
2017-12-11 11:02:07 GMT 53.96680 3.83221 38,000 208 413 0
2017-12-11 11:02:05 GMT 53.97189 3.83674 38,000 208 413 0
2017-12-11 11:02:03 GMT 53.97360 3.83819 38,000 208 413 0
2017-12-11 11:02:01 GMT 53.97798 3.84208 38,000 208 413 0
2017-12-11 11:01:58 GMT 53.98407 3.84749 38,000 208 413 0
2017-12-11 11:01:52 GMT 53.99389 3.85612 38,000 208 413 0
2017-12-11 11:01:50 GMT 53.99693 3.85887 38,000 208 413 0
2017-12-11 11:01:47 GMT 54.00032 3.86185 38,000 208 413 0
2017-12-11 11:01:45 GMT 54.00539 3.86630 38,000 208 413 0
2017-12-11 11:01:43 GMT 54.00778 3.86844 38,000 208 413 0
2017-12-11 11:01:40 GMT 54.01219 3.87228 38,000 208 412 0
2017-12-11 11:01:38 GMT 54.01657 3.87621 38,000 208 412 0
2017-12-11 11:01:36 GMT 54.01996 3.87919 38,000 208 412 0
2017-12-11 11:01:34 GMT 54.02434 3.88310 38,000 208 412 0
2017-12-11 11:01:32 GMT 54.02737 3.88579 38,000 208 412 0
2017-12-11 11:01:30 GMT 54.02904 3.88722 38,000 208 412 0
2017-12-11 11:01:27 GMT 54.03514 3.89263 38,000 208 412 0
2017-12-11 11:01:25 GMT 54.03849 3.89562 38,000 208 412 0
2017-12-11 11:01:22 GMT 54.04459 3.90103 38,000 208 412 0
2017-12-11 11:01:19 GMT 54.05031 3.90611 38,000 208 412 0
2017-12-11 11:01:17 GMT 54.05269 3.90822 38,000 208 412 -64
2017-12-11 11:01:15 GMT 54.05571 3.91090 38,000 208 412 0
2017-12-11 11:01:13 GMT 54.05777 3.91270 38,000 208 412 -64
2017-12-11 11:01:10 GMT 54.06450 3.91867 38,000 208 412 0
2017-12-11 11:01:08 GMT 54.06689 3.92075 38,000 208 412 64
2017-12-11 11:01:06 GMT 54.06959 3.92309 38,000 208 412 64
2017-12-11 11:01:03 GMT 54.07599 3.92879 38,000 208 412 64
2017-12-11 11:01:00 GMT 54.08039 3.93262 38,000 208 411 0
2017-12-11 11:00:58 GMT 54.08309 3.93496 38,000 208 411 0
2017-12-11 11:00:56 GMT 54.08644 3.93795 38,000 208 411 0
2017-12-11 11:00:53 GMT 54.09454 3.94506 38,000 208 411 0
2017-12-11 11:00:51 GMT 54.09759 3.94778 38,000 208 411 0
2017-12-11 11:00:49 GMT 54.09929 3.94926 38,000 208 411 0
2017-12-11 11:00:47 GMT 54.10300 3.95249 38,000 208 411 0
2017-12-11 11:00:45 GMT 54.10638 3.95547 38,000 208 412 0
2017-12-11 11:00:42 GMT 54.11041 3.95908 38,000 208 412 64
2017-12-11 11:00:39 GMT 54.11581 3.96387 38,000 208 411 64
2017-12-11 11:00:37 GMT 54.11884 3.96647 38,000 208 411 0
2017-12-11 11:00:35 GMT 54.12224 3.96946 38,000 208 411 0
2017-12-11 11:00:32 GMT 54.12899 3.97544 38,000 208 411 0
2017-12-11 11:00:29 GMT 54.13234 3.97842 38,000 208 411 0
2017-12-11 11:00:27 GMT 54.13673 3.98223 38,000 208 412 0
2017-12-11 11:00:24 GMT 54.14076 3.98584 38,000 208 411 64
2017-12-11 11:00:22 GMT 54.14484 3.98945 38,000 208 411 64
2017-12-11 11:00:20 GMT 54.14854 3.99272 38,000 208 411 64
2017-12-11 11:00:16 GMT 54.15659 3.99991 38,000 208 411 64
2017-12-11 11:00:11 GMT 54.16301 4.00561 38,000 208 411 0
2017-12-11 11:00:09 GMT 54.16604 4.00831 38,000 208 412 0
2017-12-11 11:00:06 GMT 54.17144 4.01316 38,000 208 412 0
2017-12-11 11:00:01 GMT 54.18187 4.02249 38,000 208 412 0
2017-12-11 10:59:59 GMT 54.18355 4.02398 38,000 208 412 0
2017-12-11 10:59:57 GMT 54.18690 4.02705 38,000 208 412 0
2017-12-11 10:59:55 GMT 54.18993 4.02979 38,000 208 412 0
2017-12-11 10:59:53 GMT 54.19295 4.03255 38,000 208 412 0
2017-12-11 10:59:50 GMT 54.19867 4.03771 38,000 208 412 0
2017-12-11 10:59:48 GMT 54.20270 4.04132 38,000 208 412 0
2017-12-11 10:59:46 GMT 54.20471 4.04313 38,000 208 412 0
2017-12-11 10:59:44 GMT 54.20810 4.04619 38,000 208 412 -64
2017-12-11 10:59:42 GMT 54.21281 4.05042 38,000 208 412 0
2017-12-11 10:59:39 GMT 54.21753 4.05466 38,000 208 412 0
2017-12-11 10:59:37 GMT 54.22055 4.05735 38,000 208 412 0
2017-12-11 10:59:35 GMT 54.22526 4.06155 38,000 208 412 0
2017-12-11 10:59:30 GMT 54.23167 4.06730 38,000 208 412 0
2017-12-11 10:59:28 GMT 54.23502 4.07036 38,000 208 412 0
2017-12-11 10:59:25 GMT 54.24276 4.07738 38,000 208 412 0
2017-12-11 10:59:20 GMT 54.24985 4.08370 38,000 208 412 64
2017-12-11 10:59:18 GMT 54.25151 4.08522 38,000 208 412 64
2017-12-11 10:59:15 GMT 54.25859 4.09154 38,000 208 413 64
2017-12-11 10:59:13 GMT 54.26031 4.09305 38,000 208 413 64
2017-12-11 10:59:10 GMT 54.26636 4.09847 38,000 208 413 -64
2017-12-11 10:59:07 GMT 54.27246 4.10396 38,000 208 413 0
2017-12-11 10:59:05 GMT 54.27581 4.10695 38,000 208 412 0
2017-12-11 10:59:01 GMT 54.28088 4.11147 38,000 208 412 0
2017-12-11 10:58:59 GMT 54.28596 4.11604 38,000 208 412 0
2017-12-11 10:58:56 GMT 54.28899 4.11874 38,000 208 413 0
2017-12-11 10:58:54 GMT 54.29406 4.12329 38,000 208 413 0
2017-12-11 10:58:52 GMT 54.29676 4.12570 38,000 208 413 0
2017-12-11 10:58:50 GMT 54.30081 4.12928 38,000 208 413 0
2017-12-11 10:58:48 GMT 54.30351 4.13169 38,000 208 413 0
2017-12-11 10:58:46 GMT 54.30652 4.13450 38,000 208 413 0
2017-12-11 10:58:43 GMT 54.31059 4.13813 38,000 208 413 0
2017-12-11 10:58:41 GMT 54.31393 4.14112 38,000 208 413 0
2017-12-11 10:58:40 GMT 54.31631 4.14326 38,000 208 412 0
2017-12-11 10:58:38 GMT 54.32036 4.14684 38,000 208 412 0
2017-12-11 10:58:34 GMT 54.32680 4.15259 38,000 208 412 0
2017-12-11 10:58:30 GMT 54.33526 4.16016 38,000 208 413 64
2017-12-11 10:58:27 GMT 54.33760 4.16228 38,000 208 413 64
2017-12-11 10:58:24 GMT 54.34570 4.16955 38,000 208 413 64
2017-12-11 10:58:21 GMT 54.35011 4.17347 38,000 208 413 0
2017-12-11 10:58:17 GMT 54.35481 4.17772 38,000 208 413 -64
2017-12-11 10:58:13 GMT 54.36259 4.18466 38,000 208 413 -64
2017-12-11 10:58:11 GMT 54.36561 4.18746 38,000 208 413 0
2017-12-11 10:58:09 GMT 54.37101 4.19228 38,000 208 413 0
2017-12-11 10:58:07 GMT 54.37236 4.19345 38,000 208 413 0
2017-12-11 10:58:03 GMT 54.37811 4.19864 38,000 208 413 0
2017-12-11 10:58:01 GMT 54.38181 4.20202 38,000 208 413 0
2017-12-11 10:57:56 GMT 54.39093 4.21019 38,000 208 412 0
2017-12-11 10:57:56 GMT 54.38926 4.20868 38,000 208 412 0
2017-12-11 10:57:54 GMT 54.39432 4.21318 38,000 208 412 0
2017-12-11 10:57:52 GMT 54.39835 4.21681 38,000 208 412 0
2017-12-11 10:57:50 GMT 54.40071 4.21900 38,000 208 412 0
2017-12-11 10:57:46 GMT 54.40746 4.22508 38,000 208 412 0
2017-12-11 10:57:43 GMT 54.41249 4.22957 38,000 208 412 0
2017-12-11 10:57:41 GMT 54.41652 4.23329 38,000 208 412 0
2017-12-11 10:57:36 GMT 54.42362 4.23964 38,000 208 412 0
2017-12-11 10:57:33 GMT 54.43167 4.24697 38,000 208 411 64
2017-12-11 10:57:29 GMT 54.43739 4.25219 38,000 208 411 0
2017-12-11 10:57:27 GMT 54.44073 4.25518 38,000 208 411 0
2017-12-11 10:57:25 GMT 54.44206 4.25639 38,000 208 411 0
2017-12-11 10:57:23 GMT 54.44746 4.26124 38,000 208 411 0
2017-12-11 10:57:20 GMT 54.45081 4.26431 38,000 208 411 0
2017-12-11 10:57:17 GMT 54.45621 4.26916 38,000 208 410 0
2017-12-11 10:57:15 GMT 54.45886 4.27150 38,000 208 411 0
2017-12-11 10:57:11 GMT 54.46658 4.27851 38,000 208 410 0
2017-12-11 10:57:11 GMT 54.46658 4.27851 38,000 208 411 0
2017-12-11 10:57:09 GMT 54.46962 4.28127 38,000 208 410 64
2017-12-11 10:57:07 GMT 54.47329 4.28458 38,000 208 410 64
2017-12-11 10:57:02 GMT 54.48269 4.29316 38,000 208 410 0
2017-12-11 10:57:00 GMT 54.48534 4.29557 38,000 208 410 0
2017-12-11 10:56:58 GMT 54.48770 4.29767 38,000 208 410 0
2017-12-11 10:56:56 GMT 54.49104 4.30074 38,000 208 410 0
2017-12-11 10:56:54 GMT 54.49439 4.30381 38,000 208 410 0
2017-12-11 10:56:50 GMT 54.50075 4.30955 38,000 208 410 0
2017-12-11 10:56:47 GMT 54.50811 4.31621 38,000 208 410 0
2017-12-11 10:56:44 GMT 54.51211 4.31987 38,000 208 409 0
2017-12-11 10:56:41 GMT 54.51812 4.32528 38,000 208 409 64
2017-12-11 10:56:38 GMT 54.52249 4.32926 38,000 208 409 0
2017-12-11 10:56:35 GMT 54.52747 4.33377 38,000 208 409 0
2017-12-11 10:56:33 GMT 54.53050 4.33653 38,000 208 409 64
2017-12-11 10:56:31 GMT 54.53348 4.33927 38,000 209 408 64
2017-12-11 10:56:29 GMT 54.53683 4.34235 38,000 209 408 64
2017-12-11 10:56:26 GMT 54.54214 4.34717 38,000 209 408 0
2017-12-11 10:56:26 GMT 54.54214 4.34717 38,000 209 408 0
2017-12-11 10:56:23 GMT 54.54648 4.35115 38,000 209 408 0
2017-12-11 10:56:20 GMT 54.55316 4.35721 38,000 208 408 0
2017-12-11 10:56:18 GMT 54.55550 4.35933 38,000 217 406 0
2017-12-11 10:56:16 GMT 54.55847 4.36206 38,000 209 408 0
2017-12-11 10:56:12 GMT 54.56411 4.36731 38,000 210 407 -64
2017-12-11 10:56:08 GMT 54.57189 4.37522 38,000 217 406 0
2017-12-11 10:56:06 GMT 54.57500 4.37888 38,000 216 406 0
2017-12-11 10:56:02 GMT 54.58101 4.38654 38,000 219 406 64
2017-12-11 10:55:59 GMT 54.58415 4.39106 38,000 223 405 0
2017-12-11 10:55:57 GMT 54.58725 4.39578 38,000 223 405 0
2017-12-11 10:55:56 GMT 54.59024 4.40059 38,000 227 405 0
2017-12-11 10:55:55 GMT 54.59079 4.40148 38,000 225 405 0
2017-12-11 10:55:52 GMT 54.59390 4.40705 38,000 228 404 0
2017-12-11 10:55:47 GMT 54.60072 4.42062 38,000 241 404 64
2017-12-11 10:55:45 GMT 54.60233 4.42424 38,000 234 404 -64
2017-12-11 10:55:42 GMT 54.60603 4.43314 38,025 235 405 -64
2017-12-11 10:55:40 GMT 54.60862 4.44014 38,025 242 404 64
2017-12-11 10:55:38 GMT 54.61159 4.44913 38,000 245 405 64
2017-12-11 10:55:35 GMT 54.61249 4.45197 38,000 244 405 64
2017-12-11 10:55:33 GMT 54.61332 4.45479 38,000 244 405 64
2017-12-11 10:55:30 GMT 54.61718 4.46877 38,000 246 405 0
2017-12-11 10:55:27 GMT 54.62013 4.47992 38,000 246 404 0
2017-12-11 10:55:25 GMT 54.62077 4.48226 38,000 246 404 0
2017-12-11 10:55:21 GMT 54.62374 4.49341 38,000 246 405 0
2017-12-11 10:55:17 GMT 54.62654 4.50390 38,000 246 404 0
2017-12-11 10:55:17 GMT 54.62654 4.50390 38,000 246 404 0
2017-12-11 10:55:15 GMT 54.62888 4.51263 38,000 246 404 0
2017-12-11 10:55:13 GMT 54.63048 4.51853 38,000 246 404 0
2017-12-11 10:55:10 GMT 54.63267 4.52669 38,000 246 404 64
2017-12-11 10:55:04 GMT 54.63692 4.54243 38,000 246 403 0
2017-12-11 10:55:02 GMT 54.63895 4.54995 38,000 246 403 0
2017-12-11 10:54:59 GMT 54.64114 4.55811 38,000 246 403 0
2017-12-11 10:54:59 GMT 54.64082 4.55698 38,000 246 403 0
2017-12-11 10:54:56 GMT 54.64366 4.56748 38,000 246 403 0
2017-12-11 10:54:52 GMT 54.64660 4.57855 38,000 246 403 0
2017-12-11 10:54:49 GMT 54.64879 4.58663 38,000 246 402 0
2017-12-11 10:54:46 GMT 54.65098 4.59478 38,000 246 402 64
2017-12-11 10:54:43 GMT 54.65332 4.60351 38,000 246 401 64
2017-12-11 10:54:38 GMT 54.65717 4.61800 38,000 246 401 64
2017-12-11 10:54:34 GMT 54.66042 4.63017 38,000 246 400 0
2017-12-11 10:54:31 GMT 54.66257 4.63833 38,000 246 400 0
2017-12-11 10:54:29 GMT 54.66490 4.64697 38,000 246 400 0
2017-12-11 10:54:29 GMT 54.66490 4.64697 38,000 246 400 0
2017-12-11 10:54:25 GMT 54.66751 4.65683 38,000 246 400 0
2017-12-11 10:54:21 GMT 54.66998 4.66612 38,000 246 400 64
2017-12-11 10:54:18 GMT 54.67262 4.67593 38,000 246 400 64
2017-12-11 10:54:11 GMT 54.67767 4.69512 38,000 246 400 0
2017-12-11 10:54:09 GMT 54.68015 4.70433 38,000 246 400 0
2017-12-11 10:54:07 GMT 54.68091 4.70723 38,000 246 400 0
2017-12-11 10:54:02 GMT 54.68477 4.72170 38,000 246 400 0
2017-12-11 10:53:58 GMT 54.68864 4.73619 38,000 246 400 0
2017-12-11 10:53:56 GMT 54.68939 4.73915 38,000 246 400 0
2017-12-11 10:53:51 GMT 54.69418 4.75708 38,000 246 400 0
2017-12-11 10:53:46 GMT 54.69692 4.76757 38,000 246 400 -64
2017-12-11 10:53:41 GMT 54.70181 4.78613 38,000 246 400 64
2017-12-11 10:53:41 GMT 54.70181 4.78613 38,000 246 400 0
2017-12-11 10:53:38 GMT 54.70381 4.79359 38,000 246 400 64
2017-12-11 10:53:36 GMT 54.70461 4.79653 38,000 246 400 64
2017-12-11 10:53:33 GMT 54.70720 4.80636 38,000 246 399 0
2017-12-11 10:53:30 GMT 54.70949 4.81509 38,000 246 400 0
2017-12-11 10:53:28 GMT 54.71118 4.82146 38,000 246 400 64
2017-12-11 10:53:26 GMT 54.71257 4.82666 38,000 246 400 64
2017-12-11 10:53:22 GMT 54.71592 4.83948 38,000 246 399 64
2017-12-11 10:53:16 GMT 54.72034 4.85628 38,000 246 400 -64
2017-12-11 10:53:12 GMT 54.72308 4.86670 38,000 246 399 0
2017-12-11 10:53:10 GMT 54.72476 4.87310 38,000 246 400 0
2017-12-11 10:53:09 GMT 54.72569 4.87660 38,000 246 400 128
2017-12-11 10:53:08 GMT 54.72615 4.87833 38,000 246 400 128
2017-12-11 10:53:04 GMT 54.72922 4.88997 38,000 246 399 0
2017-12-11 10:53:02 GMT 54.73105 4.89691 38,000 246 399 0
2017-12-11 10:52:58 GMT 54.73365 4.90673 38,000 246 399 0
2017-12-11 10:52:56 GMT 54.73595 4.91541 38,000 246 399 -64
2017-12-11 10:52:50 GMT 54.73980 4.92987 38,000 246 399 64
2017-12-11 10:52:46 GMT 54.74332 4.94320 38,000 246 399 64
2017-12-11 10:52:44 GMT 54.74441 4.94726 38,000 246 399 64
2017-12-11 10:52:39 GMT 54.74826 4.96170 38,000 246 399 0
2017-12-11 10:52:34 GMT 54.75224 4.97681 38,000 246 398 0
2017-12-11 10:52:31 GMT 54.75483 4.98663 38,000 246 398 0
2017-12-11 10:52:28 GMT 54.75682 4.99418 38,000 246 398 0
2017-12-11 10:52:26 GMT 54.75861 5.00112 38,000 246 398 0
2017-12-11 10:52:24 GMT 54.76044 5.00807 38,000 246 398 0
2017-12-11 10:52:23 GMT 54.76167 5.01276 38,000 246 398 0
2017-12-11 10:52:20 GMT 54.76291 5.01736 38,000 246 398 0
2017-12-11 10:52:17 GMT 54.76534 5.02665 38,000 246 398 0
2017-12-11 10:52:14 GMT 54.76764 5.03532 38,000 246 398 -64
2017-12-11 10:52:09 GMT 54.77248 5.05388 38,000 246 398 64
2017-12-11 10:52:06 GMT 54.77353 5.05791 38,000 246 398 64
2017-12-11 10:52:04 GMT 54.77628 5.06841 38,000 246 399 64
2017-12-11 10:52:01 GMT 54.77797 5.07477 38,000 246 399 64
2017-12-11 10:51:57 GMT 54.78113 5.08699 38,000 246 399 0
2017-12-11 10:51:53 GMT 54.78370 5.09682 38,000 246 399 0
2017-12-11 10:51:51 GMT 54.78584 5.10498 38,000 246 399 0
2017-12-11 10:51:48 GMT 54.78705 5.10964 38,000 246 400 0
2017-12-11 10:51:46 GMT 54.78914 5.11780 38,000 246 400 0
2017-12-11 10:51:42 GMT 54.79217 5.12945 38,000 246 400 0
2017-12-11 10:51:39 GMT 54.79371 5.13528 38,000 246 400 -64
2017-12-11 10:51:37 GMT 54.79596 5.14403 38,000 246 400 -64
2017-12-11 10:51:33 GMT 54.79926 5.15679 38,000 246 400 0
2017-12-11 10:51:33 GMT 54.79926 5.15679 38,000 246 400 -64
2017-12-11 10:51:31 GMT 54.80077 5.16269 38,000 246 400 0
2017-12-11 10:51:29 GMT 54.80228 5.16850 38,000 246 399 -128
2017-12-11 10:51:29 GMT 54.80260 5.16963 38,000 246 399 64
2017-12-11 10:51:26 GMT 54.80455 5.17722 38,000 246 399 64
2017-12-11 10:51:21 GMT 54.80772 5.18942 38,000 246 399 0
2017-12-11 10:51:19 GMT 54.80983 5.19758 38,000 246 399 -128
2017-12-11 10:51:15 GMT 54.81285 5.20913 38,000 246 398 -128
2017-12-11 10:51:09 GMT 54.81666 5.22367 38,025 246 398 0
2017-12-11 10:51:06 GMT 54.81921 5.23353 38,000 246 397 64
2017-12-11 10:51:01 GMT 54.82299 5.24805 38,000 246 397 64
2017-12-11 10:50:58 GMT 54.82476 5.25496 38,000 246 397 0
2017-12-11 10:50:55 GMT 54.82834 5.26894 38,000 247 397 0
2017-12-11 10:50:52 GMT 54.82983 5.27469 38,000 247 396 0
2017-12-11 10:50:50 GMT 54.83116 5.27998 38,000 247 396 64
2017-12-11 10:50:47 GMT 54.83354 5.28927 38,000 247 396 64
2017-12-11 10:50:45 GMT 54.83458 5.29333 38,000 247 396 64
2017-12-11 10:50:45 GMT 54.83458 5.29333 38,000 247 397 0
2017-12-11 10:50:39 GMT 54.83961 5.31306 38,000 246 396 0
2017-12-11 10:50:37 GMT 54.84110 5.31880 38,000 246 396 64
2017-12-11 10:50:34 GMT 54.84306 5.32635 38,000 246 397 0
2017-12-11 10:50:31 GMT 54.84544 5.33564 38,000 246 397 0
2017-12-11 10:50:29 GMT 54.84695 5.34138 38,000 246 396 0
2017-12-11 10:50:26 GMT 54.84934 5.35067 38,000 246 396 0
2017-12-11 10:50:25 GMT 54.85052 5.35527 38,000 246 396 0
2017-12-11 10:50:23 GMT 54.85157 5.35933 38,000 246 396 0
2017-12-11 10:50:21 GMT 54.85295 5.36448 38,000 246 396 0
2017-12-11 10:50:19 GMT 54.85399 5.36857 38,000 246 396 0
2017-12-11 10:50:16 GMT 54.85669 5.37897 38,000 246 395 0
2017-12-11 10:50:14 GMT 54.85818 5.38472 38,000 246 396 0
2017-12-11 10:50:10 GMT 54.86116 5.39628 38,000 246 396 0
2017-12-11 10:50:07 GMT 54.86419 5.40785 38,000 246 396 0
2017-12-11 10:50:04 GMT 54.86522 5.41190 38,000 246 396 0
2017-12-11 10:49:59 GMT 54.86926 5.42750 38,000 246 396 0
2017-12-11 10:49:57 GMT 54.87080 5.43324 38,000 246 396 0
2017-12-11 10:49:53 GMT 54.87350 5.44364 38,000 246 396 64
2017-12-11 10:49:50 GMT 54.87607 5.45342 38,000 246 396 0
2017-12-11 10:49:46 GMT 54.87904 5.46497 38,000 246 395 0
2017-12-11 10:49:43 GMT 54.88147 5.47418 38,000 246 395 0
2017-12-11 10:49:40 GMT 54.88374 5.48284 38,000 246 395 0
2017-12-11 10:49:37 GMT 54.88555 5.48975 38,000 246 395 0
2017-12-11 10:49:31 GMT 54.88994 5.50649 38,000 246 395 64
2017-12-11 10:49:28 GMT 54.89296 5.51796 38,000 246 394 64
2017-12-11 10:49:23 GMT 54.89625 5.53065 38,000 246 395 0
2017-12-11 10:49:20 GMT 54.89905 5.54160 38,000 246 395 0
2017-12-11 10:49:17 GMT 54.90115 5.54976 38,000 246 395 0
2017-12-11 10:49:13 GMT 54.90352 5.55900 38,000 247 394 0
2017-12-11 10:49:08 GMT 54.90720 5.57338 38,000 247 394 0
2017-12-11 10:49:06 GMT 54.90971 5.58322 38,000 247 394 -64
2017-12-11 10:49:06 GMT 54.90944 5.58205 38,000 247 394 0
2017-12-11 10:49:01 GMT 54.91223 5.59309 38,000 247 394 -64
2017-12-11 10:48:57 GMT 54.91576 5.60691 38,000 247 394 0
2017-12-11 10:48:51 GMT 54.92089 5.62716 38,000 247 394 64
2017-12-11 10:48:49 GMT 54.92145 5.62941 38,000 247 394 64
2017-12-11 10:48:44 GMT 54.92601 5.64738 38,000 247 394 64
2017-12-11 10:48:41 GMT 54.92715 5.65198 38,000 247 394 64
2017-12-11 10:48:39 GMT 54.92964 5.66179 38,000 247 394 64
2017-12-11 10:48:35 GMT 54.93123 5.66814 38,000 247 394 0
2017-12-11 10:48:31 GMT 54.93462 5.68143 38,000 247 394 64
2017-12-11 10:48:28 GMT 54.93667 5.68950 38,000 247 394 0
2017-12-11 10:48:24 GMT 54.93955 5.70107 38,000 247 394 64
2017-12-11 10:48:21 GMT 54.94235 5.71208 38,000 247 393 64
2017-12-11 10:48:19 GMT 54.94337 5.71614 38,000 247 393 64
2017-12-11 10:48:17 GMT 54.94514 5.72304 38,000 247 394 64
2017-12-11 10:48:13 GMT 54.94734 5.73171 38,000 247 394 128
2017-12-11 10:48:08 GMT 54.95217 5.75076 37,975 247 394 256
2017-12-11 10:48:05 GMT 54.95375 5.75716 37,975 247 394 256
2017-12-11 10:48:00 GMT 54.95815 5.77453 37,950 247 394 320
2017-12-11 10:47:57 GMT 54.95976 5.78089 37,950 247 394 320
2017-12-11 10:47:55 GMT 54.96120 5.78663 37,925 247 393 384
2017-12-11 10:47:54 GMT 54.96120 5.78663 37,925 247 393 384
2017-12-11 10:47:47 GMT 54.96669 5.80860 37,875 247 392 448
2017-12-11 10:47:45 GMT 54.96803 5.81379 37,875 247 391 384
2017-12-11 10:47:44 GMT 54.96874 5.81668 37,850 247 392 384
2017-12-11 10:47:41 GMT 54.97064 5.82421 37,850 247 391 320
2017-12-11 10:47:38 GMT 54.97353 5.83568 37,825 247 391 320
2017-12-11 10:47:36 GMT 54.97456 5.83973 37,825 247 391 320
2017-12-11 10:47:34 GMT 54.97700 5.84949 37,800 247 389 448
2017-12-11 10:47:27 GMT 54.98199 5.86896 37,750 247 389 448
2017-12-11 10:47:24 GMT 54.98373 5.87575 37,750 247 389 448
2017-12-11 10:47:18 GMT 54.98749 5.89061 37,700 247 387 512
2017-12-11 10:47:16 GMT 54.98904 5.89691 37,675 247 387 448
2017-12-11 10:47:14 GMT 54.99048 5.90257 37,675 247 387 512
2017-12-11 10:47:08 GMT 54.99453 5.91855 37,625 247 387 384
2017-12-11 10:47:06 GMT 54.99696 5.92826 37,625 247 386 320
2017-12-11 10:47:02 GMT 54.99937 5.93786 37,600 247 385 448
2017-12-11 10:46:55 GMT 55.00438 5.95774 37,550 247 383 384
2017-12-11 10:46:53 GMT 55.00566 5.96283 37,550 247 383 384
2017-12-11 10:46:50 GMT 55.00749 5.97018 37,525 247 383 384
2017-12-11 10:46:44 GMT 55.01157 5.98647 37,475 247 382 576
2017-12-11 10:46:41 GMT 55.01399 5.99611 37,450 247 382 576
2017-12-11 10:46:34 GMT 55.01990 6.01970 37,375 247 381 512
2017-12-11 10:46:26 GMT 55.02428 6.03715 37,325 247 380 576
2017-12-11 10:46:23 GMT 55.02679 6.04723 37,275 247 379 512
2017-12-11 10:46:17 GMT 55.03084 6.06340 37,225 247 378 512
2017-12-11 10:46:10 GMT 55.03578 6.08293 37,175 247 378 512
2017-12-11 10:46:08 GMT 55.03801 6.09184 37,125 247 376 576
2017-12-11 10:46:05 GMT 55.03981 6.09911 37,125 247 377 512
2017-12-11 10:46:02 GMT 55.04178 6.10686 37,100 247 376 576
2017-12-11 10:46:00 GMT 55.04276 6.11073 37,075 247 376 576
2017-12-11 10:45:57 GMT 55.04485 6.11906 37,050 247 376 512
2017-12-11 10:45:54 GMT 55.04723 6.12854 37,025 247 375 576
2017-12-11 10:45:52 GMT 55.04858 6.13403 37,000 247 375 512
2017-12-11 10:45:48 GMT 55.05137 6.14510 36,975 247 374 576
2017-12-11 10:45:43 GMT 55.05423 6.15671 36,925 247 373 576
2017-12-11 10:45:41 GMT 55.05670 6.16664 36,900 247 374 576
2017-12-11 10:45:36 GMT 55.05933 6.17715 36,850 247 373 832
2017-12-11 10:45:27 GMT 55.06627 6.20526 36,725 247 372 832
2017-12-11 10:45:24 GMT 55.06776 6.21127 36,700 247 372 704
2017-12-11 10:45:21 GMT 55.06979 6.21955 36,650 247 372 896
2017-12-11 10:45:17 GMT 55.07241 6.23000 36,600 247 372 960
2017-12-11 10:45:12 GMT 55.07544 6.24207 36,525 247 372 960
2017-12-11 10:45:10 GMT 55.07707 6.24864 36,475 247 371 640
2017-12-11 10:45:07 GMT 55.07954 6.25846 36,425 247 372 960
2017-12-11 10:45:02 GMT 55.08298 6.27222 36,350 247 371 576
2017-12-11 10:45:00 GMT 55.08447 6.27819 36,325 247 370 896
2017-12-11 10:45:00 GMT 55.08375 6.27546 36,350 247 370 768
2017-12-11 10:44:56 GMT 55.08717 6.28917 36,275 247 370 832
2017-12-11 10:44:53 GMT 55.08964 6.29899 36,225 247 370 640
2017-12-11 10:44:49 GMT 55.09140 6.30615 36,200 247 370 704
2017-12-11 10:44:45 GMT 55.09438 6.31811 36,150 247 369 832
2017-12-11 10:44:42 GMT 55.09644 6.32629 36,100 247 368 768
2017-12-11 10:44:39 GMT 55.09802 6.33287 36,075 247 369 896
2017-12-11 10:44:36 GMT 55.10044 6.34269 36,025 247 369 768
2017-12-11 10:44:30 GMT 55.10449 6.35909 35,950 247 368 768
2017-12-11 10:44:26 GMT 55.10719 6.36991 35,875 247 368 832
2017-12-11 10:44:19 GMT 55.11131 6.38677 35,800 247 367 768
2017-12-11 10:44:16 GMT 55.11413 6.39820 35,750 247 366 704
2017-12-11 10:44:16 GMT 55.11357 6.39604 35,750 247 366 768
2017-12-11 10:44:14 GMT 55.11479 6.40091 35,725 247 366 704
2017-12-11 10:44:12 GMT 55.11678 6.40902 35,700 247 365 704
2017-12-11 10:44:08 GMT 55.11864 6.41660 35,675 247 365 704
2017-12-11 10:44:06 GMT 55.11983 6.42151 35,650 247 365 704
2017-12-11 10:44:04 GMT 55.12153 6.42850 35,625 247 365 640
2017-12-11 10:43:59 GMT 55.12459 6.44090 35,575 247 363 448
2017-12-11 10:43:56 GMT 55.12679 6.45006 35,550 247 363 448
2017-12-11 10:43:54 GMT 55.12825 6.45600 35,525 247 362 448
2017-12-11 10:43:45 GMT 55.13396 6.47894 35,450 247 360 512
2017-12-11 10:43:37 GMT 55.14015 6.50391 35,375 247 357 576
2017-12-11 10:43:34 GMT 55.14116 6.50811 35,350 247 357 640
2017-12-11 10:43:28 GMT 55.14532 6.52507 35,275 247 356 576
2017-12-11 10:43:22 GMT 55.14909 6.54036 35,225 247 355 576
2017-12-11 10:43:16 GMT 55.15306 6.55658 35,175 247 353 256
2017-12-11 10:43:12 GMT 55.15535 6.56603 35,175 247 352 576
2017-12-11 10:43:10 GMT 55.15677 6.57174 35,150 247 351 832
2017-12-11 10:43:08 GMT 55.15865 6.57960 35,100 247 351 832
2017-12-11 10:43:04 GMT 55.16043 6.58687 35,075 247 350 832
2017-12-11 10:42:59 GMT 55.16400 6.60141 34,975 247 349 1088
2017-12-11 10:42:55 GMT 55.16675 6.61280 34,900 247 349 768
2017-12-11 10:42:50 GMT 55.17032 6.62734 34,875 247 348 576
2017-12-11 10:42:46 GMT 55.17171 6.63300 34,850 247 348 704
2017-12-11 10:42:44 GMT 55.17395 6.64232 34,800 247 347 960
2017-12-11 10:42:42 GMT 55.17520 6.64748 34,775 247 346 832
2017-12-11 10:42:39 GMT 55.17609 6.65101 34,750 247 346 832
2017-12-11 10:42:36 GMT 55.17846 6.66079 34,700 248 346 832
2017-12-11 10:42:33 GMT 55.18034 6.66854 34,650 247 345 896
2017-12-11 10:42:29 GMT 55.18223 6.67619 34,600 247 345 832
2017-12-11 10:42:26 GMT 55.18460 6.68591 34,550 247 344 832
2017-12-11 10:42:23 GMT 55.18607 6.69205 34,525 247 344 832
2017-12-11 10:42:20 GMT 55.18796 6.69975 34,475 248 343 832
2017-12-11 10:42:16 GMT 55.19145 6.71398 34,400 248 341 960
2017-12-11 10:42:13 GMT 55.19302 6.72064 34,350 248 341 960
2017-12-11 10:42:11 GMT 55.19453 6.72678 34,325 248 341 960
2017-12-11 10:42:05 GMT 55.19723 6.73793 34,250 248 341 960
2017-12-11 10:42:03 GMT 55.19904 6.74552 34,200 248 341 1024
2017-12-11 10:41:53 GMT 55.20518 6.77091 34,050 248 341 896
2017-12-11 10:41:51 GMT 55.20602 6.77444 34,025 248 339 960
2017-12-11 10:41:45 GMT 55.20969 6.78963 33,925 248 339 1024
2017-12-11 10:41:38 GMT 55.21444 6.80928 33,775 248 338 1280
2017-12-11 10:41:34 GMT 55.21724 6.82089 33,700 248 338 1280
2017-12-11 10:41:30 GMT 55.21952 6.83042 33,675 248 338 1280
2017-12-11 10:41:26 GMT 55.22147 6.83849 33,550 248 338 1280
2017-12-11 10:41:24 GMT 55.22222 6.84149 33,525 248 338 1280
2017-12-11 10:41:22 GMT 55.22366 6.84756 33,475 248 337 1280
2017-12-11 10:41:13 GMT 55.22902 6.86962 33,275 248 338 1280
2017-12-11 10:41:07 GMT 55.23265 6.88477 33,150 248 338 1216
2017-12-11 10:41:04 GMT 55.23460 6.89276 33,100 248 337 704
2017-12-11 10:41:01 GMT 55.23642 6.90030 33,075 247 336 192
2017-12-11 10:40:54 GMT 55.24065 6.91781 33,050 248 333 0
2017-12-11 10:40:51 GMT 55.24233 6.92472 33,050 248 332 320
2017-12-11 10:40:44 GMT 55.24685 6.94353 33,000 248 330 192
2017-12-11 10:40:40 GMT 55.24894 6.95235 33,000 248 329 -64
2017-12-11 10:40:36 GMT 55.25178 6.96408 33,000 248 329 0
2017-12-11 10:40:33 GMT 55.25281 6.96856 33,000 248 329 0
2017-12-11 10:40:30 GMT 55.25468 6.97640 33,000 248 329 0
2017-12-11 10:40:22 GMT 55.25928 6.99546 33,000 248 329 0
2017-12-11 10:40:20 GMT 55.26072 7.00137 33,000 248 329 0
2017-12-11 10:40:17 GMT 55.26235 7.00828 33,000 248 329 0
2017-12-11 10:40:11 GMT 55.26627 7.02446 33,000 248 330 64
2017-12-11 10:40:08 GMT 55.26803 7.03183 33,000 248 330 0
2017-12-11 10:40:01 GMT 55.27263 7.05112 33,000 248 330 -64
2017-12-11 10:40:01 GMT 55.27240 7.05007 33,000 248 330 -64
2017-12-11 10:39:56 GMT 55.27496 7.06098 33,000 248 330 -64
2017-12-11 10:39:52 GMT 55.27701 7.06937 33,000 248 331 0
2017-12-11 10:39:50 GMT 55.27853 7.07576 33,000 248 331 0
2017-12-11 10:39:47 GMT 55.28087 7.08562 33,000 248 331 0
2017-12-11 10:39:44 GMT 55.28195 7.09009 33,000 248 331 0
2017-12-11 10:39:40 GMT 55.28455 7.10100 33,000 248 331 0
2017-12-11 10:39:39 GMT 55.28479 7.10199 33,000 248 331 0
2017-12-11 10:39:37 GMT 55.28618 7.10790 33,000 248 331 0
2017-12-11 10:39:33 GMT 55.28832 7.11681 33,000 248 330 0
2017-12-11 10:39:30 GMT 55.29012 7.12423 33,000 248 331 0
2017-12-11 10:39:28 GMT 55.29153 7.13013 33,000 248 331 0
2017-12-11 10:39:26 GMT 55.29233 7.13354 33,000 248 330 0
2017-12-11 10:39:24 GMT 55.29400 7.14053 33,000 248 331 -64
2017-12-11 10:39:22 GMT 55.29517 7.14544 33,000 248 331 -64
2017-12-11 10:39:18 GMT 55.29817 7.15775 33,000 248 331 -64
2017-12-11 10:39:17 GMT 55.29817 7.15775 33,000 248 331 -64
2017-12-11 10:39:15 GMT 55.29932 7.16268 33,000 248 331 -64
2017-12-11 10:39:11 GMT 55.30159 7.17208 33,000 248 330 0
2017-12-11 10:39:09 GMT 55.30266 7.17650 33,000 248 331 64
2017-12-11 10:39:07 GMT 55.30431 7.18344 33,000 248 331 64
2017-12-11 10:39:02 GMT 55.30727 7.19580 33,000 248 332 64
2017-12-11 10:38:59 GMT 55.30867 7.20179 33,000 248 334 0
2017-12-11 10:38:55 GMT 55.31067 7.21026 33,000 248 334 0
2017-12-11 10:38:50 GMT 55.31365 7.22276 33,000 248 335 0
2017-12-11 10:38:48 GMT 55.31532 7.22984 33,000 248 335 -64
2017-12-11 10:38:46 GMT 55.31654 7.23483 33,000 248 334 512
2017-12-11 10:38:46 GMT 55.31654 7.23483 33,000 248 335 -64
2017-12-11 10:38:43 GMT 55.31868 7.24390 33,000 248 335 -64
2017-12-11 10:38:41 GMT 55.31927 7.24637 33,000 248 335 192
2017-12-11 10:38:38 GMT 55.32128 7.25489 33,000 248 334 512
2017-12-11 10:38:31 GMT 55.32557 7.27287 32,900 248 333 832
2017-12-11 10:38:28 GMT 55.32687 7.27836 32,875 248 333 832
2017-12-11 10:38:24 GMT 55.32921 7.28838 32,825 248 333 832
2017-12-11 10:38:21 GMT 55.33136 7.29734 32,775 248 333 832
2017-12-11 10:38:18 GMT 55.33311 7.30483 32,725 248 333 832
2017-12-11 10:38:13 GMT 55.33608 7.31730 32,650 248 334 832
2017-12-11 10:38:10 GMT 55.33762 7.32380 32,625 248 334 768
2017-12-11 10:38:07 GMT 55.33914 7.33030 32,575 248 334 768
2017-12-11 10:38:06 GMT 55.34018 7.33479 32,550 248 334 768
2017-12-11 10:38:02 GMT 55.34267 7.34533 32,500 248 334 768
2017-12-11 10:37:58 GMT 55.34493 7.35485 32,450 248 336 768
2017-12-11 10:37:53 GMT 55.34766 7.36641 32,400 248 337 768
2017-12-11 10:37:51 GMT 55.34885 7.37150 32,375 248 340 832
2017-12-11 10:37:48 GMT 55.35049 7.37861 32,325 248 338 768
2017-12-11 10:37:46 GMT 55.35196 7.38467 32,300 248 341 832
2017-12-11 10:37:41 GMT 55.35494 7.39746 32,225 248 343 832
2017-12-11 10:37:38 GMT 55.35649 7.40414 32,200 248 344 704
2017-12-11 10:37:29 GMT 55.36220 7.42842 32,075 248 347 704
2017-12-11 10:37:25 GMT 55.36450 7.43831 32,025 248 348 768
2017-12-11 10:37:22 GMT 55.36720 7.44978 31,975 248 349 1152
2017-12-11 10:37:19 GMT 55.36835 7.45447 31,950 248 350 1408
2017-12-11 10:37:16 GMT 55.37018 7.46238 31,875 248 350 1856
2017-12-11 10:37:14 GMT 55.37105 7.46604 31,825 248 350 1856
2017-12-11 10:37:08 GMT 55.37472 7.48177 31,650 248 351 1920
2017-12-11 10:37:06 GMT 55.37659 7.48969 31,550 248 352 1984
2017-12-11 10:37:03 GMT 55.37833 7.49712 31,450 248 352 1984
2017-12-11 10:36:58 GMT 55.38130 7.50980 31,275 248 353 1920
2017-12-11 10:36:56 GMT 55.38277 7.51618 31,200 248 354 1920
2017-12-11 10:36:49 GMT 55.38725 7.53533 30,975 248 355 1984
2017-12-11 10:36:40 GMT 55.39260 7.55826 30,825 248 356 2112
2017-12-11 10:36:38 GMT 55.39348 7.56199 30,625 248 357 2112
2017-12-11 10:36:32 GMT 55.39751 7.57919 30,400 248 358 2112
2017-12-11 10:36:29 GMT 55.39897 7.58566 30,300 248 361 2176
2017-12-11 10:36:26 GMT 55.40140 7.59596 30,175 248 361 2176
2017-12-11 10:36:24 GMT 55.40238 7.60029 30,100 248 361 2176
2017-12-11 10:36:17 GMT 55.40657 7.61821 29,875 248 365 1600
2017-12-11 10:36:14 GMT 55.40922 7.62967 29,700 248 364 2048
2017-12-11 10:36:07 GMT 55.41367 7.64875 29,475 248 365 1600
2017-12-11 10:36:02 GMT 55.41611 7.65922 29,375 248 365 1536
2017-12-11 10:35:56 GMT 55.42067 7.67886 29,200 248 364 1536
2017-12-11 10:35:54 GMT 55.42131 7.68162 29,150 248 364 1536
2017-12-11 10:35:46 GMT 55.42649 7.70408 28,950 248 363 1600
2017-12-11 10:35:44 GMT 55.42767 7.70901 28,900 248 363 1600
2017-12-11 10:35:42 GMT 55.42928 7.71606 28,825 248 363 1600
2017-12-11 10:35:37 GMT 55.43236 7.72922 28,700 248 363 1536
2017-12-11 10:35:35 GMT 55.43310 7.73246 28,675 248 362 1472
2017-12-11 10:35:31 GMT 55.43623 7.74617 28,550 248 363 1536
2017-12-11 10:35:24 GMT 55.44041 7.76417 28,350 248 362 1664
2017-12-11 10:35:20 GMT 55.44367 7.77832 28,200 248 361 1536
2017-12-11 10:35:16 GMT 55.44557 7.78648 28,125 248 361 1536
2017-12-11 10:35:14 GMT 55.44681 7.79189 28,075 248 360 1664
2017-12-11 10:35:12 GMT 55.44772 7.79574 28,050 248 361 1600
2017-12-11 10:35:06 GMT 55.45200 7.81420 27,875 248 360 1664
2017-12-11 10:35:04 GMT 55.45312 7.81910 27,800 248 360 1664
2017-12-11 10:34:55 GMT 55.45885 7.84399 27,550 248 359 1536
2017-12-11 10:34:53 GMT 55.46013 7.84940 27,500 248 359 1536
2017-12-11 10:34:51 GMT 55.46201 7.85754 27,425 248 358 1728
2017-12-11 10:34:46 GMT 55.46471 7.86939 27,300 248 358 1728
2017-12-11 10:34:39 GMT 55.46883 7.88718 27,125 248 358 1664
2017-12-11 10:34:36 GMT 55.47067 7.89531 27,025 248 357 1728
2017-12-11 10:34:32 GMT 55.47318 7.90604 26,900 248 357 1792
2017-12-11 10:34:24 GMT 55.47760 7.92535 26,700 248 356 1792
2017-12-11 10:34:22 GMT 55.47899 7.93130 26,625 248 356 1856
2017-12-11 10:34:19 GMT 55.48082 7.93934 26,525 249 355 1856
2017-12-11 10:34:14 GMT 55.48375 7.95213 26,375 249 355 1856
2017-12-11 10:34:11 GMT 55.48586 7.96126 26,275 249 355 1856
2017-12-11 10:34:04 GMT 55.48989 7.97891 26,075 248 354 1984
2017-12-11 10:34:02 GMT 55.49149 7.98590 25,975 248 354 2048
2017-12-11 10:34:00 GMT 55.49249 7.99014 25,925 248 354 2048
2017-12-11 10:33:54 GMT 55.49627 8.00680 25,700 248 354 2176
2017-12-11 10:33:51 GMT 55.49800 8.01427 25,600 248 354 2176
2017-12-11 10:33:44 GMT 55.50242 8.03358 25,350 249 355 1920
2017-12-11 10:33:42 GMT 55.50353 8.03841 25,275 249 355 1920
2017-12-11 10:33:40 GMT 55.50465 8.04319 25,225 248 354 2112
2017-12-11 10:33:34 GMT 55.50915 8.06305 24,925 249 355 2432
2017-12-11 10:33:31 GMT 55.51103 8.07109 24,800 249 355 2304
2017-12-11 10:33:29 GMT 55.51163 8.07379 24,775 249 355 2240
2017-12-11 10:33:23 GMT 55.51541 8.09040 24,550 249 355 2240
2017-12-11 10:33:20 GMT 55.51713 8.09795 24,450 249 356 2304
2017-12-11 10:33:16 GMT 55.51946 8.10816 24,300 249 355 2048
2017-12-11 10:33:12 GMT 55.52193 8.11890 24,150 249 355 2048
2017-12-11 10:33:09 GMT 55.52390 8.12755 24,025 249 355 2048
2017-12-11 10:33:02 GMT 55.52788 8.14525 23,800 249 355 2048
2017-12-11 10:32:59 GMT 55.52971 8.15327 23,700 249 354 1984
2017-12-11 10:32:57 GMT 55.53145 8.16076 23,600 249 354 1920
2017-12-11 10:32:53 GMT 55.53421 8.17306 23,475 249 353 1920
2017-12-11 10:32:48 GMT 55.53663 8.18370 23,325 249 352 1920
2017-12-11 10:32:42 GMT 55.54047 8.20071 23,125 249 350 1984
2017-12-11 10:32:39 GMT 55.54255 8.20970 23,025 249 350 1984
2017-12-11 10:32:34 GMT 55.54578 8.22402 22,825 249 349 1984
2017-12-11 10:32:32 GMT 55.54660 8.22773 22,775 249 347 1984
2017-12-11 10:32:29 GMT 55.54839 8.23559 22,700 249 347 1984
2017-12-11 10:32:23 GMT 55.55213 8.25185 22,475 247 345 2112
2017-12-11 10:32:18 GMT 55.55470 8.26206 22,325 245 344 2048
2017-12-11 10:32:12 GMT 55.55937 8.27870 22,125 242 343 1984
2017-12-11 10:32:08 GMT 55.56212 8.28752 21,975 241 342 1920
2017-12-11 10:32:03 GMT 55.56652 8.30034 21,825 238 341 2048
2017-12-11 10:32:01 GMT 55.56802 8.30458 21,750 238 340 2112
2017-12-11 10:31:58 GMT 55.57072 8.31207 21,650 238 339 2240
2017-12-11 10:31:56 GMT 55.57192 8.31536 21,575 238 336 2752
2017-12-11 10:31:49 GMT 55.57883 8.33438 21,275 238 338 2304
2017-12-11 10:31:41 GMT 55.58472 8.35055 20,975 238 336 2752
2017-12-11 10:31:38 GMT 55.58720 8.35752 20,850 238 336 2752
2017-12-11 10:31:33 GMT 55.59245 8.37184 20,550 238 336 2688
2017-12-11 10:31:31 GMT 55.59310 8.37364 20,525 238 336 2688
2017-12-11 10:31:28 GMT 55.59613 8.38197 20,350 238 336 2816
2017-12-11 10:31:20 GMT 55.60283 8.40042 19,950 238 336 3264
2017-12-11 10:31:18 GMT 55.60451 8.40506 19,850 238 337 3264
2017-12-11 10:31:11 GMT 55.61046 8.42119 19,450 237 338 3136
2017-12-11 10:31:07 GMT 55.61321 8.42859 19,300 237 338 3008
2017-12-11 10:31:02 GMT 55.61815 8.44205 19,000 238 339 3008
2017-12-11 10:31:00 GMT 55.61934 8.44532 18,925 238 339 3008
2017-12-11 10:30:57 GMT 55.62172 8.45182 18,775 238 339 3072
2017-12-11 10:30:50 GMT 55.62785 8.46855 18,425 237 340 2944
2017-12-11 10:30:47 GMT 55.63044 8.47552 18,275 237 339 3008
2017-12-11 10:30:37 GMT 55.63937 8.49964 17,725 237 340 3136
2017-12-11 10:30:32 GMT 55.64465 8.51407 17,400 238 340 2944
2017-12-11 10:30:30 GMT 55.64552 8.51646 17,350 238 339 3008
2017-12-11 10:30:27 GMT 55.64789 8.52299 17,200 238 339 3136
2017-12-11 10:30:21 GMT 55.65276 8.53663 16,900 238 340 3328
2017-12-11 10:30:19 GMT 55.65408 8.54037 16,800 238 340 3328
2017-12-11 10:30:16 GMT 55.65674 8.54786 16,625 238 340 3200
2017-12-11 10:30:10 GMT 55.66278 8.56484 16,250 238 340 3136
2017-12-11 10:30:05 GMT 55.66568 8.57277 16,050 238 340 3392
2017-12-11 10:29:59 GMT 55.67145 8.58873 15,675 238 341 3008
2017-12-11 10:29:55 GMT 55.67480 8.59809 15,475 238 340 3712
2017-12-11 10:29:49 GMT 55.68004 8.61270 15,050 238 341 4736
2017-12-11 10:29:39 GMT 55.68849 8.63585 14,250 238 349 3968
2017-12-11 10:29:30 GMT 55.69693 8.65972 13,675 239 351 2624
2017-12-11 10:29:28 GMT 55.69725 8.66072 13,625 239 352 2944
2017-12-11 10:29:18 GMT 55.70609 8.68619 13,150 239 350 2688
2017-12-11 10:29:08 GMT 55.71465 8.71104 12,675 239 347 2688
2017-12-11 10:28:58 GMT 55.72325 8.73546 12,225 239 344 2752
2017-12-11 10:28:47 GMT 55.73135 8.76093 11,725 246 341 2496
2017-12-11 10:28:37 GMT 55.73788 8.78803 11,300 248 337 1536
2017-12-11 10:28:29 GMT 55.74258 8.80820 11,150 248 329 896
2017-12-11 10:28:26 GMT 55.74444 8.81619 11,100 248 323 960
2017-12-11 10:28:17 GMT 55.74942 8.83738 10,975 248 309 704
2017-12-11 10:28:07 GMT 55.75520 8.86189 10,750 248 299 2176
2017-12-11 10:27:55 GMT 55.76088 8.88611 10,175 248 297 3712
2017-12-11 10:27:46 GMT 55.76591 8.90791 9,625 248 300 3008
2017-12-11 10:27:35 GMT 55.77149 8.93197 9,100 248 297 2752
2017-12-11 10:27:25 GMT 55.77685 8.95486 8,600 248 295 2624
2017-12-11 10:27:15 GMT 55.78229 8.97738 8,175 247 289 2752
2017-12-11 10:27:05 GMT 55.78770 8.99955 7,650 247 287 2944
2017-12-11 10:26:54 GMT 55.79246 9.02252 7,125 255 285 2944
2017-12-11 10:26:43 GMT 55.79481 9.04776 6,625 268 282 2240
2017-12-11 10:26:33 GMT 55.79416 9.07013 6,275 277 273 1216
2017-12-11 10:26:23 GMT 55.79274 9.09185 6,100 277 257 1408
2017-12-11 10:26:13 GMT 55.79118 9.11376 5,675 278 251 3328
2017-12-11 10:26:02 GMT 55.78963 9.13463 5,100 278 252 2688
2017-12-11 10:25:52 GMT 55.78793 9.15502 4,700 280 247 2240
2017-12-11 10:25:43 GMT 55.78587 9.17418 4,425 285 235 1088
2017-12-11 10:25:31 GMT 55.78113 9.19624 4,225 306 209 640
2017-12-11 10:25:22 GMT 55.77600 9.20569 4,150 325 192 768
2017-12-11 10:25:12 GMT 55.76809 9.21195 3,900 348 172 2176

Making use of Plane Finder data

You are free to use the raw flight data, aircraft information and images provided in this report for your own purposes provided the data is correctly attributed to Plane Finder. We ask that you please credit Plane Finder and link to planefinder.net in close proximity to the content.

Optionally one of the following logos (no smaller then 150x24px) can be used and must link to planefinder.net

Embedding the Plane Finder map

You are welcome to embed the Plane Finder playback map on your website to offer visitors a more interactive experience. We suggest using the following HTML code:

<iframe src="//planefinder.net/data/report/FR5173-EI-DHR-7700-squawk-2017-12-11/map" width="800" height="600" seamless="seamless"></iframe>

Where our data comes from

Plane Finder has a global network of data feeds and antenna radars that receive data broadcast directly from aircraft. The primary technologies used are ADS-B and MLAT. We also show feeds from the FAA and a FLARM glider feed.

Click here to find out more about the Plane Finder network.

How we collect our data